Provisional Data: Sangerfield River near Poolville, NY


Please select a monitoring station.
Please select start date.
Please select start date.

Toggle Unit: C/F Toggle Unit: C/F
Sample Time Temperature (C) Temperature (F) Specific Conductivity (mS/cm) pH   Turbidity (NTU+) DO (mg/L)
1/12/2021 12:00:00 AM 0.2 32.36 0.306 8.19 6.1 13.88
1/12/2021 12:15:00 AM 0.2 32.36 0.306 8.19 6.4 13.88
1/12/2021 12:30:00 AM 0.21 32.378 0.306 8.18 6.75 13.9
1/12/2021 12:45:00 AM 0.2 32.36 0.306 8.19 5.97 13.89
1/12/2021 1:00:00 AM 0.21 32.378 0.306 8.19 6.61 13.89
1/12/2021 1:15:00 AM 0.21 32.378 0.307 8.19 6.37 13.89
1/12/2021 1:30:00 AM 0.22 32.396 0.307 8.19 6.34 13.88
1/12/2021 1:45:00 AM 0.22 32.396 0.307 8.19 6.74 13.88
1/12/2021 2:00:00 AM 0.23 32.414 0.307 8.18 6.61 13.88
1/12/2021 2:15:00 AM 0.24 32.432 0.307 8.19 6.32 13.88
1/12/2021 2:30:00 AM 0.24 32.432 0.308 8.19 6.56 13.88
1/12/2021 2:45:00 AM 0.24 32.432 0.308 8.19 6.67 13.88
1/12/2021 3:00:00 AM 0.25 32.45 0.308 8.18 6.97 13.88
1/12/2021 3:15:00 AM 0.26 32.468 0.308 8.19 6.02 13.88
1/12/2021 3:30:00 AM 0.26 32.468 0.308 8.2 6.67 13.88
1/12/2021 3:45:00 AM 0.27 32.486 0.308 8.2 11.35 13.89
1/12/2021 4:00:00 AM 0.27 32.486 0.308 8.2 6.54 13.88
1/12/2021 4:15:00 AM 0.28 32.504 0.309 8.2 11.6 13.87
1/12/2021 4:30:00 AM 0.28 32.504 0.308 8.2 9.82 13.87
1/12/2021 4:45:00 AM 0.28 32.504 0.308 8.19 6.16 13.87
1/12/2021 5:00:00 AM 0.28 32.504 0.308 8.2 6.2 13.88
1/12/2021 5:15:00 AM 0.28 32.504 0.308 8.2 7.23 13.89
1/12/2021 5:30:00 AM 0.28 32.504 0.308 8.2 6.91 13.89
1/12/2021 5:45:00 AM 0.28 32.504 0.308 8.2 6.41 13.87
1/12/2021 6:00:00 AM 0.29 32.522 0.308 8.2 6.68 13.89
1/12/2021 6:15:00 AM 0.29 32.522 0.308 8.2 6.24 13.87
1/12/2021 6:30:00 AM 0.29 32.522 0.308 8.2 6.78 13.88
1/12/2021 6:45:00 AM 0.29 32.522 0.308 8.2 6.13 13.87
1/12/2021 7:00:00 AM 0.29 32.522 0.308 8.2 6.15 13.89
1/12/2021 7:15:00 AM 0.29 32.522 0.308 8.2 6.06 13.89
1/12/2021 7:30:00 AM 0.3 32.54 0.308 8.2 6.57 13.89
1/12/2021 7:45:00 AM 0.3 32.54 0.307 8.19 6.45 13.88
1/12/2021 8:00:00 AM 0.3 32.54 0.307 8.2 5.89 13.89
1/12/2021 8:15:00 AM 0.31 32.558 0.307 8.2 6.57 13.9
1/12/2021 8:30:00 AM 0.31 32.558 0.307 8.2 6.54 13.89
1/12/2021 8:45:00 AM 0.31 32.558 0.307 8.2 6.14 13.91
1/12/2021 9:00:00 AM 0.32 32.576 0.307 8.2 6.39 13.91
1/12/2021 9:15:00 AM 0.34 32.612 0.307 8.21 6.28 13.92
1/12/2021 9:30:00 AM 0.36 32.648 0.306 8.2 6.33 13.94
1/12/2021 9:45:00 AM 0.38 32.684 0.306 8.21 6.05 13.95
1/12/2021 10:00:00 AM 0.41 32.738 0.306 8.21 5.78 13.96
1/12/2021 10:15:00 AM 0.44 32.792 0.305 8.21 5.44 13.97
1/12/2021 10:30:00 AM 0.46 32.828 0.305 8.21 5.85 13.98
1/12/2021 10:45:00 AM 0.48 32.864 0.305 8.22 5.47 13.98
1/12/2021 11:00:00 AM 0.5 32.9 0.305 8.22 5.68 13.97
1/12/2021 11:15:00 AM 0.52 32.936 0.304 8.22 5.65 13.98
1/12/2021 11:30:00 AM 0.54 32.972 0.304 8.22 5.53 13.97
1/12/2021 11:45:00 AM 0.56 33.008 0.304 8.22 7.97 13.97
1/12/2021 12:00:00 PM 0.58 33.044 0.304 8.22 5.72 13.97
1/12/2021 12:15:00 PM 0.59 33.062 0.304 8.23 5.64 13.97
1/12/2021 12:30:00 PM 0.59 33.062 0.304 8.23 5.53 13.96
1/12/2021 12:45:00 PM 0.6 33.08 0.304 8.23 5.57 13.95
1/12/2021 1:00:00 PM 0.59 33.062 0.304 8.23 5.63 13.94
1/12/2021 1:15:00 PM 0.6 33.08 0.304 8.22 5.74 13.93
1/12/2021 1:30:00 PM 0.6 33.08 0.304 8.23 5.74 13.93
1/12/2021 1:45:00 PM 0.62 33.116 0.303 8.23 5.71 13.93
1/12/2021 2:00:00 PM 0.63 33.134 0.303 8.23 5.87 13.93
1/12/2021 2:15:00 PM 0.64 33.152 0.304 8.23 5.78 13.93
1/12/2021 2:30:00 PM 0.65 33.17 0.304 8.23 5.99 13.92
1/12/2021 2:45:00 PM 0.66 33.188 0.304 8.23 5.82 13.93
1/12/2021 3:00:00 PM 0.67 33.206 0.304 8.23 5.77 13.93
1/12/2021 3:15:00 PM 0.69 33.242 0.304 8.23 5.78 13.93
1/12/2021 3:30:00 PM 0.69 33.242 0.303 8.23 5.53 13.92
1/12/2021 3:45:00 PM 0.69 33.242 0.304 8.23 5.59 13.91
1/12/2021 4:00:00 PM 0.69 33.242 0.304 8.23 5.57 13.9
1/12/2021 4:15:00 PM 0.68 33.224 0.304 8.23 5.66 13.89
1/12/2021 4:30:00 PM 0.68 33.224 0.304 8.23 5.62 13.87
1/12/2021 4:45:00 PM 0.67 33.206 0.304 8.23 5.58 13.85
1/12/2021 5:00:00 PM 0.67 33.206 0.304 8.22 6.87 13.84
1/12/2021 5:15:00 PM 0.66 33.188 0.304 8.22 5.83 13.82
1/12/2021 5:30:00 PM 0.66 33.188 0.304 8.22 5.85 13.82
1/12/2021 5:45:00 PM 0.65 33.17 0.304 8.22 5.57 13.81
1/12/2021 6:00:00 PM 0.65 33.17 0.304 8.22 5.7 13.8
1/12/2021 6:15:00 PM 0.65 33.17 0.304 8.22 5.86 13.8
1/12/2021 6:30:00 PM 0.64 33.152 0.304 8.21 6.21 13.8
1/12/2021 6:45:00 PM 0.63 33.134 0.304 8.22 6.16 13.8
1/12/2021 7:00:00 PM 0.63 33.134 0.304 8.21 6.03 13.79
1/12/2021 7:15:00 PM 0.62 33.116 0.304 8.21 5.79 13.79
1/12/2021 7:30:00 PM 0.62 33.116 0.304 8.21 6.24 13.79
1/12/2021 7:45:00 PM 0.61 33.098 0.304 8.21 6.21 13.79
1/12/2021 8:00:00 PM 0.61 33.098 0.304 8.21 6.14 13.79
1/12/2021 8:15:00 PM 0.61 33.098 0.304 8.21 6.24 13.79
1/12/2021 8:30:00 PM 0.6 33.08 0.304 8.21 6.15 13.79
1/12/2021 8:45:00 PM 0.59 33.062 0.304 8.21 6.68 13.79
1/12/2021 9:00:00 PM 0.59 33.062 0.304 8.21 6.04 13.79
1/12/2021 9:15:00 PM 0.58 33.044 0.304 8.21 6.36 13.8
1/12/2021 9:30:00 PM 0.57 33.026 0.304 8.21 6.17 13.79
1/12/2021 9:45:00 PM 0.57 33.026 0.304 8.21 6.17 13.79
1/12/2021 10:00:00 PM 0.56 33.008 0.304 8.21 6.34 13.8
1/12/2021 10:15:00 PM 0.55 32.99 0.304 8.2 6.11 13.8
1/12/2021 10:30:00 PM 0.55 32.99 0.304 8.21 6.06 13.8
1/12/2021 10:45:00 PM 0.55 32.99 0.304 8.21 6.3 13.8
1/12/2021 11:00:00 PM 0.54 32.972 0.304 8.21 5.99 13.8
1/12/2021 11:15:00 PM 0.54 32.972 0.304 8.21 6.21 13.8
1/12/2021 11:30:00 PM 0.54 32.972 0.304 8.2 6.59 13.8
1/12/2021 11:45:00 PM 0.53 32.954 0.304 8.21 6.18 13.8
1/13/2021 12:00:00 AM 0.53 32.954 0.304 8.21 6.17 13.8
1/13/2021 12:15:00 AM 0.52 32.936 0.304 8.2 6.06 13.8
1/13/2021 12:30:00 AM 0.51 32.918 0.304 8.21 5.98 13.8
1/13/2021 12:45:00 AM 0.5 32.9 0.304 8.2 6.26 13.81
1/13/2021 1:00:00 AM 0.5 32.9 0.304 8.2 6.43 13.81
1/13/2021 1:15:00 AM 0.5 32.9 0.304 8.2 6 13.8
1/13/2021 1:30:00 AM 0.49 32.882 0.304 8.21 5.89 13.81
1/13/2021 1:45:00 AM 0.49 32.882 0.304 8.2 5.94 13.81
1/13/2021 2:00:00 AM 0.48 32.864 0.304 8.21 6.01 13.81
1/13/2021 2:15:00 AM 0.48 32.864 0.304 8.2 5.89 13.82
1/13/2021 2:30:00 AM 0.47 32.846 0.304 8.2 6.25 13.82
1/13/2021 2:45:00 AM 0.47 32.846 0.304 8.2 5.83 13.82
1/13/2021 3:00:00 AM 0.47 32.846 0.304 8.2 5.85 13.83
1/13/2021 3:15:00 AM 0.47 32.846 0.304 8.2 5.91 13.82
1/13/2021 3:30:00 AM 0.47 32.846 0.304 8.21 5.77 13.83
1/13/2021 3:45:00 AM 0.46 32.828 0.304 8.2 6.13 13.83
1/13/2021 4:00:00 AM 0.46 32.828 0.304 8.2 6.29 13.82
1/13/2021 4:15:00 AM 0.46 32.828 0.304 8.2 6 13.83
1/13/2021 4:30:00 AM 0.45 32.81 0.304 8.2 5.96 13.83
1/13/2021 4:45:00 AM 0.45 32.81 0.304 8.2 6 13.82
1/13/2021 5:00:00 AM 0.45 32.81 0.304 8.2 5.95 13.82
1/13/2021 5:15:00 AM 0.44 32.792 0.304 8.2 6.48 13.83
1/13/2021 5:30:00 AM 0.44 32.792 0.304 8.2 6.19 13.83
1/13/2021 5:45:00 AM 0.43 32.774 0.304 8.2 6.04 13.82
1/13/2021 6:00:00 AM 0.43 32.774 0.304 8.2 6.31 13.84
1/13/2021 6:15:00 AM 0.42 32.756 0.304 8.2 6.03 13.84
1/13/2021 6:30:00 AM 0.42 32.756 0.304 8.2 6.52 13.83
1/13/2021 6:45:00 AM 0.42 32.756 0.304 8.2 6.43 13.83
1/13/2021 7:00:00 AM 0.41 32.738 0.304 8.2 6.62 13.83
1/13/2021 7:15:00 AM 0.41 32.738 0.304 8.2 6.69 13.84
1/13/2021 7:30:00 AM 0.41 32.738 0.303 8.19 6.68 13.84
1/13/2021 7:45:00 AM 0.41 32.738 0.303 8.2 5.9 13.83
1/13/2021 8:00:00 AM 0.41 32.738 0.303 8.2 5.88 13.85
1/13/2021 8:15:00 AM 0.42 32.756 0.303 8.2 6.93 13.85
1/13/2021 8:30:00 AM 0.43 32.774 0.303 8.21 6.4 13.86
1/13/2021 8:45:00 AM 0.45 32.81 0.303 8.21 5.91 13.89
1/13/2021 9:00:00 AM 0.47 32.846 0.303 8.21 6.08 13.89
1/13/2021 9:15:00 AM 0.49 32.882 0.303 8.21 6.39 13.91
1/13/2021 9:30:00 AM 0.51 32.918 0.302 8.21 6.15 13.91
1/13/2021 9:45:00 AM 0.54 32.972 0.302 8.22 6.07 13.92
1/13/2021 10:00:00 AM 0.56 33.008 0.302 8.22 6.85 13.92
1/13/2021 10:15:00 AM 0.59 33.062 0.302 8.22 5.89 13.92
1/13/2021 10:30:00 AM 0.64 33.152 0.302 8.23 5.89 13.93
1/13/2021 10:45:00 AM 0.68 33.224 0.302 8.23 5.67 13.94
1/13/2021 11:00:00 AM 0.72 33.296 0.302 8.23 5.73 13.93
1/13/2021 11:15:00 AM 0.75 33.35 0.302 8.23 5.88 13.93
1/13/2021 11:30:00 AM 0.76 33.368 0.302 8.23 6.06 13.92
1/13/2021 11:45:00 AM 0.77 33.386 0.302 8.23 6.21 13.91
1/13/2021 12:00:00 PM 0.77 33.386 0.302 8.24 5.72 13.9
1/13/2021 12:15:00 PM 0.77 33.386 0.302 8.24 5.4 13.9
1/13/2021 12:30:00 PM 0.79 33.422 0.301 8.24 5.81 13.9
1/13/2021 12:45:00 PM 0.8 33.44 0.301 8.24 5.63 13.89
1/13/2021 1:00:00 PM 0.81 33.458 0.301 8.24 5.68 13.89
1/13/2021 1:15:00 PM 0.84 33.512 0.301 8.24 5.77 13.88
1/13/2021 1:30:00 PM 0.88 33.584 0.301 8.24 5.71 13.88
1/13/2021 1:45:00 PM 0.91 33.638 0.301 8.24 5.86 13.88
1/13/2021 2:00:00 PM 0.93 33.674 0.301 8.25 5.6 13.87
1/13/2021 2:15:00 PM 0.95 33.71 0.301 8.25 5.88 13.86
1/13/2021 2:30:00 PM 0.97 33.746 0.301 8.25 5.42 13.85
1/13/2021 2:45:00 PM 0.98 33.764 0.301 8.25 5.49 13.85
1/13/2021 3:00:00 PM 1 33.8 0.301 8.25 5.6 13.83
1/13/2021 3:15:00 PM 1 33.8 0.301 8.25 5.6 13.82
1/13/2021 3:30:00 PM 1.01 33.818 0.301 8.25 5.33 13.81
1/13/2021 3:45:00 PM 1.01 33.818 0.3 8.25 5.3 13.8
1/13/2021 4:00:00 PM 1.01 33.818 0.3 8.25 5.27 13.79
1/13/2021 4:15:00 PM 1.01 33.818 0.3 8.25 5.08 13.77
1/13/2021 4:30:00 PM 1 33.8 0.3 8.25 5.46 13.75
1/13/2021 4:45:00 PM 0.99 33.782 0.3 8.24 5.42 13.73
1/13/2021 5:00:00 PM 0.98 33.764 0.3 8.24 6.3 13.71
1/13/2021 5:15:00 PM 0.96 33.728 0.3 8.23 6.47 13.69
1/13/2021 5:30:00 PM 0.95 33.71 0.3 8.23 6.56 13.67
1/13/2021 5:45:00 PM 0.93 33.674 0.3 8.23 6.17 13.66
1/13/2021 6:00:00 PM 0.91 33.638 0.3 8.23 6.16 13.66
1/13/2021 6:15:00 PM 0.89 33.602 0.3 8.22 6.21 13.65
1/13/2021 6:30:00 PM 0.87 33.566 0.3 8.22 6.29 13.65
1/13/2021 6:45:00 PM 0.84 33.512 0.3 8.22 7.46 13.65
1/13/2021 7:00:00 PM 0.81 33.458 0.3 8.22 7.04 13.65
1/13/2021 7:15:00 PM 0.8 33.44 0.3 8.22 6.58 13.65
1/13/2021 7:30:00 PM 0.78 33.404 0.3 8.22 6.59 13.65
1/13/2021 7:45:00 PM 0.76 33.368 0.3 8.22 7.53 13.65
1/13/2021 8:00:00 PM 0.74 33.332 0.3 8.22 7.07 13.66
1/13/2021 8:15:00 PM 0.72 33.296 0.3 8.22 6.47 13.66
1/13/2021 8:30:00 PM 0.7 33.26 0.3 8.22 6.41 13.66
1/13/2021 8:45:00 PM 0.69 33.242 0.3 8.22 6.57 13.66
1/13/2021 9:00:00 PM 0.68 33.224 0.3 8.22 6.36 13.66
1/13/2021 9:15:00 PM 0.67 33.206 0.3 8.21 6.03 13.67
1/13/2021 9:30:00 PM 0.66 33.188 0.3 8.22 6.08 13.67
1/13/2021 9:45:00 PM 0.65 33.17 0.3 8.22 6.16 13.67
1/13/2021 10:00:00 PM 0.64 33.152 0.3 8.21 6.12 13.67
1/13/2021 10:15:00 PM 0.63 33.134 0.3 8.22 6.23 13.68
1/13/2021 10:30:00 PM 0.61 33.098 0.3 8.21 6.32 13.68
1/13/2021 10:45:00 PM 0.6 33.08 0.3 8.21 7 13.68
1/13/2021 11:00:00 PM 0.6 33.08 0.3 8.21 6.89 13.68
1/13/2021 11:15:00 PM 0.59 33.062 0.3 8.22 6.42 13.68
1/13/2021 11:30:00 PM 0.58 33.044 0.3 8.21 6.54 13.69
1/13/2021 11:45:00 PM 0.56 33.008 0.3 8.21 6.39 13.69
1/14/2021 12:00:00 AM 0.54 32.972 0.3 8.21 6.4 13.69
1/14/2021 12:15:00 AM 0.51 32.918 0.3 8.21 6.51 13.7
1/14/2021 12:30:00 AM 0.49 32.882 0.3 8.21 6.3 13.71
1/14/2021 12:45:00 AM 0.47 32.846 0.3 8.21 6.02 13.71
1/14/2021 1:00:00 AM 0.45 32.81 0.3 8.2 6.3 13.73
1/14/2021 1:15:00 AM 0.43 32.774 0.3 8.21 6.13 13.72
1/14/2021 1:30:00 AM 0.42 32.756 0.3 8.21 7.06 13.73
1/14/2021 1:45:00 AM 0.41 32.738 0.3 8.21 6.18 13.73
1/14/2021 2:00:00 AM 0.4 32.72 0.3 8.21 6.68 13.75
1/14/2021 2:15:00 AM 0.39 32.702 0.3 8.21 6.64 13.75
1/14/2021 2:30:00 AM 0.39 32.702 0.3 8.2 6.47 13.75
1/14/2021 2:45:00 AM 0.38 32.684 0.3 8.2 8.75 13.75
1/14/2021 3:00:00 AM 0.38 32.684 0.3 8.21 6.01 13.76
1/14/2021 3:15:00 AM 0.38 32.684 0.3 8.21 5.95 13.75
1/14/2021 3:30:00 AM 0.39 32.702 0.3 8.21 6.26 13.76
1/14/2021 3:45:00 AM 0.39 32.702 0.3 8.21 6.23 13.77
1/14/2021 4:00:00 AM 0.4 32.72 0.3 8.2 5.92 13.75
1/14/2021 4:15:00 AM 0.41 32.738 0.3 8.21 6.01 13.77
1/14/2021 4:30:00 AM 0.42 32.756 0.3 8.2 6.27 13.75
1/14/2021 4:45:00 AM 0.42 32.756 0.3 8.2 6.26 13.76
1/14/2021 5:00:00 AM 0.43 32.774 0.3 8.2 12.69 13.75
1/14/2021 5:15:00 AM 0.44 32.792 0.3 8.2 7.62 13.75
1/14/2021 5:30:00 AM 0.45 32.81 0.3 8.2 6.43 13.75
1/14/2021 5:45:00 AM 0.46 32.828 0.3 8.2 7.82 13.75
1/14/2021 6:00:00 AM 0.47 32.846 0.3 8.2 7.25 13.75
1/14/2021 6:15:00 AM 0.47 32.846 0.3 8.2 6.9 13.75
1/14/2021 6:30:00 AM 0.48 32.864 0.3 8.2 7.59 13.74
1/14/2021 6:45:00 AM 0.49 32.882 0.3 8.2 6.4 13.74
1/14/2021 7:00:00 AM 0.51 32.918 0.3 8.2 6.55 13.74
1/14/2021 7:15:00 AM 0.52 32.936 0.3 8.2 6.49 13.74
1/14/2021 7:30:00 AM 0.53 32.954 0.3 8.2 6.2 13.73
1/14/2021 7:45:00 AM 0.54 32.972 0.3 8.2 6.03 13.73
1/14/2021 8:00:00 AM 0.55 32.99 0.3 8.2 6.53 13.73
1/14/2021 8:15:00 AM 0.57 33.026 0.3 8.21 6.7 13.74
1/14/2021 8:30:00 AM 0.59 33.062 0.3 8.21 6.18 13.75
1/14/2021 8:45:00 AM 0.61 33.098 0.3 8.21 5.78 13.75
1/14/2021 9:00:00 AM 0.63 33.134 0.3 8.21 6.01 13.76
1/14/2021 9:15:00 AM 0.67 33.206 0.3 8.21 5.89 13.77
1/14/2021 9:30:00 AM 0.7 33.26 0.3 8.22 5.85 13.78
1/14/2021 9:45:00 AM 0.73 33.314 0.299 8.22 5.96 13.79
1/14/2021 10:00:00 AM 0.77 33.386 0.299 8.22 6.07 13.8
1/14/2021 10:15:00 AM 0.81 33.458 0.299 8.22 6.17 13.79
1/14/2021 10:30:00 AM 0.84 33.512 0.299 8.23 6.17 13.8
1/14/2021 10:45:00 AM 0.88 33.584 0.299 8.23 6.14 13.8
1/14/2021 11:00:00 AM 0.92 33.656 0.299 8.23 6.11 13.8
1/14/2021 11:15:00 AM 0.96 33.728 0.299 8.23 5.81 13.79
1/14/2021 11:30:00 AM 1 33.8 0.299 8.23 5.74 13.79
1/14/2021 11:45:00 AM 1.04 33.872 0.299 8.23 5.89 13.78
1/14/2021 12:00:00 PM 1.08 33.944 0.299 8.24 5.9 13.77
1/14/2021 12:15:00 PM 1.11 33.998 0.299 8.23 6.1 13.77
1/14/2021 12:30:00 PM 1.15 34.07 0.299 8.24 5.98 13.76
1/14/2021 12:45:00 PM 1.18 34.124 0.299 8.24 6.04 13.75
1/14/2021 1:00:00 PM 1.21 34.178 0.299 8.24 5.88 13.74
1/14/2021 1:15:00 PM 1.23 34.214 0.299 8.24 5.72 13.73
1/14/2021 1:30:00 PM 1.25 34.25 0.299 8.24 6.11 13.71
1/14/2021 1:45:00 PM 1.27 34.286 0.299 8.24 6 13.71
1/14/2021 2:00:00 PM 1.3 34.34 0.299 8.24 17.69 13.69
1/14/2021 2:15:00 PM 1.31 34.358 0.299 8.24 7 13.68
1/14/2021 2:30:00 PM 1.33 34.394 0.299 8.24 6.38 13.67
1/14/2021 2:45:00 PM 1.35 34.43 0.299 8.24 6.37 13.66
1/14/2021 3:00:00 PM 1.37 34.466 0.299 8.24 6.51 13.65
1/14/2021 3:15:00 PM 1.39 34.502 0.299 8.24 6.04 13.64
1/14/2021 3:30:00 PM 1.4 34.52 0.299 8.24 6.09 13.62
1/14/2021 3:45:00 PM 1.41 34.538 0.299 8.24 6.24 13.61
1/14/2021 4:00:00 PM 1.42 34.556 0.299 8.24 5.86 13.6
1/14/2021 4:15:00 PM 1.43 34.574 0.299 8.23 6.2 13.59
1/14/2021 4:30:00 PM 1.43 34.574 0.299 8.23 6.04 13.56
1/14/2021 4:45:00 PM 1.42 34.556 0.299 8.23 6.14 13.54
1/14/2021 5:00:00 PM 1.42 34.556 0.299 8.22 6.38 13.52
1/14/2021 5:15:00 PM 1.41 34.538 0.299 8.22 6.14 13.51
1/14/2021 5:30:00 PM 1.41 34.538 0.299 8.22 6.24 13.49
1/14/2021 5:45:00 PM 1.4 34.52 0.299 8.22 6.76 13.48
1/14/2021 6:00:00 PM 1.4 34.52 0.299 8.22 6.52 13.47
1/14/2021 6:15:00 PM 1.39 34.502 0.299 8.21 6.66 13.47
1/14/2021 6:30:00 PM 1.39 34.502 0.299 8.21 6.39 13.46
1/14/2021 6:45:00 PM 1.39 34.502 0.299 8.21 6.67 13.46
1/14/2021 7:00:00 PM 1.38 34.484 0.299 8.21 7.1 13.46
1/14/2021 7:15:00 PM 1.38 34.484 0.299 8.21 6.41 13.46
1/14/2021 7:30:00 PM 1.38 34.484 0.299 8.2 6.28 13.46
1/14/2021 7:45:00 PM 1.37 34.466 0.299 8.21 6.11 13.46
1/14/2021 8:00:00 PM 1.36 34.448 0.299 8.21 6.3 13.46
1/14/2021 8:15:00 PM 1.36 34.448 0.299 8.21 6.05 13.46
1/14/2021 8:30:00 PM 1.36 34.448 0.299 8.2 6.31 13.46
1/14/2021 8:45:00 PM 1.35 34.43 0.299 8.2 6.16 13.46
1/14/2021 9:00:00 PM 1.35 34.43 0.299 8.2 6.16 13.46
1/14/2021 9:15:00 PM 1.35 34.43 0.299 8.2 6.98 13.46
1/14/2021 9:30:00 PM 1.34 34.412 0.299 8.2 6.35 13.46
1/14/2021 9:45:00 PM 1.34 34.412 0.299 8.2 6.27 13.46
1/14/2021 10:00:00 PM 1.33 34.394 0.299 8.2 6.01 13.47
1/14/2021 10:15:00 PM 1.33 34.394 0.299 8.2 6.09 13.46
1/14/2021 10:30:00 PM 1.32 34.376 0.299 8.2 7.15 13.47
1/14/2021 10:45:00 PM 1.32 34.376 0.299 8.2 6.27 13.47
1/14/2021 11:00:00 PM 1.31 34.358 0.299 8.2 6.09 13.47
1/14/2021 11:15:00 PM 1.31 34.358 0.299 8.2 5.95 13.47
1/14/2021 11:30:00 PM 1.3 34.34 0.299 8.19 6.05 13.48
1/14/2021 11:45:00 PM 1.29 34.322 0.299 8.19 6.74 13.48
1/15/2021 12:00:00 AM 1.29 34.322 0.299 8.2 6.27 13.48
1/15/2021 12:15:00 AM 1.28 34.304 0.299 8.19 6.13 13.48
1/15/2021 12:30:00 AM 1.26 34.268 0.299 8.19 5.82 13.49
1/15/2021 12:45:00 AM 1.25 34.25 0.299 8.19 5.81 13.49
1/15/2021 1:00:00 AM 1.24 34.232 0.299 8.19 5.83 13.5
1/15/2021 1:15:00 AM 1.23 34.214 0.299 8.19 5.93 13.49
1/15/2021 1:30:00 AM 1.22 34.196 0.299 8.19 6.12 13.5
1/15/2021 1:45:00 AM 1.19 34.142 0.299 8.19 6.26 13.51
1/15/2021 2:00:00 AM 1.18 34.124 0.299 8.19 6.71 13.51
1/15/2021 2:15:00 AM 1.16 34.088 0.299 8.19 6.32 13.51
1/15/2021 2:30:00 AM 1.14 34.052 0.3 8.19 6.17 13.52
1/15/2021 2:45:00 AM 1.11 33.998 0.3 8.19 6.23 13.53
1/15/2021 3:00:00 AM 1.07 33.926 0.299 8.19 6.62 13.54
1/15/2021 3:15:00 AM 1.04 33.872 0.299 8.19 6.46 13.55
1/15/2021 3:30:00 AM 1 33.8 0.3 8.18 6.15 13.56
1/15/2021 3:45:00 AM 0.97 33.746 0.3 8.19 6.41 13.57
1/15/2021 4:00:00 AM 0.96 33.728 0.3 8.19 9.06 13.57
1/15/2021 4:15:00 AM 0.92 33.656 0.3 8.19 6.35 13.59
1/15/2021 4:30:00 AM 0.88 33.584 0.3 8.19 6.29 13.6
1/15/2021 4:45:00 AM 0.85 33.53 0.3 8.19 6.41 13.61
1/15/2021 5:00:00 AM 0.81 33.458 0.3 8.19 5.72 13.62
1/15/2021 5:15:00 AM 0.77 33.386 0.3 8.19 6.72 13.63
1/15/2021 5:30:00 AM 0.73 33.314 0.3 8.19 6.04 13.64
1/15/2021 5:45:00 AM 0.68 33.224 0.3 8.19 5.83 13.66
1/15/2021 6:00:00 AM 0.64 33.152 0.3 8.19 6.06 13.67
1/15/2021 6:15:00 AM 0.59 33.062 0.3 8.19 6.21 13.69
1/15/2021 6:30:00 AM 0.54 32.972 0.3 8.19 5.84 13.7
1/15/2021 6:45:00 AM 0.5 32.9 0.3 8.19 6.19 13.71
1/15/2021 7:00:00 AM 0.46 32.828 0.3 8.19 5.87 13.72
1/15/2021 7:15:00 AM 0.42 32.756 0.3 8.19 6.17 13.74
1/15/2021 7:30:00 AM 0.38 32.684 0.301 8.19 5.98 13.75
1/15/2021 7:45:00 AM 0.35 32.63 0.301 8.19 6 13.77
1/15/2021 8:00:00 AM 0.34 32.612 0.301 8.19 5.68 13.8
1/15/2021 8:15:00 AM 0.32 32.576 0.301 8.2 5.96 13.81
1/15/2021 8:30:00 AM 0.3 32.54 0.301 8.2 5.91 13.83
1/15/2021 8:45:00 AM 0.29 32.522 0.301 8.2 5.61 13.87
1/15/2021 9:00:00 AM 0.3 32.54 0.301 8.2 5.8 13.9
1/15/2021 9:15:00 AM 0.31 32.558 0.301 8.21 5.91 13.92
1/15/2021 9:30:00 AM 0.33 32.594 0.301 8.21 6.05 13.93
1/15/2021 9:45:00 AM 0.37 32.666 0.301 8.21 5.53 13.96
1/15/2021 10:00:00 AM 0.42 32.756 0.301 8.22 5.98 13.97
1/15/2021 10:15:00 AM 0.48 32.864 0.301 8.22 6.02 13.99
1/15/2021 10:30:00 AM 0.55 32.99 0.3 8.22 6.16 13.99
1/15/2021 10:45:00 AM 0.62 33.116 0.3 8.23 6.02 13.99
1/15/2021 11:00:00 AM 0.7 33.26 0.3 8.22 6.3 13.98
1/15/2021 11:15:00 AM 0.78 33.404 0.3 8.23 6.12 13.97
1/15/2021 11:30:00 AM 0.85 33.53 0.3 8.23 6.12 13.96
1/15/2021 11:45:00 AM 0.91 33.638 0.3 8.23 5.92 13.95
1/15/2021 12:00:00 PM 0.97 33.746 0.3 8.24 5.98 13.94
1/15/2021 12:15:00 PM 1.02 33.836 0.3 8.24 5.82 13.93
1/15/2021 12:30:00 PM 1.08 33.944 0.3 8.24 5.71 13.91
1/15/2021 12:45:00 PM 1.17 34.106 0.3 8.24 5.72 13.9
1/15/2021 1:00:00 PM 1.26 34.268 0.3 8.24 5.85 13.89
1/15/2021 1:15:00 PM 1.33 34.394 0.3 8.25 5.9 13.88
1/15/2021 1:30:00 PM 1.37 34.466 0.3 8.25 5.79 13.86
1/15/2021 1:45:00 PM 1.39 34.502 0.3 8.25 6.14 13.84
1/15/2021 2:00:00 PM 1.41 34.538 0.3 8.26 5.79 13.83
1/15/2021 2:15:00 PM 1.44 34.592 0.3 8.25 5.87 13.81
1/15/2021 2:30:00 PM 1.47 34.646 0.3 8.26 5.74 13.79
1/15/2021 2:45:00 PM 1.51 34.718 0.3 8.26 6.05 13.78
1/15/2021 3:00:00 PM 1.54 34.772 0.3 8.26 5.97 13.76
1/15/2021 3:15:00 PM 1.56 34.808 0.3 8.26 6.02 13.74
1/15/2021 3:30:00 PM 1.57 34.826 0.3 8.26 6.31 13.72
1/15/2021 3:45:00 PM 1.59 34.862 0.3 8.26 6.24 13.7
1/15/2021 4:00:00 PM 1.6 34.88 0.3 8.25 5.96 13.67
1/15/2021 4:15:00 PM 1.59 34.862 0.3 8.26 6 13.64
1/15/2021 4:30:00 PM 1.59 34.862 0.3 8.25 5.86 13.61
1/15/2021 4:45:00 PM 1.58 34.844 0.3 8.24 9.73 13.58
1/15/2021 5:00:00 PM 1.58 34.844 0.3 8.24 6.22 13.56
1/15/2021 5:15:00 PM 1.57 34.826 0.3 8.24 6.7 13.53
1/15/2021 5:30:00 PM 1.56 34.808 0.3 8.24 7.36 13.51
1/15/2021 5:45:00 PM 1.55 34.79 0.3 8.24 6.72 13.49
1/15/2021 6:00:00 PM 1.55 34.79 0.3 8.24 6.3 13.48
1/15/2021 6:15:00 PM 1.55 34.79 0.301 8.23 7.04 13.47
1/15/2021 6:30:00 PM 1.55 34.79 0.3 8.23 6.69 13.46
1/15/2021 6:45:00 PM 1.56 34.808 0.301 8.23 6.35 13.45
1/15/2021 7:00:00 PM 1.57 34.826 0.301 8.23 6.34 13.44
1/15/2021 7:15:00 PM 1.57 34.826 0.3 8.23 6.17 13.44
1/15/2021 7:30:00 PM 1.58 34.844 0.301 8.23 6.25 13.42
1/15/2021 7:45:00 PM 1.59 34.862 0.301 8.23 6.33 13.41
1/15/2021 8:00:00 PM 1.6 34.88 0.3 8.22 6.19 13.4
1/15/2021 8:15:00 PM 1.61 34.898 0.301 8.23 5.96 13.4
1/15/2021 8:30:00 PM 1.62 34.916 0.301 8.22 5.83 13.38
1/15/2021 8:45:00 PM 1.62 34.916 0.301 8.23 5.92 13.38
1/15/2021 9:00:00 PM 1.64 34.952 0.301 8.23 6.12 13.37
1/15/2021 9:15:00 PM 1.65 34.97 0.301 8.22 6.14 13.36
1/15/2021 9:30:00 PM 1.66 34.988 0.301 8.22 6.44 13.35
1/15/2021 9:45:00 PM 1.68 35.024 0.3 8.22 6.47 13.34
1/15/2021 10:00:00 PM 1.69 35.042 0.301 8.22 6.08 13.33
1/15/2021 10:15:00 PM 1.7 35.06 0.3 8.22 6.38 13.32
1/15/2021 10:30:00 PM 1.71 35.078 0.3 8.22 6.01 13.32
1/15/2021 10:45:00 PM 1.72 35.096 0.301 8.22 5.99 13.31
1/15/2021 11:00:00 PM 1.73 35.114 0.3 8.22 6.3 13.3
1/15/2021 11:15:00 PM 1.74 35.132 0.3 8.22 6.17 13.29
1/15/2021 11:30:00 PM 1.75 35.15 0.3 8.22 5.87 13.29
1/15/2021 11:45:00 PM 1.76 35.168 0.3 8.22 5.88 13.28
1/16/2021 12:00:00 AM 1.76 35.168 0.3 8.22 6.15 13.28
1/16/2021 12:15:00 AM 1.76 35.168 0.3 8.22 9.8 13.27
1/16/2021 12:30:00 AM 1.76 35.168 0.3 8.22 6.12 13.27
1/16/2021 12:45:00 AM 1.76 35.168 0.3 8.22 5.53 13.27
1/16/2021 1:00:00 AM 1.76 35.168 0.3 8.22 6.19 13.27
1/16/2021 1:15:00 AM 1.76 35.168 0.3 8.22 6.17 13.26
1/16/2021 1:30:00 AM 1.75 35.15 0.3 8.22 5.88 13.26
1/16/2021 1:45:00 AM 1.73 35.114 0.299 8.22 5.73 13.26
1/16/2021 2:00:00 AM 1.71 35.078 0.299 8.22 6.09 13.26
1/16/2021 2:15:00 AM 1.69 35.042 0.298 8.22 6.03 13.26
1/16/2021 2:30:00 AM 1.67 35.006 0.298 8.22 5.97 13.27
1/16/2021 2:45:00 AM 1.66 34.988 0.298 8.21 6.1 13.26
1/16/2021 3:00:00 AM 1.65 34.97 0.298 8.22 5.93 13.27
1/16/2021 3:15:00 AM 1.64 34.952 0.298 8.21 6.06 13.26
1/16/2021 3:30:00 AM 1.63 34.934 0.298 8.21 6.04 13.27
1/16/2021 3:45:00 AM 1.62 34.916 0.298 8.21 5.92 13.27
1/16/2021 4:00:00 AM 1.61 34.898 0.298 8.21 6.03 13.26
1/16/2021 4:15:00 AM 1.59 34.862 0.298 8.21 5.9 13.27
1/16/2021 4:30:00 AM 1.56 34.808 0.298 8.21 6.16 13.27
1/16/2021 4:45:00 AM 1.53 34.754 0.298 8.21 6.14 13.27
1/16/2021 5:00:00 AM 1.5 34.7 0.298 8.21 6.36 13.28
1/16/2021 5:15:00 AM 1.47 34.646 0.298 8.21 5.97 13.28
1/16/2021 5:30:00 AM 1.44 34.592 0.298 8.21 5.9 13.28
1/16/2021 5:45:00 AM 1.39 34.502 0.298 8.21 5.87 13.29
1/16/2021 6:00:00 AM 1.3 34.34 0.297 8.2 6.18 13.29
1/16/2021 6:15:00 AM 1.19 34.142 0.297 8.21 6.06 13.29
1/16/2021 6:30:00 AM 1.11 33.998 0.297 8.21 6.42 13.31
1/16/2021 6:45:00 AM 1.01 33.818 0.296 8.21 6.49 13.33
1/16/2021 7:00:00 AM 0.92 33.656 0.296 8.2 6.58 13.35
1/16/2021 7:15:00 AM 0.82 33.476 0.296 8.21 6.83 13.36
1/16/2021 7:30:00 AM 0.75 33.35 0.295 8.21 6.18 13.37
1/16/2021 7:45:00 AM 0.68 33.224 0.295 8.21 6.74 13.39
1/16/2021 8:00:00 AM 0.64 33.152 0.295 8.21 6.26 13.41
1/16/2021 8:15:00 AM 0.63 33.134 0.295 8.21 6.12 13.44
1/16/2021 8:30:00 AM 0.65 33.17 0.295 8.21 7.63 13.46
1/16/2021 8:45:00 AM 0.68 33.224 0.295 8.21 6.33 13.49
1/16/2021 9:00:00 AM 0.72 33.296 0.295 8.21 6.4 13.51
1/16/2021 9:15:00 AM 0.76 33.368 0.294 8.21 6.4 13.53
1/16/2021 9:30:00 AM 0.8 33.44 0.294 8.22 6.49 13.55
1/16/2021 9:45:00 AM 0.84 33.512 0.294 8.22 6.39 13.56
1/16/2021 10:00:00 AM 0.87 33.566 0.294 8.22 6.59 13.57
1/16/2021 10:15:00 AM 0.91 33.638 0.294 8.22 6.08 13.59
1/16/2021 10:30:00 AM 0.95 33.71 0.293 8.23 6.1 13.6
1/16/2021 10:45:00 AM 1 33.8 0.293 8.22 6.11 13.6
1/16/2021 11:00:00 AM 1.03 33.854 0.293 8.23 6.11 13.6
1/16/2021 11:15:00 AM 1.06 33.908 0.293 8.23 6.47 13.6
1/16/2021 11:30:00 AM 1.1 33.98 0.293 8.23 6.48 13.59
1/16/2021 11:45:00 AM 1.14 34.052 0.292 8.23 6.37 13.59
1/16/2021 12:00:00 PM 1.19 34.142 0.292 8.22 6.35 13.58
1/16/2021 12:15:00 PM 1.25 34.25 0.292 8.23 6.15 13.58
1/16/2021 12:30:00 PM 1.29 34.322 0.292 8.23 6.68 13.57
1/16/2021 12:45:00 PM 1.29 34.322 0.292 8.23 6.55 13.56
1/16/2021 1:00:00 PM 1.3 34.34 0.292 8.23 6.67 13.54
1/16/2021 1:15:00 PM 1.3 34.34 0.292 8.24 6.61 13.53
1/16/2021 1:30:00 PM 1.29 34.322 0.292 8.23 6.59 13.52
1/16/2021 1:45:00 PM 1.28 34.304 0.292 8.23 6.64 13.5
1/16/2021 2:00:00 PM 1.28 34.304 0.292 8.23 6.5 13.5
1/16/2021 2:15:00 PM 1.28 34.304 0.292 8.23 6.74 13.49
1/16/2021 2:30:00 PM 1.28 34.304 0.292 8.23 6.6 13.49
1/16/2021 2:45:00 PM 1.29 34.322 0.292 8.23 6.49 13.5
1/16/2021 3:00:00 PM 1.29 34.322 0.292 8.23 6.39 13.49
1/16/2021 3:15:00 PM 1.3 34.34 0.292 8.23 6.4 13.48
1/16/2021 3:30:00 PM 1.3 34.34 0.292 8.23 6.36 13.48
1/16/2021 3:45:00 PM 1.3 34.34 0.292 8.23 6.55 13.47
1/16/2021 4:00:00 PM 1.3 34.34 0.292 8.23 6.74 13.46
1/16/2021 4:15:00 PM 1.29 34.322 0.292 8.23 6.95 13.46
1/16/2021 4:30:00 PM 1.28 34.304 0.292 8.23 7.15 13.44
1/16/2021 4:45:00 PM 1.26 34.268 0.292 8.23 7.04 13.43
1/16/2021 5:00:00 PM 1.25 34.25 0.292 8.22 6.48 13.41
1/16/2021 5:15:00 PM 1.22 34.196 0.292 8.22 6.9 13.4
1/16/2021 5:30:00 PM 1.2 34.16 0.292 8.22 6.99 13.38
1/16/2021 5:45:00 PM 1.18 34.124 0.292 8.22 7.8 13.38
1/16/2021 6:00:00 PM 1.16 34.088 0.292 8.21 6.82 13.37
1/16/2021 6:15:00 PM 1.14 34.052 0.292 8.21 7.22 13.37
1/16/2021 6:30:00 PM 1.12 34.016 0.293 8.21 7.07 13.36
1/16/2021 6:45:00 PM 1.1 33.98 0.293 8.21 7.05 13.36
1/16/2021 7:00:00 PM 1.09 33.962 0.293 8.21 7.96 13.36
1/16/2021 7:15:00 PM 1.08 33.944 0.293 8.21 7.23 13.36
1/16/2021 7:30:00 PM 1.07 33.926 0.293 8.21 6.95 13.36
1/16/2021 7:45:00 PM 1.06 33.908 0.293 8.2 8.54 13.35
1/16/2021 8:00:00 PM 1.05 33.89 0.293 8.21 8.41 13.35
1/16/2021 8:15:00 PM 1.04 33.872 0.294 8.21 6.85 13.35
1/16/2021 8:30:00 PM 1.04 33.872 0.294 8.21 7.15 13.35
1/16/2021 8:45:00 PM 1.04 33.872 0.294 8.2 7.24 13.34
1/16/2021 9:00:00 PM 1.03 33.854 0.294 8.2 7.34 13.34
1/16/2021 9:15:00 PM 1.02 33.836 0.294 8.2 7.41 13.34
1/16/2021 9:30:00 PM 1.02 33.836 0.294 8.2 6.96 13.34
1/16/2021 9:45:00 PM 1.01 33.818 0.294 8.2 7.61 13.34
1/16/2021 10:00:00 PM 0.99 33.782 0.294 8.2 7.31 13.34
1/16/2021 10:15:00 PM 0.98 33.764 0.294 8.2 7.06 13.35
1/16/2021 10:30:00 PM 0.97 33.746 0.294 8.2 7.32 13.35
1/16/2021 10:45:00 PM 0.97 33.746 0.294 8.2 6.73 13.35
1/16/2021 11:00:00 PM 0.96 33.728 0.294 8.2 6.82 13.36
1/16/2021 11:15:00 PM 0.95 33.71 0.294 8.2 6.81 13.36
1/16/2021 11:30:00 PM 0.94 33.692 0.294 8.2 7.02 13.36
1/16/2021 11:45:00 PM 0.93 33.674 0.294 8.19 6.88 13.37
1/17/2021 12:00:00 AM 0.92 33.656 0.294 8.2 6.65 13.37
1/17/2021 12:15:00 AM 0.91 33.638 0.294 8.2 6.68 13.37
1/17/2021 12:30:00 AM 0.89 33.602 0.294 8.2 6.7 13.38
1/17/2021 12:45:00 AM 0.88 33.584 0.294 8.2 6.73 13.38
1/17/2021 1:00:00 AM 0.86 33.548 0.294 8.2 6.7 13.39
1/17/2021 1:15:00 AM 0.82 33.476 0.294 8.2 6.85 13.4
1/17/2021 1:30:00 AM 0.78 33.404 0.295 8.2 7.18 13.41
1/17/2021 1:45:00 AM 0.76 33.368 0.295 8.2 6.89 13.41
1/17/2021 2:00:00 AM 0.74 33.332 0.295 8.2 6.7 13.42
1/17/2021 2:15:00 AM 0.72 33.296 0.295 8.2 7.3 13.43
1/17/2021 2:30:00 AM 0.71 33.278 0.295 8.19 7.02 13.44
1/17/2021 2:45:00 AM 0.7 33.26 0.294 8.2 6.98 13.45
1/17/2021 3:00:00 AM 0.69 33.242 0.294 8.2 6.7 13.45
1/17/2021 3:15:00 AM 0.68 33.224 0.295 8.2 7.31 13.46
1/17/2021 3:30:00 AM 0.65 33.17 0.294 8.2 7.23 13.47
1/17/2021 3:45:00 AM 0.63 33.134 0.294 8.2 7.28 13.47
1/17/2021 4:00:00 AM 0.6 33.08 0.294 8.2 6.87 13.48
1/17/2021 4:15:00 AM 0.57 33.026 0.294 8.2 6.87 13.49
1/17/2021 4:30:00 AM 0.56 33.008 0.294 8.2 6.72 13.49
1/17/2021 4:45:00 AM 0.52 32.936 0.294 8.2 6.87 13.51
1/17/2021 5:00:00 AM 0.51 32.918 0.294 8.2 6.78 13.51
1/17/2021 5:15:00 AM 0.51 32.918 0.294 8.2 7.06 13.52
1/17/2021 5:30:00 AM 0.51 32.918 0.294 8.2 6.91 13.52
1/17/2021 5:45:00 AM 0.5 32.9 0.294 8.2 7.02 13.53
1/17/2021 6:00:00 AM 0.5 32.9 0.294 8.2 7.53 13.53
1/17/2021 6:15:00 AM 0.5 32.9 0.294 8.2 6.85 13.53
1/17/2021 6:30:00 AM 0.5 32.9 0.294 8.2 6.58 13.54
1/17/2021 6:45:00 AM 0.49 32.882 0.294 8.19 7.19 13.54
1/17/2021 7:00:00 AM 0.49 32.882 0.294 8.2 7.37 13.55
1/17/2021 7:15:00 AM 0.49 32.882 0.294 8.2 6.84 13.54
1/17/2021 7:30:00 AM 0.49 32.882 0.294 8.2 6.67 13.54
1/17/2021 7:45:00 AM 0.49 32.882 0.293 8.19 7.07 13.55
1/17/2021 8:00:00 AM 0.5 32.9 0.293 8.2 6.27 13.56
1/17/2021 8:15:00 AM 0.5 32.9 0.293 8.2 6.81 13.56
1/17/2021 8:30:00 AM 0.51 32.918 0.293 8.2 7.21 13.57
1/17/2021 8:45:00 AM 0.51 32.918 0.293 8.2 6.73 13.59
1/17/2021 9:00:00 AM 0.52 32.936 0.293 8.2 6.61 13.59
1/17/2021 9:15:00 AM 0.53 32.954 0.293 8.2 6.63 13.6
1/17/2021 9:30:00 AM 0.55 32.99 0.293 8.2 6.9 13.62
1/17/2021 9:45:00 AM 0.56 33.008 0.293 8.21 6.82 13.62
1/17/2021 10:00:00 AM 0.55 32.99 0.293 8.21 6.37 13.63
1/17/2021 10:15:00 AM 0.56 33.008 0.293 8.21 6.64 13.63
1/17/2021 10:30:00 AM 0.56 33.008 0.293 8.21 6.93 13.63
1/17/2021 10:45:00 AM 0.58 33.044 0.293 8.21 7 13.64
1/17/2021 11:00:00 AM 0.6 33.08 0.293 8.2 6.59 13.65
1/17/2021 11:15:00 AM 0.61 33.098 0.293 8.21 7.12 13.66
1/17/2021 11:30:00 AM 0.63 33.134 0.293 8.21 6.51 13.65
1/17/2021 11:45:00 AM 0.66 33.188 0.293 8.22 7.01 13.66
1/17/2021 12:00:00 PM 0.68 33.224 0.293 8.22 6.37 13.66
1/17/2021 12:15:00 PM 0.7 33.26 0.293 8.22 6.31 13.66
1/17/2021 12:30:00 PM 0.72 33.296 0.293 8.22 6.17 13.66
1/17/2021 12:45:00 PM 0.74 33.332 0.293 8.22 6.63 13.66
1/17/2021 1:00:00 PM 0.75 33.35 0.293 8.22 6.85 13.65
1/17/2021 1:15:00 PM 0.78 33.404 0.293 8.22 6.43 13.65
1/17/2021 1:30:00 PM 0.81 33.458 0.293 8.23 6.11 13.66
1/17/2021 1:45:00 PM 0.83 33.494 0.293 8.23 6.07 13.66
1/17/2021 2:00:00 PM 0.86 33.548 0.293 8.23 6.16 13.66
1/17/2021 2:15:00 PM 0.89 33.602 0.292 8.23 9.94 13.66
1/17/2021 2:30:00 PM 0.91 33.638 0.293 8.23 6.57 13.65
1/17/2021 2:45:00 PM 0.93 33.674 0.293 8.22 6.47 13.64
1/17/2021 3:00:00 PM 0.95 33.71 0.293 8.23 6.71 13.64
1/17/2021 3:15:00 PM 0.96 33.728 0.292 8.23 8.13 13.62
1/17/2021 3:30:00 PM 0.98 33.764 0.293 8.22 6.71 13.61
1/17/2021 3:45:00 PM 1 33.8 0.292 8.22 6.75 13.61
1/17/2021 4:00:00 PM 1.01 33.818 0.292 8.23 6.74 13.6
1/17/2021 4:15:00 PM 1.02 33.836 0.292 8.23 6.91 13.59
1/17/2021 4:30:00 PM 1.02 33.836 0.293 8.23 7.43 13.58
1/17/2021 4:45:00 PM 1.02 33.836 0.294 8.22 7.29 13.56
1/17/2021 5:00:00 PM 1.03 33.854 0.296 8.22 7.27 13.54
1/17/2021 5:15:00 PM 1.03 33.854 0.296 8.21 7.01 13.52
1/17/2021 5:30:00 PM 1.03 33.854 0.296 8.21 7.08 13.51
1/17/2021 5:45:00 PM 1.03 33.854 0.294 8.21 7.03 13.49
1/17/2021 6:00:00 PM 1.03 33.854 0.294 8.21 7.2 13.49
1/17/2021 6:15:00 PM 1.03 33.854 0.293 8.2 6.84 13.48
1/17/2021 6:30:00 PM 1.03 33.854 0.293 8.21 7.56 13.48
1/17/2021 6:45:00 PM 1.02 33.836 0.293 8.21 6.42 13.48
1/17/2021 7:00:00 PM 1.02 33.836 0.292 8.21 6.65 13.48
1/17/2021 7:15:00 PM 1.02 33.836 0.292 8.2 6.62 13.48
1/17/2021 7:30:00 PM 1.01 33.818 0.292 8.2 6.48 13.48
1/17/2021 7:45:00 PM 1.01 33.818 0.292 8.2 6.81 13.48
1/17/2021 8:00:00 PM 1.01 33.818 0.292 8.2 6.58 13.47
1/17/2021 8:15:00 PM 1 33.8 0.292 8.2 6.58 13.47
1/17/2021 8:30:00 PM 1 33.8 0.292 8.2 6.69 13.47
1/17/2021 8:45:00 PM 1 33.8 0.292 8.2 7 13.47
1/17/2021 9:00:00 PM 0.99 33.782 0.292 8.2 6.53 13.47
1/17/2021 9:15:00 PM 0.98 33.764 0.293 8.2 6.29 13.47
1/17/2021 9:30:00 PM 0.97 33.746 0.292 8.2 6.14 13.47
1/17/2021 9:45:00 PM 0.97 33.746 0.292 8.2 6.64 13.48
1/17/2021 10:00:00 PM 0.96 33.728 0.293 8.2 6.24 13.48
1/17/2021 10:15:00 PM 0.96 33.728 0.293 8.2 6.29 13.48
1/17/2021 10:30:00 PM 0.95 33.71 0.293 8.2 6.58 13.48
1/17/2021 10:45:00 PM 0.94 33.692 0.293 8.19 6.25 13.48
1/17/2021 11:00:00 PM 0.94 33.692 0.293 8.19 6.57 13.48
1/17/2021 11:15:00 PM 0.94 33.692 0.293 8.2 6.88 13.48
1/17/2021 11:30:00 PM 0.93 33.674 0.293 8.19 6.32 13.48
1/17/2021 11:45:00 PM 0.93 33.674 0.293 8.19 6.47 13.48
1/18/2021 12:00:00 AM 0.92 33.656 0.293 8.2 6.53 13.48
1/18/2021 12:15:00 AM 0.92 33.656 0.293 8.19 6.5 13.48
1/18/2021 12:30:00 AM 0.91 33.638 0.293 8.19 6.04 13.49
1/18/2021 12:45:00 AM 0.91 33.638 0.293 8.19 6.29 13.49
1/18/2021 1:00:00 AM 0.9 33.62 0.293 8.19 6.26 13.49
1/18/2021 1:15:00 AM 0.9 33.62 0.293 8.19 6.28 13.49
1/18/2021 1:30:00 AM 0.9 33.62 0.293 8.18 6.21 13.49
1/18/2021 1:45:00 AM 0.89 33.602 0.293 8.19 6.9 13.49
1/18/2021 2:00:00 AM 0.87 33.566 0.293 8.19 6.74 13.49
1/18/2021 2:15:00 AM 0.86 33.548 0.293 8.19 6.29 13.49
1/18/2021 2:30:00 AM 0.84 33.512 0.293 8.19 6.16 13.49
1/18/2021 2:45:00 AM 0.83 33.494 0.293 8.19 6.33 13.5
1/18/2021 3:00:00 AM 0.83 33.494 0.293 8.19 6.47 13.5
1/18/2021 3:15:00 AM 0.83 33.494 0.293 8.19 6.39 13.5
1/18/2021 3:30:00 AM 0.83 33.494 0.293 8.19 6.14 13.5
1/18/2021 3:45:00 AM 0.82 33.476 0.293 8.19 6.14 13.5
1/18/2021 4:00:00 AM 0.81 33.458 0.293 8.19 6.31 13.5
1/18/2021 4:15:00 AM 0.8 33.44 0.293 8.2 6.39 13.5
1/18/2021 4:30:00 AM 0.79 33.422 0.293 8.19 6.33 13.51
1/18/2021 4:45:00 AM 0.79 33.422 0.293 8.19 6.55 13.51
1/18/2021 5:00:00 AM 0.79 33.422 0.293 8.19 6.21 13.51
1/18/2021 5:15:00 AM 0.78 33.404 0.293 8.19 6.29 13.51
1/18/2021 5:30:00 AM 0.78 33.404 0.293 8.19 6.65 13.52
1/18/2021 5:45:00 AM 0.78 33.404 0.293 8.19 6.37 13.52
1/18/2021 6:00:00 AM 0.78 33.404 0.293 8.19 6.5 13.52
1/18/2021 6:15:00 AM 0.78 33.404 0.293 8.19 6.63 13.53
1/18/2021 6:30:00 AM 0.78 33.404 0.293 8.19 6.34 13.53
1/18/2021 6:45:00 AM 0.78 33.404 0.293 8.19 6.28 13.53
1/18/2021 7:00:00 AM 0.78 33.404 0.294 8.19 6.2 13.53
1/18/2021 7:15:00 AM 0.78 33.404 0.293 8.19 6.29 13.53
1/18/2021 7:30:00 AM 0.75 33.35 0.293 8.19 6.42 13.53
1/18/2021 7:45:00 AM 0.74 33.332 0.294 8.18 8.31 13.54
1/18/2021 8:00:00 AM 0.74 33.332 0.294 8.19 7.96 13.55
1/18/2021 8:15:00 AM 0.74 33.332 0.294 8.19 6.19 13.56
1/18/2021 8:30:00 AM 0.74 33.332 0.294 8.2 6.02 13.58
1/18/2021 8:45:00 AM 0.76 33.368 0.294 8.2 5.86 13.6
1/18/2021 9:00:00 AM 0.78 33.404 0.294 8.21 5.84 13.63
1/18/2021 9:15:00 AM 0.8 33.44 0.294 8.21 5.77 13.65
1/18/2021 9:30:00 AM 0.82 33.476 0.294 8.22 5.84 13.67
1/18/2021 9:45:00 AM 0.86 33.548 0.294 8.21 6.02 13.68
1/18/2021 10:00:00 AM 0.89 33.602 0.294 8.22 5.98 13.7
1/18/2021 10:15:00 AM 0.93 33.674 0.294 8.22 6.02 13.71
1/18/2021 10:30:00 AM 0.97 33.746 0.294 8.23 6.52 13.72
1/18/2021 10:45:00 AM 1 33.8 0.294 8.23 5.99 13.71
1/18/2021 11:00:00 AM 1.08 33.944 0.294 8.23 6.24 13.71
1/18/2021 11:15:00 AM 1.14 34.052 0.294 8.23 6.16 13.72
1/18/2021 11:30:00 AM 1.21 34.178 0.294 8.24 5.87 13.71
1/18/2021 11:45:00 AM 1.31 34.358 0.294 8.24 5.78 13.71
1/18/2021 12:00:00 PM 1.35 34.43 0.294 8.24 5.97 13.69
1/18/2021 12:15:00 PM 1.37 34.466 0.294 8.24 6.04 13.69
1/18/2021 12:30:00 PM 1.38 34.484 0.294 8.24 6.04 13.68
1/18/2021 12:45:00 PM 1.41 34.538 0.294 8.25 6.19 13.68
1/18/2021 1:00:00 PM 1.46 34.628 0.294 8.25 9.57 13.68
1/18/2021 1:15:00 PM 1.5 34.7 0.294 8.25 7.17 13.67
1/18/2021 1:30:00 PM 1.55 34.79 0.294 8.25 6.24 13.66
1/18/2021 1:45:00 PM 1.64 34.952 0.294 8.25 6.05 13.66
1/18/2021 2:00:00 PM 1.7 35.06 0.294 8.26 6.12 13.65
1/18/2021 2:15:00 PM 1.69 35.042 0.295 8.25 12.75 13.63
1/18/2021 2:30:00 PM 1.68 35.024 0.295 8.26 7 13.62
1/18/2021 2:45:00 PM 1.68 35.024 0.295 8.26 10.61 13.61
1/18/2021 3:00:00 PM 1.67 35.006 0.295 8.26 6.5 13.61
1/18/2021 3:15:00 PM 1.65 34.97 0.295 8.25 6.21 13.6
1/18/2021 3:30:00 PM 1.64 34.952 0.295 8.26 6.06 13.59
1/18/2021 3:45:00 PM 1.62 34.916 0.295 8.26 6.38 13.57
1/18/2021 4:00:00 PM 1.6 34.88 0.295 8.25 6.45 13.55
1/18/2021 4:15:00 PM 1.58 34.844 0.296 8.25 6.26 13.53
1/18/2021 4:30:00 PM 1.55 34.79 0.296 8.25 6.17 13.52
1/18/2021 4:45:00 PM 1.53 34.754 0.296 8.24 6.16 13.51
1/18/2021 5:00:00 PM 1.5 34.7 0.296 8.24 6.12 13.49
1/18/2021 5:15:00 PM 1.47 34.646 0.296 8.24 6.46 13.48
1/18/2021 5:30:00 PM 1.43 34.574 0.296 8.24 6.2 13.47
1/18/2021 5:45:00 PM 1.41 34.538 0.296 8.23 6.4 13.46
1/18/2021 6:00:00 PM 1.38 34.484 0.296 8.23 6.8 13.45
1/18/2021 6:15:00 PM 1.36 34.448 0.296 8.23 6.79 13.46
1/18/2021 6:30:00 PM 1.34 34.412 0.296 8.23 6.7 13.46
1/18/2021 6:45:00 PM 1.32 34.376 0.297 8.22 6.84 13.46
1/18/2021 7:00:00 PM 1.3 34.34 0.297 8.22 6.42 13.46
1/18/2021 7:15:00 PM 1.28 34.304 0.297 8.22 6.11 13.46
1/18/2021 7:30:00 PM 1.26 34.268 0.297 8.22 6.26 13.47
1/18/2021 7:45:00 PM 1.24 34.232 0.297 8.22 5.87 13.47
1/18/2021 8:00:00 PM 1.23 34.214 0.297 8.22 6 13.47
1/18/2021 8:15:00 PM 1.22 34.196 0.297 8.22 5.76 13.47
1/18/2021 8:30:00 PM 1.2 34.16 0.297 8.22 6.07 13.48
1/18/2021 8:45:00 PM 1.19 34.142 0.297 8.22 6.16 13.49
1/18/2021 9:00:00 PM 1.17 34.106 0.297 8.22 5.67 13.49
1/18/2021 9:15:00 PM 1.16 34.088 0.298 8.21 5.9 13.49
1/18/2021 9:30:00 PM 1.15 34.07 0.298 8.21 5.81 13.5
1/18/2021 9:45:00 PM 1.12 34.016 0.298 8.21 6.03 13.5
1/18/2021 10:00:00 PM 1.11 33.998 0.298 8.21 6.33 13.51
1/18/2021 10:15:00 PM 1.09 33.962 0.298 8.22 5.95 13.52
1/18/2021 10:30:00 PM 1.07 33.926 0.298 8.21 6.04 13.52
1/18/2021 10:45:00 PM 1.05 33.89 0.298 8.21 5.73 13.53
1/18/2021 11:00:00 PM 1.04 33.872 0.298 8.21 6.05 13.54
1/18/2021 11:15:00 PM 1.02 33.836 0.299 8.21 10.41 13.54
1/18/2021 11:30:00 PM 1 33.8 0.299 8.2 6.49 13.54
1/18/2021 11:45:00 PM 0.98 33.764 0.299 8.21 7.69 13.55
1/19/2021 12:00:00 AM 0.96 33.728 0.299 8.21 6.45 13.56
1/19/2021 12:15:00 AM 0.94 33.692 0.299 8.21 5.83 13.57
1/19/2021 12:30:00 AM 0.92 33.656 0.299 8.21 5.93 13.57
1/19/2021 12:45:00 AM 0.9 33.62 0.299 8.21 5.84 13.58
1/19/2021 1:00:00 AM 0.87 33.566 0.299 8.21 5.76 13.59
1/19/2021 1:15:00 AM 0.85 33.53 0.3 8.21 5.79 13.6
1/19/2021 1:30:00 AM 0.84 33.512 0.3 8.21 5.97 13.61
1/19/2021 1:45:00 AM 0.82 33.476 0.3 8.21 5.89 13.61
1/19/2021 2:00:00 AM 0.81 33.458 0.3 8.21 5.63 13.62
1/19/2021 2:15:00 AM 0.79 33.422 0.3 8.2 5.78 13.63
1/19/2021 2:30:00 AM 0.78 33.404 0.3 8.21 6.06 13.64
1/19/2021 2:45:00 AM 0.76 33.368 0.3 8.21 6.2 13.65
1/19/2021 3:00:00 AM 0.75 33.35 0.3 8.21 5.67 13.66
1/19/2021 3:15:00 AM 0.73 33.314 0.301 8.21 5.8 13.66
1/19/2021 3:30:00 AM 0.72 33.296 0.301 8.21 6.34 13.67
1/19/2021 3:45:00 AM 0.71 33.278 0.301 8.21 6.16 13.67
1/19/2021 4:00:00 AM 0.7 33.26 0.301 8.2 5.91 13.68
1/19/2021 4:15:00 AM 0.68 33.224 0.301 8.21 6 13.69
1/19/2021 4:30:00 AM 0.67 33.206 0.301 8.21 6.03 13.69
1/19/2021 4:45:00 AM 0.66 33.188 0.301 8.21 6.14 13.7
1/19/2021 5:00:00 AM 0.65 33.17 0.301 8.2 5.8 13.7
1/19/2021 5:15:00 AM 0.64 33.152 0.301 8.21 5.59 13.71
1/19/2021 5:30:00 AM 0.64 33.152 0.301 8.21 5.85 13.71
1/19/2021 5:45:00 AM 0.63 33.134 0.301 8.21 5.52 13.72
1/19/2021 6:00:00 AM 0.62 33.116 0.301 8.21 5.55 13.72
1/19/2021 6:15:00 AM 0.61 33.098 0.301 8.21 5.8 13.73
1/19/2021 6:30:00 AM 0.61 33.098 0.302 8.2 5.9 13.73
1/19/2021 6:45:00 AM 0.6 33.08 0.302 8.21 5.82 13.73
1/19/2021 7:00:00 AM 0.6 33.08 0.302 8.21 5.71 13.74
1/19/2021 7:15:00 AM 0.6 33.08 0.302 8.21 5.78 13.74
1/19/2021 7:30:00 AM 0.6 33.08 0.302 8.21 5.68 13.74
1/19/2021 7:45:00 AM 0.6 33.08 0.302 8.21 5.84 13.75
1/19/2021 8:00:00 AM 0.6 33.08 0.302 8.21 5.55 13.76
1/19/2021 8:15:00 AM 0.61 33.098 0.302 8.21 5.99 13.77
1/19/2021 8:30:00 AM 0.62 33.116 0.302 8.21 5.8 13.79
1/19/2021 8:45:00 AM 0.64 33.152 0.302 8.22 5.36 13.81
1/19/2021 9:00:00 AM 0.68 33.224 0.302 8.22 5.37 13.82
1/19/2021 9:15:00 AM 0.72 33.296 0.302 8.22 5.28 13.84
1/19/2021 9:30:00 AM 0.75 33.35 0.302 8.22 5.36 13.87
1/19/2021 9:45:00 AM 0.79 33.422 0.303 8.23 5.51 13.87
1/19/2021 10:00:00 AM 0.83 33.494 0.303 8.23 5.47 13.88
1/19/2021 10:15:00 AM 0.88 33.584 0.303 8.24 5.47 13.89
1/19/2021 10:30:00 AM 0.93 33.674 0.303 8.24 5.51 13.89
1/19/2021 10:45:00 AM 0.99 33.782 0.303 8.24 5.59 13.9
1/19/2021 11:00:00 AM 1.07 33.926 0.303 8.25 5.54 13.89
1/19/2021 11:15:00 AM 1.15 34.07 0.303 8.25 5.57 13.89
1/19/2021 11:30:00 AM 1.23 34.214 0.303 8.24 5.59 13.88
1/19/2021 11:45:00 AM 1.29 34.322 0.303 8.24 5.47 13.87
1/19/2021 12:00:00 PM 1.36 34.448 0.303 8.25 5.44 13.86
1/19/2021 12:15:00 PM 1.43 34.574 0.304 8.26 5.48 13.85
1/19/2021 12:30:00 PM 1.48 34.664 0.305 8.25 5.72 13.83
1/19/2021 12:45:00 PM 1.54 34.772 0.306 8.26 6.09 13.82
1/19/2021 1:00:00 PM 1.6 34.88 0.306 8.26 5.55 13.81
1/19/2021 1:15:00 PM 1.67 35.006 0.305 8.26 5.65 13.79
1/19/2021 1:30:00 PM 1.71 35.078 0.305 8.26 5.77 13.78
1/19/2021 1:45:00 PM 1.75 35.15 0.304 8.27 5.83 13.76
1/19/2021 2:00:00 PM 1.77 35.186 0.304 8.27 5.46 13.74
1/19/2021 2:15:00 PM 1.82 35.276 0.304 8.27 5.81 13.73
1/19/2021 2:30:00 PM 1.83 35.294 0.304 8.27 5.48 13.71
1/19/2021 2:45:00 PM 1.83 35.294 0.304 8.27 5.63 13.7
1/19/2021 3:00:00 PM 1.82 35.276 0.304 8.27 5.6 13.68
1/19/2021 3:15:00 PM 1.82 35.276 0.304 8.27 5.88 13.67
1/19/2021 3:30:00 PM 1.82 35.276 0.304 8.27 5.89 13.66
1/19/2021 3:45:00 PM 1.77 35.186 0.304 8.27 5.79 13.64
1/19/2021 4:00:00 PM 1.68 35.024 0.304 8.27 5.82 13.62
1/19/2021 4:15:00 PM 1.58 34.844 0.304 8.27 5.68 13.6
1/19/2021 4:30:00 PM 1.55 34.79 0.304 8.26 5.61 13.59
1/19/2021 4:45:00 PM 1.5 34.7 0.304 8.26 5.41 13.59
1/19/2021 5:00:00 PM 1.45 34.61 0.305 8.26 5.96 13.58
1/19/2021 5:15:00 PM 1.42 34.556 0.305 8.25 5.85 13.56
1/19/2021 5:30:00 PM 1.4 34.52 0.305 8.25 5.69 13.55
1/19/2021 5:45:00 PM 1.38 34.484 0.305 8.25 5.68 13.55
1/19/2021 6:00:00 PM 1.36 34.448 0.305 8.24 5.68 13.54
1/19/2021 6:15:00 PM 1.35 34.43 0.305 8.24 6.13 13.54
1/19/2021 6:30:00 PM 1.34 34.412 0.305 8.24 5.87 13.54
1/19/2021 6:45:00 PM 1.31 34.358 0.305 8.24 5.72 13.53
1/19/2021 7:00:00 PM 1.29 34.322 0.305 8.24 5.84 13.54
1/19/2021 7:15:00 PM 1.26 34.268 0.305 8.24 5.75 13.55
1/19/2021 7:30:00 PM 1.22 34.196 0.305 8.24 5.83 13.54
1/19/2021 7:45:00 PM 1.19 34.142 0.306 8.23 5.8 13.56
1/19/2021 8:00:00 PM 1.15 34.07 0.306 8.23 6.45 13.56
1/19/2021 8:15:00 PM 1.13 34.034 0.306 8.23 5.68 13.57
1/19/2021 8:30:00 PM 1.08 33.944 0.306 8.23 5.96 13.57
1/19/2021 8:45:00 PM 1.04 33.872 0.306 8.23 6 13.58
1/19/2021 9:00:00 PM 1.02 33.836 0.306 8.23 6.08 13.59
1/19/2021 9:15:00 PM 1 33.8 0.306 8.23 5.84 13.59
1/19/2021 9:30:00 PM 0.97 33.746 0.307 8.23 5.92 13.6
1/19/2021 9:45:00 PM 0.95 33.71 0.308 8.23 5.72 13.61
1/19/2021 10:00:00 PM 0.94 33.692 0.308 8.22 6.17 13.61
1/19/2021 10:15:00 PM 0.92 33.656 0.308 8.23 5.74 13.62
1/19/2021 10:30:00 PM 0.91 33.638 0.308 8.23 5.85 13.62
1/19/2021 10:45:00 PM 0.9 33.62 0.308 8.22 6.29 13.63
1/19/2021 11:00:00 PM 0.89 33.602 0.308 8.22 5.71 13.63
1/19/2021 11:15:00 PM 0.88 33.584 0.308 8.22 5.65 13.63
1/19/2021 11:30:00 PM 0.87 33.566 0.307 8.22 6.15 13.63
1/19/2021 11:45:00 PM 0.87 33.566 0.308 8.22 5.55 13.64
1/20/2021 12:00:00 AM 0.85 33.53 0.308 8.22 5.4 13.64
1/20/2021 12:15:00 AM 0.84 33.512 0.308 8.22 5.92 13.64
1/20/2021 12:30:00 AM 0.82 33.476 0.308 8.22 5.78 13.65
1/20/2021 12:45:00 AM 0.79 33.422 0.308 8.22 5.65 13.65
1/20/2021 1:00:00 AM 0.77 33.386 0.308 8.23 6.19 13.66
1/20/2021 1:15:00 AM 0.74 33.332 0.308 8.22 5.92 13.66
1/20/2021 1:30:00 AM 0.73 33.314 0.308 8.22 5.54 13.66
1/20/2021 1:45:00 AM 0.71 33.278 0.308 8.22 5.89 13.67
1/20/2021 2:00:00 AM 0.68 33.224 0.308 8.22 5.86 13.68
1/20/2021 2:15:00 AM 0.67 33.206 0.308 8.23 5.95 13.68
1/20/2021 2:30:00 AM 0.66 33.188 0.308 8.22 5.89 13.69
1/20/2021 2:45:00 AM 0.65 33.17 0.308 8.23 5.76 13.69
1/20/2021 3:00:00 AM 0.61 33.098 0.308 8.22 6.09 13.69
1/20/2021 3:15:00 AM 0.57 33.026 0.308 8.23 5.65 13.69
1/20/2021 3:30:00 AM 0.55 32.99 0.308 8.22 5.86 13.7
1/20/2021 3:45:00 AM 0.53 32.954 0.308 8.22 6.38 13.71
1/20/2021 4:00:00 AM 0.51 32.918 0.308 8.22 5.56 13.72
1/20/2021 4:15:00 AM 0.49 32.882 0.308 8.22 5.98 13.74
1/20/2021 4:30:00 AM 0.46 32.828 0.308 8.22 5.99 13.74
1/20/2021 4:45:00 AM 0.45 32.81 0.308 8.22 5.88 13.74
1/20/2021 5:00:00 AM 0.44 32.792 0.308 8.22 6.04 13.75
1/20/2021 5:15:00 AM 0.43 32.774 0.308 8.22 7.22 13.76
1/20/2021 5:30:00 AM 0.42 32.756 0.308 8.22 5.56 13.75
1/20/2021 5:45:00 AM 0.41 32.738 0.308 8.22 5.86 13.76
1/20/2021 6:00:00 AM 0.4 32.72 0.308 8.22 5.62 13.77
1/20/2021 6:15:00 AM 0.39 32.702 0.308 8.22 5.96 13.77
1/20/2021 6:30:00 AM 0.38 32.684 0.308 8.22 5.68 13.77
1/20/2021 6:45:00 AM 0.36 32.648 0.308 8.22 5.72 13.78
1/20/2021 7:00:00 AM 0.34 32.612 0.308 8.22 5.79 13.8
1/20/2021 7:15:00 AM 0.34 32.612 0.308 8.22 5.54 13.8
1/20/2021 7:30:00 AM 0.32 32.576 0.308 8.22 5.51 13.8
1/20/2021 7:45:00 AM 0.31 32.558 0.308 8.23 5.52 13.82
1/20/2021 8:00:00 AM 0.29 32.522 0.308 8.23 5.72 13.83
1/20/2021 8:15:00 AM 0.28 32.504 0.308 8.23 5.44 13.83
1/20/2021 8:30:00 AM 0.29 32.522 0.308 8.23 5.61 13.86
1/20/2021 8:45:00 AM 0.31 32.558 0.308 8.23 6.6 13.89
1/20/2021 9:00:00 AM 0.33 32.594 0.308 8.24 6.87 13.92
1/20/2021 9:15:00 AM 0.33 32.594 0.308 8.24 5.67 13.93
1/20/2021 9:30:00 AM 0.34 32.612 0.308 8.25 5.65 13.95
1/20/2021 9:45:00 AM 0.35 32.63 0.308 8.25 5.53 13.96
1/20/2021 10:00:00 AM 0.27 32.486 0.308 8.25 5.45 13.98
1/20/2021 10:15:00 AM 0.18 32.324 0.307 8.26 5.54 13.99
1/20/2021 10:30:00 AM 0.19 32.342 0.307 8.26 7.82 13.99
1/20/2021 10:45:00 AM 0.22 32.396 0.307 8.26 8.56 14.01
1/20/2021 11:00:00 AM 0.29 32.522 0.307 8.26 5.88 14.05
1/20/2021 11:15:00 AM 0.31 32.558 0.307 8.26 5.97 14.05
1/20/2021 11:30:00 AM 0.34 32.612 0.307 8.26 6.45 14.05
1/20/2021 11:45:00 AM 0.42 32.756 0.307 8.27 6.21 14.05
1/20/2021 12:00:00 PM 0.43 32.774 0.307 8.26 5.95 14.05
1/20/2021 12:15:00 PM 0.44 32.792 0.307 8.27 5.64 14.05
1/20/2021 12:30:00 PM 0.4 32.72 0.307 8.27 5.84 14.06
1/20/2021 12:45:00 PM 0.47 32.846 0.307 8.27 5.81 14.06
1/20/2021 1:00:00 PM 0.54 32.972 0.307 8.27 5.77 14.06
1/20/2021 1:15:00 PM 0.69 33.242 0.307 8.27 5.65 14.05
1/20/2021 1:30:00 PM 0.66 33.188 0.307 8.28 5.63 14.05
1/20/2021 1:45:00 PM 0.55 32.99 0.307 8.28 5.48 14.05
1/20/2021 2:00:00 PM 0.48 32.864 0.308 8.28 5.85 14.05
1/20/2021 2:15:00 PM 0.44 32.792 0.309 8.27 5.69 14.05
1/20/2021 2:30:00 PM 0.44 32.792 0.309 8.28 5.59 14.06
1/20/2021 2:45:00 PM 0.54 32.972 0.308 8.27 5.7 14.07
1/20/2021 3:00:00 PM 0.61 33.098 0.308 8.28 5.52 14.07
1/20/2021 3:15:00 PM 0.66 33.188 0.308 8.28 5.63 14.07
1/20/2021 3:30:00 PM 0.69 33.242 0.308 8.28 5.62 14.06
1/20/2021 3:45:00 PM 0.69 33.242 0.308 8.28 5.8 14.04
1/20/2021 4:00:00 PM 0.67 33.206 0.308 8.29 5.96 14.04
1/20/2021 4:15:00 PM 0.62 33.116 0.308 8.28 5.71 14.03
1/20/2021 4:30:00 PM 0.57 33.026 0.308 8.28 5.97 14.01
1/20/2021 4:45:00 PM 0.52 32.936 0.308 8.28 5.87 13.98
1/20/2021 5:00:00 PM 0.5 32.9 0.308 8.27 5.98 13.96
1/20/2021 5:15:00 PM 0.48 32.864 0.308 8.27 5.77 13.92
1/20/2021 5:30:00 PM 0.47 32.846 0.308 8.26 6.22 13.9
1/20/2021 5:45:00 PM 0.47 32.846 0.308 8.26 6.7 13.88
1/20/2021 6:00:00 PM 0.45 32.81 0.308 8.26 7.1 13.87
1/20/2021 6:15:00 PM 0.42 32.756 0.308 8.26 6.21 13.87
1/20/2021 6:30:00 PM 0.37 32.666 0.308 8.26 6.2 13.88
1/20/2021 6:45:00 PM 0.33 32.594 0.308 8.26 6.04 13.88
1/20/2021 7:00:00 PM 0.3 32.54 0.308 8.25 6.22 13.88
1/20/2021 7:15:00 PM 0.27 32.486 0.308 8.25 5.97 13.9
1/20/2021 7:30:00 PM 0.24 32.432 0.309 8.25 5.68 13.9
1/20/2021 7:45:00 PM 0.22 32.396 0.309 8.25 5.99 13.91
1/20/2021 8:00:00 PM 0.19 32.342 0.309 8.25 6.14 13.92
1/20/2021 8:15:00 PM 0.15 32.27 0.31 8.25 6.06 13.91
1/20/2021 8:30:00 PM 0.1 32.18 0.31 8.25 5.77 13.93
1/20/2021 8:45:00 PM 0.05 32.09 0.311 8.25 5.85 13.93
1/20/2021 9:00:00 PM -0.01 31.982 0.311 8.25 6.25 13.96
1/20/2021 9:15:00 PM -0.07 31.874 0.311 8.25 5.97 13.97
1/20/2021 9:30:00 PM -0.11 31.802 0.311 8.25 6.21 13.99
1/20/2021 9:45:00 PM -0.08 31.856 0.311 8.25 6.42 14.01
1/20/2021 10:00:00 PM -0.07 31.874 0.307 8.24 6.67 14.03
1/20/2021 10:15:00 PM -0.07 31.874 0.311 8.25 6.12 14.05
1/20/2021 10:30:00 PM -0.07 31.874 0.311 8.25 5.95 14.07
1/20/2021 10:45:00 PM -0.07 31.874 0.312 8.25 6.11 14.07
1/20/2021 11:00:00 PM -0.07 31.874 0.312 8.25 5.78 14.07
1/20/2021 11:15:00 PM -0.06 31.892 0.312 8.24 6.2 14.08
1/20/2021 11:30:00 PM -0.06 31.892 0.313 8.24 5.78 14.09
1/20/2021 11:45:00 PM -0.07 31.874 0.313 8.25 5.99 14.09
1/21/2021 12:00:00 AM -0.06 31.892 0.314 8.25 5.69 14.11
1/21/2021 12:15:00 AM -0.06 31.892 0.314 8.25 5.45 14.11
1/21/2021 12:30:00 AM -0.06 31.892 0.315 8.25 5.41 14.1
1/21/2021 12:45:00 AM -0.06 31.892 0.315 8.26 5.59 14.11
1/21/2021 1:00:00 AM -0.06 31.892 0.316 8.26 5.55 14.11
1/21/2021 1:15:00 AM -0.06 31.892 0.316 8.26 5.34 14.11
1/21/2021 1:30:00 AM -0.06 31.892 0.317 8.26 5.57 14.11
1/21/2021 1:45:00 AM -0.06 31.892 0.317 8.26 5.55 14.11
1/21/2021 2:00:00 AM -0.06 31.892 0.318 8.26 5.93 14.11
1/21/2021 2:15:00 AM -0.06 31.892 0.318 8.26 5.36 14.1
1/21/2021 2:30:00 AM -0.07 31.874 0.319 8.25 5.02 14.09
1/21/2021 2:45:00 AM -0.06 31.892 0.319 8.26 5.16 14.09
1/21/2021 3:00:00 AM -0.06 31.892 0.32 8.25 5.28 14.1
1/21/2021 3:15:00 AM -0.07 31.874 0.321 8.25 6.29 14.1
1/21/2021 3:30:00 AM -0.07 31.874 0.321 8.25 5.87 14.1
1/21/2021 3:45:00 AM -0.07 31.874 0.321 8.26 5.43 14.11
1/21/2021 4:00:00 AM -0.07 31.874 0.322 8.26 5.2 14.11
1/21/2021 4:15:00 AM -0.07 31.874 0.322 8.26 5.27 14.1
1/21/2021 4:30:00 AM -0.06 31.892 0.323 8.26 5.93 14.11
1/21/2021 4:45:00 AM -0.06 31.892 0.323 8.25 5.02 14.1
1/21/2021 5:00:00 AM -0.06 31.892 0.323 8.25 5.1 14.09
1/21/2021 5:15:00 AM -0.06 31.892 0.323 8.25 5.11 14.08
1/21/2021 5:30:00 AM -0.06 31.892 0.323 8.26 5.18 14.07
1/21/2021 5:45:00 AM -0.06 31.892 0.323 8.25 5.03 14.07
1/21/2021 6:00:00 AM -0.06 31.892 0.324 8.25 4.99 14.06
1/21/2021 6:15:00 AM -0.06 31.892 0.324 8.25 5.07 14.04
1/21/2021 6:30:00 AM -0.06 31.892 0.324 8.25 4.95 14.04
1/21/2021 6:45:00 AM -0.06 31.892 0.324 8.25 5.02 14.02
1/21/2021 7:00:00 AM -0.06 31.892 0.324 8.25 4.88 14.02
1/21/2021 7:15:00 AM -0.06 31.892 0.324 8.25 5.28 14.01
1/21/2021 7:30:00 AM -0.06 31.892 0.325 8.25 5.06 14.01
1/21/2021 7:45:00 AM -0.06 31.892 0.325 8.25 5.05 14
1/21/2021 8:00:00 AM -0.06 31.892 0.325 8.25 5.04 14
1/21/2021 8:15:00 AM -0.06 31.892 0.325 8.25 5.18 13.99
1/21/2021 8:30:00 AM -0.06 31.892 0.325 8.25 5.06 13.99
1/21/2021 8:45:00 AM -0.06 31.892 0.326 8.25 5.1 14
1/21/2021 9:00:00 AM -0.06 31.892 0.326 8.24 5.19 14
1/21/2021 9:15:00 AM -0.06 31.892 0.326 8.25 4.97 14
1/21/2021 9:30:00 AM -0.06 31.892 0.326 8.25 4.94 14
1/21/2021 9:45:00 AM -0.06 31.892 0.326 8.26 5.22 14.02
1/21/2021 10:00:00 AM -0.05 31.91 0.326 8.26 5.27 14.03
1/21/2021 10:15:00 AM -0.05 31.91 0.326 8.26 5.48 14.03
1/21/2021 10:30:00 AM -0.05 31.91 0.326 8.25 5.05 14.05
1/21/2021 10:45:00 AM -0.05 31.91 0.326 8.26 5.36 14.07
1/21/2021 11:00:00 AM -0.05 31.91 0.326 8.27 5.28 14.06
1/21/2021 11:15:00 AM -0.05 31.91 0.325 8.27 5.36 14.05
1/21/2021 11:30:00 AM -0.05 31.91 0.325 8.27 5.42 14.05
1/21/2021 11:45:00 AM -0.05 31.91 0.325 8.26 5.46 14.04
1/21/2021 12:00:00 PM -0.04 31.928 0.325 8.27 5.54 14.03
1/21/2021 12:15:00 PM -0.04 31.928 0.325 8.27 5.81 14.03
1/21/2021 12:30:00 PM -0.05 31.91 0.325 8.27 5.88 14.02
1/21/2021 12:45:00 PM -0.05 31.91 0.324 8.26 5.98 14
1/21/2021 1:00:00 PM -0.05 31.91 0.324 8.26 6.24 13.98
1/21/2021 1:15:00 PM -0.04 31.928 0.323 8.26 6.84 13.97
1/21/2021 1:30:00 PM -0.05 31.91 0.322 8.26 6.23 13.95
1/21/2021 1:45:00 PM -0.05 31.91 0.322 8.25 7.12 13.94
1/21/2021 2:00:00 PM -0.05 31.91 0.322 8.24 7.39 13.93
1/21/2021 2:15:00 PM -0.05 31.91 0.321 8.25 7.15 13.91
1/21/2021 2:30:00 PM -0.05 31.91 0.321 8.24 7.13 13.9
1/21/2021 2:45:00 PM -0.05 31.91 0.32 8.24 7.32 13.9
1/21/2021 3:00:00 PM -0.04 31.928 0.32 8.24 7.97 13.89
1/21/2021 3:15:00 PM -0.04 31.928 0.319 8.24 8.15 13.88
1/21/2021 3:30:00 PM -0.04 31.928 0.319 8.24 8.63 13.86
1/21/2021 3:45:00 PM -0.04 31.928 0.318 8.24 8.21 13.85
1/21/2021 4:00:00 PM -0.04 31.928 0.318 8.24 8.82 13.84
1/21/2021 4:15:00 PM -0.04 31.928 0.317 8.23 8.59 13.83
1/21/2021 4:30:00 PM -0.05 31.91 0.316 8.23 8.26 13.82
1/21/2021 4:45:00 PM -0.05 31.91 0.316 8.23 8.07 13.81
1/21/2021 5:00:00 PM -0.05 31.91 0.315 8.23 7.8 13.8
1/21/2021 5:15:00 PM -0.05 31.91 0.315 8.23 8.21 13.77
1/21/2021 5:30:00 PM -0.05 31.91 0.314 8.23 7.57 13.77
1/21/2021 5:45:00 PM -0.04 31.928 0.314 8.23 7.44 13.75
1/21/2021 6:00:00 PM -0.04 31.928 0.314 8.23 6.93 13.76
1/21/2021 6:15:00 PM -0.04 31.928 0.314 8.23 7.32 13.75
1/21/2021 6:30:00 PM -0.03 31.946 0.314 8.23 7.11 13.74
1/21/2021 6:45:00 PM -0.03 31.946 0.314 8.23 7.14 13.75
1/21/2021 7:00:00 PM -0.03 31.946 0.314 8.23 7.12 13.73
1/21/2021 7:15:00 PM -0.03 31.946 0.314 8.23 7.52 13.74
1/21/2021 7:30:00 PM -0.02 31.964 0.314 8.23 7.08 13.73
1/21/2021 7:45:00 PM -0.03 31.946 0.313 8.23 7.72 13.72
1/21/2021 8:00:00 PM -0.03 31.946 0.313 8.23 7.08 13.72
1/21/2021 8:15:00 PM -0.02 31.964 0.313 8.23 7.42 13.72
1/21/2021 8:30:00 PM -0.01 31.982 0.312 8.22 7.09 13.73
1/21/2021 8:45:00 PM -0.01 31.982 0.312 8.23 7.66 13.73
1/21/2021 9:00:00 PM 0 32 0.312 8.22 6.54 13.71
1/21/2021 9:15:00 PM 0.01 32.018 0.311 8.22 6.66 13.72
1/21/2021 9:30:00 PM 0.02 32.036 0.311 8.22 6.85 13.72
1/21/2021 9:45:00 PM 0.02 32.036 0.311 8.21 6.55 13.73
1/21/2021 10:00:00 PM 0.03 32.054 0.311 8.22 7.38 13.72
1/21/2021 10:15:00 PM 0.03 32.054 0.311 8.21 6.74 13.72
1/21/2021 10:30:00 PM 0.03 32.054 0.31 8.21 6.71 13.72
1/21/2021 10:45:00 PM 0.04 32.072 0.31 8.21 7.46 13.72
1/21/2021 11:00:00 PM 0.04 32.072 0.31 8.22 6.63 13.73
1/21/2021 11:15:00 PM 0.04 32.072 0.31 8.22 6.8 13.72
1/21/2021 11:30:00 PM 0.05 32.09 0.31 8.22 6.5 13.73
1/21/2021 11:45:00 PM 0.06 32.108 0.31 8.22 5.94 13.73
1/22/2021 12:00:00 AM 0.06 32.108 0.31 8.22 6.12 13.72
1/22/2021 12:15:00 AM 0.07 32.126 0.31 8.21 6.23 13.72
1/22/2021 12:30:00 AM 0.07 32.126 0.31 8.22 6.3 13.71
1/22/2021 12:45:00 AM 0.07 32.126 0.31 8.22 5.95 13.73
1/22/2021 1:00:00 AM 0.05 32.09 0.31 8.22 6.43 13.71
1/22/2021 1:15:00 AM 0.05 32.09 0.31 8.22 6.04 13.73
1/22/2021 1:30:00 AM 0.05 32.09 0.31 8.22 6.07 13.72
1/22/2021 1:45:00 AM 0.05 32.09 0.31 8.22 6.11 13.72
1/22/2021 2:00:00 AM 0.06 32.108 0.309 8.22 6.04 13.73
1/22/2021 2:15:00 AM 0.06 32.108 0.309 8.22 5.93 13.74
1/22/2021 2:30:00 AM 0.08 32.144 0.309 8.21 5.99 13.72
1/22/2021 2:45:00 AM 0.08 32.144 0.309 8.22 6 13.72
1/22/2021 3:00:00 AM 0.07 32.126 0.309 8.22 5.91 13.73
1/22/2021 3:15:00 AM 0.06 32.108 0.309 8.22 6.61 13.73
1/22/2021 3:30:00 AM 0.05 32.09 0.309 8.22 6.13 13.73
1/22/2021 3:45:00 AM 0.05 32.09 0.309 8.22 5.82 13.72
1/22/2021 4:00:00 AM 0.06 32.108 0.31 8.22 6.1 13.72
1/22/2021 4:15:00 AM 0.07 32.126 0.31 8.22 6.11 13.72
1/22/2021 4:30:00 AM 0.08 32.144 0.31 8.22 7.61 13.74
1/22/2021 4:45:00 AM 0.08 32.144 0.31 8.22 6.06 13.73
1/22/2021 5:00:00 AM 0.09 32.162 0.311 8.22 6.37 13.73
1/22/2021 5:15:00 AM 0.1 32.18 0.311 8.22 5.73 13.73
1/22/2021 5:30:00 AM 0.1 32.18 0.311 8.22 5.91 13.74
1/22/2021 5:45:00 AM 0.11 32.198 0.311 8.22 5.92 13.73
1/22/2021 6:00:00 AM 0.12 32.216 0.312 8.22 5.77 13.73
1/22/2021 6:15:00 AM 0.12 32.216 0.312 8.22 5.84 13.74
1/22/2021 6:30:00 AM 0.11 32.198 0.312 8.23 5.56 13.74
1/22/2021 6:45:00 AM 0.11 32.198 0.312 8.23 5.75 13.73
1/22/2021 7:00:00 AM 0.12 32.216 0.313 8.22 6.03 13.74
1/22/2021 7:15:00 AM 0.12 32.216 0.313 8.22 5.5 13.74
1/22/2021 7:30:00 AM 0.12 32.216 0.313 8.22 5.45 13.75
1/22/2021 7:45:00 AM 0.13 32.234 0.313 8.22 5.99 13.74
1/22/2021 8:00:00 AM 0.15 32.27 0.314 8.23 6.07 13.75
1/22/2021 8:15:00 AM 0.18 32.324 0.314 8.23 5.55 13.78
1/22/2021 8:30:00 AM 0.21 32.378 0.314 8.23 6.24 13.78
1/22/2021 8:45:00 AM 0.23 32.414 0.314 8.23 5.77 13.79
1/22/2021 9:00:00 AM 0.26 32.468 0.314 8.24 5.8 13.8
1/22/2021 9:15:00 AM 0.3 32.54 0.314 8.24 5.68 13.83
1/22/2021 9:30:00 AM 0.32 32.576 0.314 8.24 5.44 13.82
1/22/2021 9:45:00 AM 0.34 32.612 0.314 8.25 5.62 13.82
1/22/2021 10:00:00 AM 0.36 32.648 0.314 8.25 5.56 13.83
1/22/2021 10:15:00 AM 0.38 32.684 0.314 8.25 5.65 13.83
1/22/2021 10:30:00 AM 0.41 32.738 0.314 8.25 5.53 13.84
1/22/2021 10:45:00 AM 0.45 32.81 0.314 8.26 5.37 13.84
1/22/2021 11:00:00 AM 0.48 32.864 0.314 8.26 5.64 13.86
1/22/2021 11:15:00 AM 0.52 32.936 0.314 8.26 5.51 13.86
1/22/2021 11:30:00 AM 0.56 33.008 0.314 8.27 5.49 13.86
1/22/2021 11:45:00 AM 0.61 33.098 0.314 8.27 6.17 13.87
1/22/2021 12:00:00 PM 0.63 33.134 0.314 8.27 5.32 13.86
1/22/2021 12:15:00 PM 0.63 33.134 0.313 8.27 5.64 13.86
1/22/2021 12:30:00 PM 0.58 33.044 0.313 8.27 5.43 13.85
1/22/2021 12:45:00 PM 0.63 33.134 0.313 8.28 5.42 13.85
1/22/2021 1:00:00 PM 0.69 33.242 0.313 8.27 5.53 13.86
1/22/2021 1:15:00 PM 0.73 33.314 0.312 8.28 5.12 13.86
1/22/2021 1:30:00 PM 0.77 33.386 0.312 8.28 5.29 13.85
1/22/2021 1:45:00 PM 0.76 33.368 0.312 8.28 5.16 13.86
1/22/2021 2:00:00 PM 0.79 33.422 0.312 8.28 5.56 13.85
1/22/2021 2:15:00 PM 0.83 33.494 0.311 8.28 5.24 13.85
1/22/2021 2:30:00 PM 0.86 33.548 0.311 8.28 5.25 13.84
1/22/2021 2:45:00 PM 0.87 33.566 0.311 8.28 5.21 13.83
1/22/2021 3:00:00 PM 0.88 33.584 0.311 8.28 5.27 13.83
1/22/2021 3:15:00 PM 0.9 33.62 0.311 8.29 5.58 13.83
1/22/2021 3:30:00 PM 0.89 33.602 0.311 8.29 5.45 13.82
1/22/2021 3:45:00 PM 0.88 33.584 0.311 8.29 5.34 13.82
1/22/2021 4:00:00 PM 0.87 33.566 0.31 8.29 5.43 13.8
1/22/2021 4:15:00 PM 0.84 33.512 0.31 8.28 5.32 13.79
1/22/2021 4:30:00 PM 0.8 33.44 0.31 8.28 5.24 13.77
1/22/2021 4:45:00 PM 0.77 33.386 0.31 8.28 5.62 13.75
1/22/2021 5:00:00 PM 0.74 33.332 0.31 8.27 5.82 13.74
1/22/2021 5:15:00 PM 0.7 33.26 0.31 8.27 5.41 13.73
1/22/2021 5:30:00 PM 0.68 33.224 0.31 8.26 5.52 13.73
1/22/2021 5:45:00 PM 0.65 33.17 0.31 8.26 5.35 13.72
1/22/2021 6:00:00 PM 0.62 33.116 0.31 8.26 6.19 13.72
1/22/2021 6:15:00 PM 0.56 33.008 0.31 8.26 5.68 13.72
1/22/2021 6:30:00 PM 0.54 32.972 0.31 8.26 7.32 13.73
1/22/2021 6:45:00 PM 0.51 32.918 0.311 8.26 5.63 13.73
1/22/2021 7:00:00 PM 0.49 32.882 0.311 8.25 6.26 13.74
1/22/2021 7:15:00 PM 0.47 32.846 0.311 8.25 5.7 13.74
1/22/2021 7:30:00 PM 0.43 32.774 0.311 8.25 5.49 13.76
1/22/2021 7:45:00 PM 0.38 32.684 0.312 8.26 5.51 13.76
1/22/2021 8:00:00 PM 0.32 32.576 0.312 8.26 5.39 13.78
1/22/2021 8:15:00 PM 0.26 32.468 0.312 8.25 5.83 13.79
1/22/2021 8:30:00 PM 0.23 32.414 0.312 8.25 5.45 13.8
1/22/2021 8:45:00 PM 0.19 32.342 0.312 8.25 5.6 13.82
1/22/2021 9:00:00 PM 0.17 32.306 0.313 8.25 5.39 13.82
1/22/2021 9:15:00 PM 0.14 32.252 0.313 8.25 5.52 13.83
1/22/2021 9:30:00 PM 0.12 32.216 0.313 8.25 5.43 13.84
1/22/2021 9:45:00 PM 0.11 32.198 0.313 8.25 5.54 13.85
1/22/2021 10:00:00 PM 0.09 32.162 0.313 8.25 5.58 13.85
1/22/2021 10:15:00 PM 0.06 32.108 0.314 8.25 5.56 13.87
1/22/2021 10:30:00 PM 0.04 32.072 0.314 8.25 5.39 13.88
1/22/2021 10:45:00 PM 0.02 32.036 0.314 8.25 5.78 13.89
1/22/2021 11:00:00 PM 0 32 0.314 8.24 5.54 13.9
1/22/2021 11:15:00 PM -0.02 31.964 0.315 8.25 5.66 13.91
1/22/2021 11:30:00 PM -0.04 31.928 0.315 8.25 5.51 13.92
1/22/2021 11:45:00 PM -0.06 31.892 0.315 8.25 5.43 13.92
1/23/2021 12:00:00 AM -0.06 31.892 0.315 8.25 6.03 13.92
1/23/2021 12:15:00 AM -0.06 31.892 0.316 8.25 6.05 13.93
1/23/2021 12:30:00 AM -0.06 31.892 0.316 8.25 6.51 13.94
1/23/2021 12:45:00 AM -0.06 31.892 0.316 8.25 6.66 13.96
1/23/2021 1:00:00 AM -0.06 31.892 0.317 8.25 7.11 13.96
1/23/2021 1:15:00 AM -0.06 31.892 0.317 8.25 6.49 13.98
1/23/2021 1:30:00 AM -0.06 31.892 0.318 8.25 6.61 13.97
1/23/2021 1:45:00 AM -0.06 31.892 0.318 8.25 6.42 13.98
1/23/2021 2:00:00 AM -0.06 31.892 0.318 8.25 5.99 13.96
1/23/2021 2:15:00 AM -0.06 31.892 0.318 8.26 5.9 13.97
1/23/2021 2:30:00 AM -0.06 31.892 0.319 8.26 5.81 14
1/23/2021 2:45:00 AM -0.06 31.892 0.319 8.26 6.96 14.01
1/23/2021 3:00:00 AM -0.06 31.892 0.319 8.25 6 14.02
1/23/2021 3:15:00 AM -0.06 31.892 0.32 8.26 6.5 14.02
1/23/2021 3:30:00 AM -0.06 31.892 0.321 8.25 5.93 14.02
1/23/2021 3:45:00 AM -0.06 31.892 0.321 8.26 5.91 14.03
1/23/2021 4:00:00 AM -0.06 31.892 0.321 8.25 5.78 14.03
1/23/2021 4:15:00 AM -0.06 31.892 0.322 8.26 5.62 14.03
1/23/2021 4:30:00 AM -0.06 31.892 0.322 8.26 5.71 14.04
1/23/2021 4:45:00 AM -0.06 31.892 0.323 8.26 5.64 14.04
1/23/2021 5:00:00 AM -0.06 31.892 0.323 8.26 5.65 14.04
1/23/2021 5:15:00 AM -0.06 31.892 0.324 8.26 5.66 14.05
1/23/2021 5:30:00 AM -0.06 31.892 0.324 8.25 5.87 14.05
1/23/2021 5:45:00 AM -0.06 31.892 0.325 8.26 5.62 14.04
1/23/2021 6:00:00 AM -0.06 31.892 0.325 8.25 5.51 14.04
1/23/2021 6:15:00 AM -0.06 31.892 0.325 8.25 5.86 14.03
1/23/2021 6:30:00 AM -0.06 31.892 0.326 8.25 5.56 14.05
1/23/2021 6:45:00 AM -0.06 31.892 0.327 8.25 5.67 14.05
1/23/2021 7:00:00 AM -0.06 31.892 0.327 8.25 5.49 14.05
1/23/2021 7:15:00 AM -0.06 31.892 0.328 8.25 5.45 14.05
1/23/2021 7:30:00 AM -0.06 31.892 0.329 8.25 5.5 14.07
1/23/2021 7:45:00 AM -0.06 31.892 0.329 8.25 5.55 14.05
1/23/2021 8:00:00 AM -0.06 31.892 0.329 8.25 5.57 14.06
1/23/2021 8:15:00 AM -0.06 31.892 0.33 8.25 5.33 14.08
1/23/2021 8:30:00 AM -0.05 31.91 0.33 8.25 5.34 14.09
1/23/2021 8:45:00 AM -0.05 31.91 0.33 8.26 5.32 14.11
1/23/2021 9:00:00 AM -0.05 31.91 0.33 8.26 5.24 14.12
1/23/2021 9:15:00 AM -0.05 31.91 0.331 8.25 5.31 14.15
1/23/2021 9:30:00 AM -0.05 31.91 0.331 8.26 5.36 14.15
1/23/2021 9:45:00 AM -0.04 31.928 0.331 8.26 5.52 14.17
1/23/2021 10:00:00 AM -0.03 31.946 0.331 8.26 5.64 14.17
1/23/2021 10:15:00 AM -0.02 31.964 0.331 8.26 5.87 14.17
1/23/2021 10:30:00 AM -0.03 31.946 0.33 8.26 6.25 14.17
1/23/2021 10:45:00 AM -0.02 31.964 0.33 8.26 6.35 14.18
1/23/2021 11:00:00 AM -0.02 31.964 0.33 8.26 6.48 14.18
1/23/2021 11:15:00 AM 0 32 0.329 8.26 6.11 14.17
1/23/2021 11:30:00 AM -0.02 31.964 0.328 8.26 6.26 14.17
1/23/2021 11:45:00 AM -0.03 31.946 0.328 8.26 6.93 14.16
1/23/2021 12:00:00 PM -0.02 31.964 0.328 8.26 7.88 14.16
1/23/2021 12:15:00 PM -0.01 31.982 0.327 8.26 7.23 14.15
1/23/2021 12:30:00 PM 0 32 0.327 8.26 6.89 14.15
1/23/2021 12:45:00 PM 0.02 32.036 0.327 8.26 7.66 14.14
1/23/2021 1:00:00 PM 0.01 32.018 0.326 8.26 8.12 14.13
1/23/2021 1:15:00 PM 0.01 32.018 0.326 8.26 7.82 14.11
1/23/2021 1:30:00 PM 0.02 32.036 0.326 8.25 7.53 14.12
1/23/2021 1:45:00 PM 0.03 32.054 0.326 8.26 6.93 14.13
1/23/2021 2:00:00 PM 0.05 32.09 0.326 8.26 6.48 14.15
1/23/2021 2:15:00 PM 0.1 32.18 0.325 8.26 6.58 14.15
1/23/2021 2:30:00 PM 0.08 32.144 0.325 8.25 6.45 14.14
1/23/2021 2:45:00 PM 0.09 32.162 0.325 8.26 6.31 14.16
1/23/2021 3:00:00 PM 0.07 32.126 0.325 8.26 6.32 14.16
1/23/2021 3:15:00 PM 0.06 32.108 0.325 8.26 6.89 14.16
1/23/2021 3:30:00 PM 0.04 32.072 0.325 8.27 6.15 14.16
1/23/2021 3:45:00 PM 0 32 0.325 8.27 6.45 14.16
1/23/2021 4:00:00 PM -0.01 31.982 0.324 8.27 6.38 14.16
1/23/2021 4:15:00 PM -0.03 31.946 0.324 8.27 6.15 14.16
1/23/2021 4:30:00 PM -0.06 31.892 0.324 8.27 6.08 14.17
1/23/2021 4:45:00 PM -0.07 31.874 0.324 8.26 6.01 14.17
1/23/2021 5:00:00 PM -0.06 31.892 0.324 8.26 6.44 14.17
1/23/2021 5:15:00 PM -0.06 31.892 0.324 8.26 6.3 14.16
1/23/2021 5:30:00 PM -0.06 31.892 0.324 8.26 5.77 14.13
1/23/2021 5:45:00 PM -0.06 31.892 0.324 8.25 5.99 14.14
1/23/2021 6:00:00 PM -0.06 31.892 0.324 8.24 6.08 14.14
1/23/2021 6:15:00 PM -0.06 31.892 0.324 8.25 5.79 14.14
1/23/2021 6:30:00 PM -0.06 31.892 0.324 8.25 5.74 14.14
1/23/2021 6:45:00 PM -0.06 31.892 0.324 8.25 5.59 14.15
1/23/2021 7:00:00 PM -0.06 31.892 0.324 8.24 5.62 14.14
1/23/2021 7:15:00 PM -0.06 31.892 0.324 8.25 5.72 14.14
1/23/2021 7:30:00 PM -0.06 31.892 0.324 8.25 5.43 14.14
1/23/2021 7:45:00 PM -0.06 31.892 0.325 8.25 5.34 14.15
1/23/2021 8:00:00 PM -0.06 31.892 0.325 8.24 5.47 14.13
1/23/2021 8:15:00 PM -0.06 31.892 0.325 8.25 5.31 14.13
1/23/2021 8:30:00 PM -0.06 31.892 0.325 8.25 5.22 14.15
1/23/2021 8:45:00 PM -0.06 31.892 0.325 8.24 5.3 14.16
1/23/2021 9:00:00 PM -0.06 31.892 0.326 8.24 5.3 14.16
1/23/2021 9:15:00 PM -0.06 31.892 0.326 8.25 5.06 14.16
1/23/2021 9:30:00 PM -0.06 31.892 0.326 8.24 5.22 14.17
1/23/2021 9:45:00 PM -0.06 31.892 0.326 8.24 5.3 14.17
1/23/2021 10:00:00 PM -0.06 31.892 0.326 8.24 5.34 14.17
1/23/2021 10:15:00 PM -0.06 31.892 0.326 8.24 5.26 14.18
1/23/2021 10:30:00 PM -0.06 31.892 0.326 8.24 5.42 14.18
1/23/2021 10:45:00 PM -0.06 31.892 0.326 8.24 5.29 14.18
1/23/2021 11:00:00 PM -0.06 31.892 0.326 8.24 5.19 14.18
1/23/2021 11:15:00 PM -0.06 31.892 0.327 8.24 5.29 14.18
1/23/2021 11:30:00 PM -0.06 31.892 0.327 8.24 5.15 14.17
1/23/2021 11:45:00 PM -0.06 31.892 0.327 8.24 5.03 14.19
1/24/2021 12:00:00 AM -0.06 31.892 0.327 8.24 5.33 14.16
1/24/2021 12:15:00 AM -0.06 31.892 0.327 8.24 5.08 14.15
1/24/2021 12:30:00 AM -0.06 31.892 0.327 8.24 4.88 14.15
1/24/2021 12:45:00 AM -0.06 31.892 0.327 8.24 5.03 14.18
1/24/2021 1:00:00 AM -0.06 31.892 0.327 8.24 4.87 14.18
1/24/2021 1:15:00 AM -0.06 31.892 0.327 8.24 4.76 14.18
1/24/2021 1:30:00 AM -0.06 31.892 0.328 8.24 4.65 14.18
1/24/2021 1:45:00 AM -0.06 31.892 0.328 8.24 4.86 14.19
1/24/2021 2:00:00 AM -0.06 31.892 0.328 8.24 4.91 14.2
1/24/2021 2:15:00 AM -0.06 31.892 0.328 8.24 4.91 14.21
1/24/2021 2:30:00 AM -0.06 31.892 0.328 8.24 4.93 14.2
1/24/2021 2:45:00 AM -0.06 31.892 0.328 8.24 4.89 14.2
1/24/2021 3:00:00 AM -0.06 31.892 0.328 8.24 4.69 14.16
1/24/2021 3:15:00 AM -0.06 31.892 0.328 8.24 4.79 14.09
1/24/2021 3:30:00 AM -0.06 31.892 0.328 8.24 4.94 14.18
1/24/2021 3:45:00 AM -0.06 31.892 0.328 8.24 4.89 14.2
1/24/2021 4:00:00 AM -0.06 31.892 0.328 8.24 4.77 14.2
1/24/2021 4:15:00 AM -0.05 31.91 0.328 8.24 4.79 14.21
1/24/2021 4:30:00 AM -0.06 31.892 0.329 8.24 4.9 14.18
1/24/2021 4:45:00 AM -0.06 31.892 0.329 8.24 4.86 14.21
1/24/2021 5:00:00 AM -0.06 31.892 0.329 8.24 5 14.22
1/24/2021 5:15:00 AM -0.06 31.892 0.33 8.23 5.2 14.21
1/24/2021 5:30:00 AM -0.06 31.892 0.33 8.23 5.13 14.21
1/24/2021 5:45:00 AM -0.06 31.892 0.33 8.23 5.2 14.21
1/24/2021 6:00:00 AM -0.06 31.892 0.33 8.23 4.85 14.21
1/24/2021 6:15:00 AM -0.06 31.892 0.331 8.24 4.92 14.21
1/24/2021 6:30:00 AM -0.06 31.892 0.331 8.24 4.84 14.21
1/24/2021 6:45:00 AM -0.06 31.892 0.331 8.24 4.84 14.22
1/24/2021 7:00:00 AM -0.06 31.892 0.332 8.24 4.94 14.21
1/24/2021 7:15:00 AM -0.06 31.892 0.332 8.24 4.85 14.22
1/24/2021 7:30:00 AM -0.06 31.892 0.332 8.24 4.69 14.23
1/24/2021 7:45:00 AM -0.06 31.892 0.333 8.24 4.83 14.23
1/24/2021 8:00:00 AM -0.06 31.892 0.333 8.24 4.86 14.22
1/24/2021 8:15:00 AM -0.06 31.892 0.333 8.24 4.85 14.24
1/24/2021 8:30:00 AM -0.06 31.892 0.334 8.24 4.85 14.25
1/24/2021 8:45:00 AM -0.05 31.91 0.334 8.24 4.89 14.25
1/24/2021 9:00:00 AM -0.05 31.91 0.334 8.24 4.87 14.28
1/24/2021 9:15:00 AM -0.04 31.928 0.334 8.24 4.93 14.29
1/24/2021 9:30:00 AM -0.03 31.946 0.335 8.24 5.36 14.3
1/24/2021 9:45:00 AM -0.05 31.91 0.335 8.24 6.53 14.31
1/24/2021 10:00:00 AM -0.05 31.91 0.335 8.23 13.23 14.32
1/24/2021 10:15:00 AM -0.06 31.892 0.335 8.24 11.08 14.31
1/24/2021 10:30:00 AM -0.05 31.91 0.335 8.24 8.64 14.33
1/24/2021 10:45:00 AM -0.05 31.91 0.335 8.23 20.76 14.32
1/24/2021 11:00:00 AM -0.06 31.892 0.335 8.24 9.12 14.31
1/24/2021 11:15:00 AM -0.06 31.892 0.335 8.23 6.89 14.32
1/24/2021 11:30:00 AM -0.06 31.892 0.335 8.23 7.66 14.3
1/24/2021 11:45:00 AM -0.05 31.91 0.335 8.24 7.64 14.29
1/24/2021 12:00:00 PM -0.05 31.91 0.335 8.23 6.95 14.28
1/24/2021 12:15:00 PM -0.05 31.91 0.335 8.23 6.82 14.26
1/24/2021 12:30:00 PM -0.05 31.91 0.334 8.23 7.88 14.24
1/24/2021 12:45:00 PM -0.05 31.91 0.334 8.21 9.38 14.22
1/24/2021 1:00:00 PM -0.05 31.91 0.333 8.2 7.57 14.2
1/24/2021 1:15:00 PM -0.06 31.892 0.333 8.21 7.94 14.18
1/24/2021 1:30:00 PM -0.06 31.892 0.332 8.21 7.36 14.16
1/24/2021 1:45:00 PM -0.06 31.892 0.331 8.22 7.98 14.16
1/24/2021 2:00:00 PM -0.05 31.91 0.331 8.2 7.98 14.15
1/24/2021 2:15:00 PM -0.06 31.892 0.33 8.21 7.14 14.14
1/24/2021 2:30:00 PM -0.06 31.892 0.33 8.2 6.67 14.12
1/24/2021 2:45:00 PM -0.06 31.892 0.329 8.2 6.27 14.12
1/24/2021 3:00:00 PM -0.06 31.892 0.329 8.2 6.19 14.12
1/24/2021 3:15:00 PM -0.06 31.892 0.328 8.2 6.5 14.11
1/24/2021 3:30:00 PM -0.06 31.892 0.328 8.2 6.61 14.11
1/24/2021 3:45:00 PM -0.06 31.892 0.327 8.19 6.63 14.1
1/24/2021 4:00:00 PM -0.06 31.892 0.326 8.2 6.79 14.1
1/24/2021 4:15:00 PM -0.06 31.892 0.326 8.19 8.5 14.1
1/24/2021 4:30:00 PM -0.06 31.892 0.327 8.22 8.28 14.08
1/24/2021 4:45:00 PM -0.06 31.892 0.327 8.22 6.57 14.07
1/24/2021 5:00:00 PM -0.06 31.892 0.326 8.21 6.66 14.05
1/24/2021 5:15:00 PM -0.06 31.892 0.326 8.21 6.78 14.03
1/24/2021 5:30:00 PM -0.06 31.892 0.326 8.21 6.79 14.02
1/24/2021 5:45:00 PM -0.06 31.892 0.326 8.21 7.01 14.02
1/24/2021 6:00:00 PM -0.06 31.892 0.326 8.2 6.25 14.03
1/24/2021 6:15:00 PM -0.06 31.892 0.326 8.2 5.61 14.01
1/24/2021 6:30:00 PM -0.06 31.892 0.326 8.2 5.56 14.03
1/24/2021 6:45:00 PM -0.06 31.892 0.326 8.2 5.58 14.03
1/24/2021 7:00:00 PM -0.06 31.892 0.326 8.2 6.76 14.05
1/24/2021 7:15:00 PM -0.06 31.892 0.327 8.21 5.68 14.01
1/24/2021 7:30:00 PM -0.06 31.892 0.327 8.21 6.15 14.03
1/24/2021 7:45:00 PM -0.06 31.892 0.327 8.21 5.8 14.04
1/24/2021 8:00:00 PM -0.06 31.892 0.327 8.21 6.82 14.03
1/24/2021 8:15:00 PM -0.06 31.892 0.327 8.21 5.87 14.04
1/24/2021 8:30:00 PM -0.06 31.892 0.328 8.2 5.65 14.06
1/24/2021 8:45:00 PM -0.06 31.892 0.328 8.21 5.81 14.02
1/24/2021 9:00:00 PM -0.06 31.892 0.328 8.2 5.78 14.02
1/24/2021 9:15:00 PM -0.06 31.892 0.328 8.21 5.84 14.06
1/24/2021 9:30:00 PM -0.06 31.892 0.328 8.2 5.76 14.08
1/24/2021 9:45:00 PM -0.06 31.892 0.329 8.2 6.12 14.08
1/24/2021 10:00:00 PM -0.06 31.892 0.328 8.19 5.54 14.07
1/24/2021 10:15:00 PM -0.06 31.892 0.329 8.2 6.59 14.09
1/24/2021 10:30:00 PM -0.06 31.892 0.329 8.2 6.85 14.09
1/24/2021 10:45:00 PM -0.06 31.892 0.329 8.2 5.72 14.1
1/24/2021 11:00:00 PM -0.06 31.892 0.329 8.2 5.82 14.1
1/24/2021 11:15:00 PM -0.06 31.892 0.33 8.19 6.06 14.1
1/24/2021 11:30:00 PM -0.06 31.892 0.33 8.19 6.08 14.12
1/24/2021 11:45:00 PM -0.06 31.892 0.33 8.19 6.02 14.12
1/25/2021 12:00:00 AM -0.06 31.892 0.331 8.19 5.86 14.12
1/25/2021 12:15:00 AM -0.06 31.892 0.331 8.19 5.78 14.12
1/25/2021 12:30:00 AM -0.06 31.892 0.331 8.19 5.96 14.12
1/25/2021 12:45:00 AM -0.06 31.892 0.332 8.19 6.6 14.13
1/25/2021 1:00:00 AM -0.06 31.892 0.332 8.2 5.58 14.14
1/25/2021 1:15:00 AM -0.06 31.892 0.333 8.18 5.72 14.14
1/25/2021 1:30:00 AM -0.06 31.892 0.333 8.19 5.91 14.14
1/25/2021 1:45:00 AM -0.06 31.892 0.333 8.19 5.99 14.14
1/25/2021 2:00:00 AM -0.06 31.892 0.334 8.19 5.98 14.14
1/25/2021 2:15:00 AM -0.06 31.892 0.334 8.19 5.71 14.14
1/25/2021 2:30:00 AM -0.06 31.892 0.335 8.19 5.8 14.15
1/25/2021 2:45:00 AM -0.06 31.892 0.335 8.19 5.72 14.15
1/25/2021 3:00:00 AM -0.06 31.892 0.336 8.19 5.78 14.15
1/25/2021 3:15:00 AM -0.06 31.892 0.336 8.19 5.68 14.16
1/25/2021 3:30:00 AM -0.06 31.892 0.336 8.19 5.72 14.15
1/25/2021 3:45:00 AM -0.06 31.892 0.337 8.19 5.97 14.16
1/25/2021 4:00:00 AM -0.06 31.892 0.337 8.19 5.76 14.16
1/25/2021 4:15:00 AM -0.06 31.892 0.338 8.19 5.89 14.15
1/25/2021 4:30:00 AM -0.06 31.892 0.338 8.18 5.63 14.16
1/25/2021 4:45:00 AM -0.06 31.892 0.338 8.19 5.77 14.17
1/25/2021 5:00:00 AM -0.06 31.892 0.339 8.19 5.85 14.16
1/25/2021 5:15:00 AM -0.06 31.892 0.339 8.19 5.97 14.17
1/25/2021 5:30:00 AM -0.06 31.892 0.34 8.19 6.05 14.17
1/25/2021 5:45:00 AM -0.06 31.892 0.34 8.19 6.92 14.17
1/25/2021 6:00:00 AM -0.06 31.892 0.34 8.19 5.65 14.17
1/25/2021 6:15:00 AM -0.06 31.892 0.34 8.18 5.79 14.17
1/25/2021 6:30:00 AM -0.06 31.892 0.341 8.18 5.76 14.17
1/25/2021 6:45:00 AM -0.06 31.892 0.341 8.18 5.66 14.16
1/25/2021 7:00:00 AM -0.06 31.892 0.342 8.18 5.61 14.18
1/25/2021 7:15:00 AM -0.06 31.892 0.342 8.18 5.69 14.17
1/25/2021 7:30:00 AM -0.06 31.892 0.342 8.18 5.64 14.17
1/25/2021 7:45:00 AM -0.06 31.892 0.343 8.18 5.9 14.18
1/25/2021 8:00:00 AM -0.06 31.892 0.343 8.17 6.13 14.18
1/25/2021 8:15:00 AM -0.06 31.892 0.343 8.17 5.91 14.19
1/25/2021 8:30:00 AM -0.06 31.892 0.344 8.18 5.91 14.19
1/25/2021 8:45:00 AM -0.06 31.892 0.344 8.18 6.04 14.2
1/25/2021 9:00:00 AM -0.06 31.892 0.344 8.18 6.06 14.21
1/25/2021 9:15:00 AM -0.06 31.892 0.344 8.18 6.43 14.23
1/25/2021 9:30:00 AM -0.06 31.892 0.344 8.18 6.36 14.23
1/25/2021 9:45:00 AM -0.06 31.892 0.344 8.18 7.33 14.23
1/25/2021 10:00:00 AM -0.06 31.892 0.344 8.18 7.22 14.24
1/25/2021 10:15:00 AM -0.06 31.892 0.345 8.19 8.59 14.23
1/25/2021 10:30:00 AM -0.06 31.892 0.345 8.19 8.18 14.23
1/25/2021 10:45:00 AM -0.06 31.892 0.345 8.19 8.58 14.21
1/25/2021 11:00:00 AM -0.06 31.892 0.345 8.19 7.91 14.2
1/25/2021 11:15:00 AM -0.06 31.892 0.345 8.19 7.65 14.2
1/25/2021 11:30:00 AM -0.06 31.892 0.345 8.19 7.68 14.17
1/25/2021 11:45:00 AM -0.06 31.892 0.345 8.19 8.14 14.16
1/25/2021 12:00:00 PM -0.06 31.892 0.345 8.19 9.02 14.14
1/25/2021 12:15:00 PM -0.06 31.892 0.345 8.19 8.67 14.12
1/25/2021 12:30:00 PM -0.06 31.892 0.345 8.19 10.7 14.1
1/25/2021 12:45:00 PM -0.06 31.892 0.345 8.18 8.8 14.07
1/25/2021 1:00:00 PM -0.06 31.892 0.345 8.17 9.33 14.04
1/25/2021 1:15:00 PM -0.06 31.892 0.345 8.17 8.84 14
1/25/2021 1:30:00 PM -0.06 31.892 0.344 8.16 9.38 13.98
1/25/2021 1:45:00 PM -0.06 31.892 0.344 8.16 9.4 13.96
1/25/2021 2:00:00 PM -0.06 31.892 0.343 8.16 10.31 13.94
1/25/2021 2:15:00 PM -0.06 31.892 0.343 8.16 9.53 13.94
1/25/2021 2:30:00 PM -0.06 31.892 0.342 8.17 9.46 13.93
1/25/2021 2:45:00 PM -0.06 31.892 0.341 8.17 9.39 13.92
1/25/2021 3:00:00 PM -0.06 31.892 0.34 8.16 9.33 13.9
1/25/2021 3:15:00 PM -0.06 31.892 0.339 8.16 9.15 13.9
1/25/2021 3:30:00 PM -0.06 31.892 0.338 8.16 9.23 13.87
1/25/2021 3:45:00 PM -0.06 31.892 0.338 8.16 9.63 13.86
1/25/2021 4:00:00 PM -0.06 31.892 0.337 8.14 9.38 13.85
1/25/2021 4:15:00 PM -0.06 31.892 0.337 8.14 9.18 13.83
1/25/2021 4:30:00 PM -0.06 31.892 0.337 8.14 8.74 13.82
1/25/2021 4:45:00 PM -0.06 31.892 0.337 8.14 9.2 13.8
1/25/2021 5:00:00 PM -0.06 31.892 0.337 8.14 9.65 13.79
1/25/2021 5:15:00 PM -0.06 31.892 0.337 8.14 10 13.79
1/25/2021 5:30:00 PM -0.06 31.892 0.337 8.13 9.23 13.78
1/25/2021 5:45:00 PM -0.06 31.892 0.334 8.13 8.3 13.77
1/25/2021 6:00:00 PM -0.06 31.892 0.337 8.13 8.71 13.77
1/25/2021 6:15:00 PM -0.06 31.892 0.337 8.13 8.62 13.78
1/25/2021 6:30:00 PM -0.06 31.892 0.337 8.13 8.6 13.79
1/25/2021 6:45:00 PM -0.06 31.892 0.337 8.12 13 13.79
1/25/2021 7:00:00 PM -0.06 31.892 0.337 8.13 10.73 13.79
1/25/2021 7:15:00 PM -0.06 31.892 0.337 8.13 9.59 13.79
1/25/2021 7:30:00 PM -0.06 31.892 0.338 8.13 9.46 13.79
1/25/2021 7:45:00 PM -0.06 31.892 0.338 8.12 10.4 13.8
1/25/2021 8:00:00 PM -0.06 31.892 0.338 8.13 9.56 13.81
1/25/2021 8:15:00 PM -0.06 31.892 0.339 8.13 9.41 13.82
1/25/2021 8:30:00 PM -0.06 31.892 0.339 8.12 9.79 13.81
1/25/2021 8:45:00 PM -0.06 31.892 0.339 8.13 9.32 13.82
1/25/2021 9:00:00 PM -0.06 31.892 0.339 8.12 8.74 13.82
1/25/2021 9:15:00 PM -0.06 31.892 0.339 8.13 8.43 13.82
1/25/2021 9:30:00 PM -0.06 31.892 0.339 8.13 8.86 13.82
1/25/2021 9:45:00 PM -0.06 31.892 0.339 8.13 8.45 13.83
1/25/2021 10:00:00 PM -0.06 31.892 0.339 8.13 8.93 13.82
1/25/2021 10:15:00 PM -0.06 31.892 0.339 8.13 8.34 13.82
1/25/2021 10:30:00 PM -0.06 31.892 0.339 8.13 8.11 13.82
1/25/2021 10:45:00 PM -0.06 31.892 0.339 8.13 8.1 13.81
1/25/2021 11:00:00 PM -0.06 31.892 0.339 8.13 8.26 13.81
1/25/2021 11:15:00 PM -0.06 31.892 0.339 8.13 8.35 13.81
1/25/2021 11:30:00 PM -0.06 31.892 0.339 8.13 8.51 13.8
1/25/2021 11:45:00 PM -0.06 31.892 0.339 8.13 7.95 13.8
1/26/2021 12:00:00 AM -0.06 31.892 0.339 8.13 7.78 13.8
1/26/2021 12:15:00 AM -0.06 31.892 0.339 8.13 7.75 13.79
1/26/2021 12:30:00 AM -0.06 31.892 0.339 8.13 7.73 13.79
1/26/2021 12:45:00 AM -0.06 31.892 0.339 8.13 7.9 13.79
1/26/2021 1:00:00 AM -0.06 31.892 0.339 8.14 7.75 13.78
1/26/2021 1:15:00 AM -0.06 31.892 0.339 8.13 7.57 13.79
1/26/2021 1:30:00 AM -0.06 31.892 0.339 8.13 7.49 13.78
1/26/2021 1:45:00 AM -0.06 31.892 0.339 8.13 7.44 13.78
1/26/2021 2:00:00 AM -0.06 31.892 0.339 8.13 7.67 13.78
1/26/2021 2:15:00 AM -0.06 31.892 0.339 8.13 7.54 13.78
1/26/2021 2:30:00 AM -0.06 31.892 0.338 8.13 7.59 13.77
1/26/2021 2:45:00 AM -0.06 31.892 0.338 8.13 7.71 13.77
1/26/2021 3:00:00 AM -0.06 31.892 0.338 8.13 7.34 13.76
1/26/2021 3:15:00 AM -0.06 31.892 0.338 8.13 7.49 13.76
1/26/2021 3:30:00 AM -0.06 31.892 0.338 8.13 7.35 13.76
1/26/2021 3:45:00 AM -0.06 31.892 0.338 8.13 7.68 13.76
1/26/2021 4:00:00 AM -0.06 31.892 0.338 8.13 7.37 13.75
1/26/2021 4:15:00 AM -0.06 31.892 0.337 8.14 7.33 13.75
1/26/2021 4:30:00 AM -0.06 31.892 0.337 8.13 8.07 13.75
1/26/2021 4:45:00 AM -0.06 31.892 0.337 8.13 8.1 13.75
1/26/2021 5:00:00 AM -0.06 31.892 0.337 8.13 8.83 13.74
1/26/2021 5:15:00 AM -0.06 31.892 0.337 8.13 7.78 13.74
1/26/2021 5:30:00 AM -0.06 31.892 0.337 8.12 7.96 13.73
1/26/2021 5:45:00 AM -0.06 31.892 0.336 8.13 7.96 13.74
1/26/2021 6:00:00 AM -0.06 31.892 0.336 8.13 7.98 13.74
1/26/2021 6:15:00 AM -0.06 31.892 0.336 8.13 7.75 13.73
1/26/2021 6:30:00 AM -0.06 31.892 0.336 8.13 7.79 13.73
1/26/2021 6:45:00 AM -0.06 31.892 0.336 8.13 8.29 13.72
1/26/2021 7:00:00 AM -0.06 31.892 0.336 8.13 7.64 13.72
1/26/2021 7:15:00 AM -0.06 31.892 0.336 8.13 8.12 13.72
1/26/2021 7:30:00 AM -0.06 31.892 0.336 8.13 7.94 13.71
1/26/2021 7:45:00 AM -0.06 31.892 0.336 8.14 8.19 13.72
1/26/2021 8:00:00 AM -0.06 31.892 0.336 8.13 7.87 13.73
1/26/2021 8:15:00 AM -0.06 31.892 0.336 8.14 8.32 13.73
1/26/2021 8:30:00 AM -0.06 31.892 0.336 8.14 7.99 13.75
1/26/2021 8:45:00 AM -0.06 31.892 0.336 8.14 7.67 13.76
1/26/2021 9:00:00 AM -0.06 31.892 0.336 8.14 7.77 13.77
1/26/2021 9:15:00 AM -0.06 31.892 0.336 8.15 7.95 13.77
1/26/2021 9:30:00 AM -0.06 31.892 0.336 8.15 9.16 13.79
1/26/2021 9:45:00 AM -0.06 31.892 0.336 8.15 9.65 13.79
1/26/2021 10:00:00 AM -0.06 31.892 0.336 8.15 10.34 13.8
1/26/2021 10:15:00 AM -0.06 31.892 0.336 8.15 9.2 13.8
1/26/2021 10:30:00 AM -0.06 31.892 0.336 8.16 9.09 13.8
1/26/2021 10:45:00 AM -0.06 31.892 0.336 8.16 8.83 13.81
1/26/2021 11:00:00 AM -0.06 31.892 0.336 8.16 8.21 13.8
1/26/2021 11:15:00 AM -0.06 31.892 0.336 8.16 7.84 13.81
1/26/2021 11:30:00 AM -0.06 31.892 0.336 8.16 7.95 13.81
1/26/2021 11:45:00 AM -0.06 31.892 0.336 8.16 8.54 13.8
1/26/2021 12:00:00 PM -0.06 31.892 0.336 8.15 7.81 13.81
1/26/2021 12:15:00 PM -0.06 31.892 0.336 8.15 7.88 13.8
1/26/2021 12:30:00 PM -0.06 31.892 0.337 8.16 7.68 13.81
1/26/2021 12:45:00 PM -0.06 31.892 0.337 8.16 7.54 13.8
1/26/2021 1:00:00 PM -0.06 31.892 0.337 8.16 7.69 13.8
1/26/2021 1:15:00 PM -0.06 31.892 0.337 8.15 7.66 13.81
1/26/2021 1:30:00 PM -0.06 31.892 0.337 8.16 7.46 13.8
1/26/2021 1:45:00 PM -0.06 31.892 0.337 8.16 7.37 13.8
1/26/2021 2:00:00 PM -0.06 31.892 0.337 8.15 7.32 13.79
1/26/2021 2:15:00 PM -0.06 31.892 0.336 8.16 6.39 13.8
1/26/2021 2:30:00 PM -0.06 31.892 0.336 8.15 5.79 13.78
1/26/2021 2:45:00 PM -0.06 31.892 0.336 8.16 5.84 13.78
1/26/2021 3:00:00 PM -0.06 31.892 0.336 8.16 5.84 13.78
1/26/2021 3:15:00 PM -0.06 31.892 0.336 8.16 5.92 13.76
1/26/2021 3:30:00 PM -0.06 31.892 0.336 8.15 5.71 13.76
1/26/2021 3:45:00 PM -0.06 31.892 0.336 8.15 5.55 13.76
1/26/2021 4:00:00 PM -0.06 31.892 0.336 8.15 5.25 13.75
1/26/2021 4:15:00 PM -0.06 31.892 0.336 8.15 5.31 13.74
1/26/2021 4:30:00 PM -0.06 31.892 0.336 8.15 5.06 13.73
1/26/2021 4:45:00 PM -0.06 31.892 0.337 8.15 5.19 13.71
1/26/2021 5:00:00 PM -0.06 31.892 0.337 8.14 5.19 13.69
1/26/2021 5:15:00 PM -0.06 31.892 0.338 8.14 5.14 13.69
1/26/2021 5:30:00 PM -0.06 31.892 0.338 8.16 5.11 13.67
1/26/2021 5:45:00 PM -0.06 31.892 0.338 8.14 5.19 13.66
1/26/2021 6:00:00 PM -0.06 31.892 0.338 8.14 5.19 13.64
1/26/2021 6:15:00 PM -0.06 31.892 0.337 8.14 4.81 13.64
1/26/2021 6:30:00 PM -0.06 31.892 0.337 8.14 4.9 13.64
1/26/2021 6:45:00 PM -0.05 31.91 0.337 8.15 5.73 13.63
1/26/2021 7:00:00 PM -0.05 31.91 0.337 8.15 4.89 13.63
1/26/2021 7:15:00 PM -0.05 31.91 0.337 8.15 4.8 13.62
1/26/2021 7:30:00 PM -0.05 31.91 0.337 8.14 5.04 13.61
1/26/2021 7:45:00 PM -0.05 31.91 0.337 8.14 4.71 13.61
1/26/2021 8:00:00 PM -0.05 31.91 0.337 8.14 5.01 13.61
1/26/2021 8:15:00 PM -0.05 31.91 0.337 8.14 4.64 13.6
1/26/2021 8:30:00 PM -0.05 31.91 0.337 8.14 4.95 13.6
1/26/2021 8:45:00 PM -0.05 31.91 0.337 8.14 4.6 13.59
1/26/2021 9:00:00 PM -0.05 31.91 0.337 8.14 4.72 13.59
1/26/2021 9:15:00 PM -0.05 31.91 0.338 8.14 4.74 13.59
1/26/2021 9:30:00 PM -0.05 31.91 0.337 8.14 4.58 13.57
1/26/2021 9:45:00 PM -0.05 31.91 0.337 8.14 4.66 13.57
1/26/2021 10:00:00 PM -0.05 31.91 0.337 8.14 4.73 13.58
1/26/2021 10:15:00 PM -0.05 31.91 0.338 8.14 4.61 13.57
1/26/2021 10:30:00 PM -0.05 31.91 0.338 8.14 4.95 13.56
1/26/2021 10:45:00 PM -0.05 31.91 0.338 8.14 4.81 13.56
1/26/2021 11:00:00 PM -0.05 31.91 0.338 8.14 4.66 13.55
1/26/2021 11:15:00 PM -0.05 31.91 0.338 8.14 4.8 13.55
1/26/2021 11:30:00 PM -0.05 31.91 0.338 8.13 4.76 13.56
1/26/2021 11:45:00 PM -0.05 31.91 0.338 8.13 4.89 13.56
1/27/2021 12:00:00 AM -0.05 31.91 0.338 8.14 4.7 13.55
1/27/2021 12:15:00 AM -0.05 31.91 0.338 8.14 4.91 13.55
1/27/2021 12:30:00 AM -0.05 31.91 0.338 8.14 4.64 13.55
1/27/2021 12:45:00 AM -0.05 31.91 0.338 8.14 4.7 13.55
1/27/2021 1:00:00 AM -0.04 31.928 0.337 8.13 4.46 13.54
1/27/2021 1:15:00 AM -0.04 31.928 0.337 8.14 4.75 13.55
1/27/2021 1:30:00 AM -0.04 31.928 0.337 8.13 4.62 13.55
1/27/2021 1:45:00 AM -0.04 31.928 0.337 8.13 4.5 13.55
1/27/2021 2:00:00 AM -0.04 31.928 0.337 8.13 4.62 13.54
1/27/2021 2:15:00 AM -0.04 31.928 0.337 8.14 4.48 13.55
1/27/2021 2:30:00 AM -0.04 31.928 0.336 8.13 4.42 13.55
1/27/2021 2:45:00 AM -0.04 31.928 0.336 8.13 4.8 13.55
1/27/2021 3:00:00 AM -0.05 31.91 0.336 8.13 4.93 13.54
1/27/2021 3:15:00 AM -0.04 31.928 0.336 8.13 4.7 13.54
1/27/2021 3:30:00 AM -0.04 31.928 0.336 8.13 4.6 13.55
1/27/2021 3:45:00 AM -0.04 31.928 0.336 8.14 4.58 13.55
1/27/2021 4:00:00 AM -0.05 31.91 0.336 8.13 4.6 13.55
1/27/2021 4:15:00 AM -0.05 31.91 0.336 8.13 4.85 13.56
1/27/2021 4:30:00 AM -0.05 31.91 0.336 8.13 4.83 13.56
1/27/2021 4:45:00 AM -0.05 31.91 0.337 8.13 4.47 13.57
1/27/2021 5:00:00 AM -0.05 31.91 0.336 8.13 4.57 13.57
1/27/2021 5:15:00 AM -0.05 31.91 0.336 8.14 4.53 13.57
1/27/2021 5:30:00 AM -0.05 31.91 0.336 8.13 4.5 13.58
1/27/2021 5:45:00 AM -0.05 31.91 0.336 8.13 4.42 13.57
1/27/2021 6:00:00 AM -0.05 31.91 0.336 8.14 4.51 13.59
1/27/2021 6:15:00 AM -0.05 31.91 0.336 8.14 4.53 13.58
1/27/2021 6:30:00 AM -0.05 31.91 0.336 8.13 4.49 13.59
1/27/2021 6:45:00 AM -0.05 31.91 0.336 8.13 4.49 13.6
1/27/2021 7:00:00 AM -0.05 31.91 0.336 8.13 4.45 13.6
1/27/2021 7:15:00 AM -0.05 31.91 0.336 8.13 4.5 13.6
1/27/2021 7:30:00 AM -0.05 31.91 0.336 8.13 4.48 13.6
1/27/2021 7:45:00 AM -0.05 31.91 0.336 8.13 4.43 13.61
1/27/2021 8:00:00 AM -0.05 31.91 0.336 8.14 4.37 13.62
1/27/2021 8:15:00 AM -0.05 31.91 0.336 8.13 4.58 13.62
1/27/2021 8:30:00 AM -0.05 31.91 0.337 8.14 4.42 13.63
1/27/2021 8:45:00 AM -0.05 31.91 0.337 8.14 4.4 13.65
1/27/2021 9:00:00 AM -0.05 31.91 0.337 8.14 4.37 13.65
1/27/2021 9:15:00 AM -0.04 31.928 0.337 8.13 4.41 13.67
1/27/2021 9:30:00 AM -0.04 31.928 0.337 8.13 4.45 13.68
1/27/2021 9:45:00 AM -0.04 31.928 0.337 8.14 4.45 13.7
1/27/2021 10:00:00 AM -0.04 31.928 0.336 8.15 4.51 13.71
1/27/2021 10:15:00 AM -0.04 31.928 0.336 8.15 4.34 13.72
1/27/2021 10:30:00 AM -0.03 31.946 0.336 8.15 4.48 13.73
1/27/2021 10:45:00 AM -0.03 31.946 0.336 8.15 4.25 13.75
1/27/2021 11:00:00 AM -0.03 31.946 0.336 8.14 4.41 13.76
1/27/2021 11:15:00 AM -0.03 31.946 0.336 8.15 4.39 13.77
1/27/2021 11:30:00 AM -0.02 31.964 0.336 8.15 4.34 13.78
1/27/2021 11:45:00 AM -0.02 31.964 0.336 8.16 4.39 13.8
1/27/2021 12:00:00 PM -0.02 31.964 0.336 8.15 4.48 13.8
1/27/2021 12:15:00 PM -0.02 31.964 0.336 8.16 4.47 13.8
1/27/2021 12:30:00 PM -0.02 31.964 0.336 8.16 4.59 13.81
1/27/2021 12:45:00 PM -0.02 31.964 0.336 8.16 4.68 13.81
1/27/2021 1:00:00 PM -0.02 31.964 0.336 8.16 4.58 13.82
1/27/2021 1:15:00 PM -0.02 31.964 0.337 8.16 4.67 13.82
1/27/2021 1:30:00 PM -0.02 31.964 0.337 8.16 4.71 13.84
1/27/2021 1:45:00 PM -0.01 31.982 0.337 8.16 4.71 13.84
1/27/2021 2:00:00 PM -0.01 31.982 0.337 8.16 4.96 13.85
1/27/2021 2:15:00 PM 0 32 0.337 8.17 4.94 13.85
1/27/2021 2:30:00 PM 0.01 32.018 0.337 8.17 4.81 13.86
1/27/2021 2:45:00 PM 0 32 0.337 8.17 4.74 13.85
1/27/2021 3:00:00 PM -0.01 31.982 0.337 8.17 5.01 13.86
1/27/2021 3:15:00 PM -0.02 31.964 0.337 8.17 4.93 13.85
1/27/2021 3:30:00 PM -0.02 31.964 0.336 8.17 4.96 13.86
1/27/2021 3:45:00 PM -0.01 31.982 0.336 8.17 4.92 13.85
1/27/2021 4:00:00 PM -0.01 31.982 0.337 8.17 5.27 13.85
1/27/2021 4:15:00 PM -0.02 31.964 0.336 8.17 5.14 13.86
1/27/2021 4:30:00 PM -0.02 31.964 0.337 8.17 4.77 13.85
1/27/2021 4:45:00 PM -0.02 31.964 0.337 8.17 4.76 13.84
1/27/2021 5:00:00 PM -0.03 31.946 0.337 8.18 4.74 13.82
1/27/2021 5:15:00 PM -0.03 31.946 0.337 8.17 4.78 13.81
1/27/2021 5:30:00 PM -0.03 31.946 0.337 8.17 4.64 13.8
1/27/2021 5:45:00 PM -0.03 31.946 0.337 8.17 4.72 13.8
1/27/2021 6:00:00 PM -0.03 31.946 0.338 8.17 4.79 13.78
1/27/2021 6:15:00 PM -0.04 31.928 0.338 8.17 4.71 13.77
1/27/2021 6:30:00 PM -0.04 31.928 0.338 8.16 4.84 13.78
1/27/2021 6:45:00 PM -0.04 31.928 0.338 8.16 4.49 13.78
1/27/2021 7:00:00 PM -0.04 31.928 0.338 8.16 4.85 13.77
1/27/2021 7:15:00 PM -0.04 31.928 0.338 8.16 4.46 13.77
1/27/2021 7:30:00 PM -0.04 31.928 0.339 8.16 4.65 13.77
1/27/2021 7:45:00 PM -0.04 31.928 0.339 8.16 4.66 13.77
1/27/2021 8:00:00 PM -0.04 31.928 0.339 8.16 4.67 13.77
1/27/2021 8:15:00 PM -0.04 31.928 0.339 8.16 4.8 13.77
1/27/2021 8:30:00 PM -0.04 31.928 0.34 8.16 4.72 13.77
1/27/2021 8:45:00 PM -0.04 31.928 0.34 8.16 4.61 13.77
1/27/2021 9:00:00 PM -0.04 31.928 0.34 8.16 4.54 13.78
1/27/2021 9:15:00 PM -0.04 31.928 0.341 8.16 4.66 13.77
1/27/2021 9:30:00 PM -0.04 31.928 0.341 8.16 4.56 13.77
1/27/2021 9:45:00 PM -0.04 31.928 0.341 8.16 4.49 13.77
1/27/2021 10:00:00 PM -0.04 31.928 0.341 8.15 4.53 13.78
1/27/2021 10:15:00 PM -0.04 31.928 0.341 8.16 4.6 13.77
1/27/2021 10:30:00 PM -0.04 31.928 0.341 8.15 4.48 13.78
1/27/2021 10:45:00 PM -0.04 31.928 0.341 8.15 4.59 13.78
1/27/2021 11:00:00 PM -0.04 31.928 0.341 8.16 4.65 13.78
1/27/2021 11:15:00 PM -0.04 31.928 0.341 8.16 4.57 13.78
1/27/2021 11:30:00 PM -0.04 31.928 0.341 8.16 4.52 13.78
1/27/2021 11:45:00 PM -0.04 31.928 0.341 8.16 4.44 13.79
1/28/2021 12:00:00 AM -0.04 31.928 0.341 8.16 4.58 13.78
1/28/2021 12:15:00 AM -0.04 31.928 0.341 8.16 4.52 13.79
1/28/2021 12:30:00 AM -0.05 31.91 0.341 8.15 4.51 13.79
1/28/2021 12:45:00 AM -0.05 31.91 0.341 8.16 4.67 13.78
1/28/2021 1:00:00 AM -0.05 31.91 0.341 8.16 4.46 13.79
1/28/2021 1:15:00 AM -0.05 31.91 0.341 8.16 4.82 13.79
1/28/2021 1:30:00 AM -0.05 31.91 0.341 8.16 4.44 13.79
1/28/2021 1:45:00 AM -0.05 31.91 0.341 8.16 4.52 13.78
1/28/2021 2:00:00 AM -0.05 31.91 0.341 8.16 4.43 13.78
1/28/2021 2:15:00 AM -0.05 31.91 0.341 8.15 4.46 13.79
1/28/2021 2:30:00 AM -0.05 31.91 0.341 8.16 4.55 13.79
1/28/2021 2:45:00 AM -0.05 31.91 0.341 8.16 4.62 13.79
1/28/2021 3:00:00 AM -0.05 31.91 0.341 8.16 4.43 13.8
1/28/2021 3:15:00 AM -0.05 31.91 0.34 8.16 4.79 13.79
1/28/2021 3:30:00 AM -0.06 31.892 0.341 8.16 4.57 13.79
1/28/2021 3:45:00 AM -0.06 31.892 0.341 8.15 4.44 13.8
1/28/2021 4:00:00 AM -0.06 31.892 0.341 8.16 4.54 13.79
1/28/2021 4:15:00 AM -0.06 31.892 0.341 8.16 4.5 13.79
1/28/2021 4:30:00 AM -0.06 31.892 0.34 8.16 4.62 13.79
1/28/2021 4:45:00 AM -0.06 31.892 0.34 8.16 4.64 13.79
1/28/2021 5:00:00 AM -0.06 31.892 0.34 8.16 4.65 13.79
1/28/2021 5:15:00 AM -0.06 31.892 0.34 8.16 4.57 13.8
1/28/2021 5:30:00 AM -0.06 31.892 0.34 8.15 4.59 13.79
1/28/2021 5:45:00 AM -0.06 31.892 0.34 8.15 4.49 13.8
1/28/2021 6:00:00 AM -0.06 31.892 0.34 8.15 4.46 13.8
1/28/2021 6:15:00 AM -0.06 31.892 0.34 8.15 4.47 13.8
1/28/2021 6:30:00 AM -0.06 31.892 0.34 8.14 4.46 13.8
1/28/2021 6:45:00 AM -0.06 31.892 0.34 8.15 4.57 13.79
1/28/2021 7:00:00 AM -0.06 31.892 0.34 8.16 4.63 13.8
1/28/2021 7:15:00 AM -0.06 31.892 0.34 8.15 4.59 13.81
1/28/2021 7:30:00 AM -0.06 31.892 0.34 8.15 4.65 13.81
1/28/2021 7:45:00 AM -0.06 31.892 0.34 8.15 4.71 13.82
1/28/2021 8:00:00 AM -0.06 31.892 0.34 8.16 4.72 13.83
1/28/2021 8:15:00 AM -0.06 31.892 0.34 8.16 4.58 13.84
1/28/2021 8:30:00 AM -0.06 31.892 0.34 8.16 4.67 13.85
1/28/2021 8:45:00 AM -0.06 31.892 0.34 8.16 4.54 13.87
1/28/2021 9:00:00 AM -0.06 31.892 0.34 8.16 4.48 13.87
1/28/2021 9:15:00 AM -0.06 31.892 0.34 8.16 4.44 13.89
1/28/2021 9:30:00 AM -0.06 31.892 0.34 8.16 4.69 13.9
1/28/2021 9:45:00 AM -0.06 31.892 0.34 8.17 4.65 13.9
1/28/2021 10:00:00 AM -0.06 31.892 0.34 8.17 4.47 13.91
1/28/2021 10:15:00 AM -0.06 31.892 0.34 8.17 4.47 13.92
1/28/2021 10:30:00 AM -0.05 31.91 0.34 8.18 4.69 13.92
1/28/2021 10:45:00 AM -0.04 31.928 0.339 8.17 5.22 13.94
1/28/2021 11:00:00 AM -0.03 31.946 0.339 8.17 4.49 13.95
1/28/2021 11:15:00 AM -0.01 31.982 0.339 8.18 4.54 13.94
1/28/2021 11:30:00 AM -0.01 31.982 0.339 8.18 5.23 13.95
1/28/2021 11:45:00 AM 0 32 0.339 8.17 4.9 13.94
1/28/2021 12:00:00 PM 0.02 32.036 0.338 8.17 4.69 13.95
1/28/2021 12:15:00 PM 0.01 32.018 0.338 8.17 4.64 13.96
1/28/2021 12:30:00 PM 0.02 32.036 0.338 8.18 4.88 13.96
1/28/2021 12:45:00 PM 0.03 32.054 0.338 8.18 4.68 13.96
1/28/2021 1:00:00 PM 0.03 32.054 0.338 8.18 4.79 13.95
1/28/2021 1:15:00 PM 0.05 32.09 0.337 8.18 4.69 13.96
1/28/2021 1:30:00 PM 0.05 32.09 0.337 8.18 4.71 13.95
1/28/2021 1:45:00 PM 0.03 32.054 0.337 8.19 4.69 13.95
1/28/2021 2:00:00 PM 0.01 32.018 0.337 8.19 4.84 13.96
1/28/2021 2:15:00 PM 0.02 32.036 0.337 8.19 4.7 13.97
1/28/2021 2:30:00 PM 0.01 32.018 0.337 8.19 5.02 13.95
1/28/2021 2:45:00 PM 0.01 32.018 0.336 8.19 4.71 13.95
1/28/2021 3:00:00 PM 0 32 0.336 8.19 5.13 13.95
1/28/2021 3:15:00 PM -0.03 31.946 0.336 8.19 4.75 13.94
1/28/2021 3:30:00 PM -0.05 31.91 0.336 8.19 4.73 13.96
1/28/2021 3:45:00 PM -0.06 31.892 0.336 8.19 5.26 13.95
1/28/2021 4:00:00 PM -0.06 31.892 0.336 8.19 4.82 13.97
1/28/2021 4:15:00 PM -0.06 31.892 0.336 8.19 4.7 13.96
1/28/2021 4:30:00 PM -0.06 31.892 0.336 8.19 4.73 13.95
1/28/2021 4:45:00 PM -0.06 31.892 0.337 8.19 4.79 13.95
1/28/2021 5:00:00 PM -0.06 31.892 0.338 8.19 5.01 13.93
1/28/2021 5:15:00 PM -0.06 31.892 0.339 8.18 5.73 13.92
1/28/2021 5:30:00 PM -0.06 31.892 0.34 8.19 5.02 13.92
1/28/2021 5:45:00 PM -0.06 31.892 0.341 8.18 4.93 13.91
1/28/2021 6:00:00 PM -0.06 31.892 0.341 8.19 4.7 13.9
1/28/2021 6:15:00 PM -0.06 31.892 0.341 8.18 4.85 13.9
1/28/2021 6:30:00 PM -0.06 31.892 0.34 8.18 4.75 13.9
1/28/2021 6:45:00 PM -0.06 31.892 0.34 8.18 4.54 13.89
1/28/2021 7:00:00 PM -0.06 31.892 0.339 8.18 4.59 13.89
1/28/2021 7:15:00 PM -0.06 31.892 0.339 8.17 4.76 13.89
1/28/2021 7:30:00 PM -0.06 31.892 0.338 8.18 4.66 13.89
1/28/2021 7:45:00 PM -0.06 31.892 0.338 8.18 4.63 13.89
1/28/2021 8:00:00 PM -0.06 31.892 0.338 8.18 4.56 13.9
1/28/2021 8:15:00 PM -0.06 31.892 0.338 8.18 4.59 13.89
1/28/2021 8:30:00 PM -0.06 31.892 0.338 8.18 4.43 13.91
1/28/2021 8:45:00 PM -0.06 31.892 0.338 8.17 4.66 13.9
1/28/2021 9:00:00 PM -0.06 31.892 0.338 8.17 4.63 13.89
1/28/2021 9:15:00 PM -0.06 31.892 0.338 8.17 4.47 13.89
1/28/2021 9:30:00 PM -0.06 31.892 0.338 8.17 4.57 13.89
1/28/2021 9:45:00 PM -0.06 31.892 0.338 8.16 4.64 13.89
1/28/2021 10:00:00 PM -0.06 31.892 0.338 8.17 4.61 13.9
1/28/2021 10:15:00 PM -0.06 31.892 0.338 8.16 4.45 13.89
1/28/2021 10:30:00 PM -0.06 31.892 0.339 8.16 4.53 13.9
1/28/2021 10:45:00 PM -0.06 31.892 0.339 8.16 4.72 13.89
1/28/2021 11:00:00 PM -0.06 31.892 0.339 8.16 4.61 13.89
1/28/2021 11:15:00 PM -0.06 31.892 0.339 8.16 4.52 13.89
1/28/2021 11:30:00 PM -0.06 31.892 0.339 8.17 4.83 13.88
1/28/2021 11:45:00 PM -0.06 31.892 0.339 8.16 4.58 13.89
1/29/2021 12:00:00 AM -0.06 31.892 0.34 8.16 4.36 13.87
1/29/2021 12:15:00 AM -0.06 31.892 0.34 8.16 4.54 13.87
1/29/2021 12:30:00 AM -0.06 31.892 0.34 8.15 4.52 13.88
1/29/2021 12:45:00 AM -0.06 31.892 0.34 8.16 4.7 13.87
1/29/2021 1:00:00 AM -0.06 31.892 0.34 8.16 4.58 13.88
1/29/2021 1:15:00 AM -0.06 31.892 0.34 8.16 4.68 13.88
1/29/2021 1:30:00 AM -0.06 31.892 0.34 8.16 4.55 13.86
1/29/2021 1:45:00 AM -0.06 31.892 0.34 8.16 4.63 13.87
1/29/2021 2:00:00 AM -0.06 31.892 0.34 8.15 4.44 13.88
1/29/2021 2:15:00 AM -0.06 31.892 0.34 8.16 4.77 13.87
1/29/2021 2:30:00 AM -0.06 31.892 0.34 8.16 4.7 13.87
1/29/2021 2:45:00 AM -0.06 31.892 0.34 8.16 4.76 13.86
1/29/2021 3:00:00 AM -0.06 31.892 0.34 8.16 5 13.87
1/29/2021 3:15:00 AM -0.06 31.892 0.34 8.16 5.83 13.87
1/29/2021 3:30:00 AM -0.06 31.892 0.34 8.16 6.12 13.86
1/29/2021 3:45:00 AM -0.06 31.892 0.34 8.16 5.04 13.87
1/29/2021 4:00:00 AM -0.06 31.892 0.34 8.16 5.69 13.86
1/29/2021 4:15:00 AM -0.06 31.892 0.341 8.15 5.15 13.87
1/29/2021 4:30:00 AM -0.06 31.892 0.34 8.15 4.98 13.86
1/29/2021 4:45:00 AM -0.06 31.892 0.341 8.15 7.33 13.86
1/29/2021 5:00:00 AM -0.06 31.892 0.341 8.16 4.89 13.86
1/29/2021 5:15:00 AM -0.06 31.892 0.341 8.16 4.36 13.85
1/29/2021 5:30:00 AM -0.07 31.874 0.341 8.14 4.62 13.86
1/29/2021 5:45:00 AM -0.06 31.892 0.341 8.14 4.43 13.85
1/29/2021 6:00:00 AM -0.06 31.892 0.341 8.14 4.29 13.85
1/29/2021 6:15:00 AM -0.06 31.892 0.342 8.14 4.12 13.85
1/29/2021 6:30:00 AM -0.06 31.892 0.342 8.15 4.18 13.84
1/29/2021 6:45:00 AM -0.06 31.892 0.342 8.14 4.24 13.85
1/29/2021 7:00:00 AM -0.06 31.892 0.342 8.13 4.33 13.84
1/29/2021 7:15:00 AM -0.06 31.892 0.342 8.13 4.26 13.84
1/29/2021 7:30:00 AM -0.06 31.892 0.342 8.13 4.16 13.84
1/29/2021 7:45:00 AM -0.06 31.892 0.342 8.14 4.35 13.83
1/29/2021 8:00:00 AM -0.06 31.892 0.342 8.13 4.49 13.83
1/29/2021 8:15:00 AM -0.06 31.892 0.343 8.14 4.36 13.84
1/29/2021 8:30:00 AM -0.06 31.892 0.343 8.14 4.33 13.84
1/29/2021 8:45:00 AM -0.06 31.892 0.343 8.14 5.76 13.85
1/29/2021 9:00:00 AM -0.06 31.892 0.343 8.14 7.31 13.86
1/29/2021 9:15:00 AM -0.06 31.892 0.342 8.14 7.91 13.86
1/29/2021 9:30:00 AM -0.06 31.892 0.342 8.15 6.94 13.87
1/29/2021 9:45:00 AM -0.06 31.892 0.342 8.15 5.82 13.86
1/29/2021 10:00:00 AM -0.06 31.892 0.342 8.16 6.12 13.87
1/29/2021 10:15:00 AM -0.06 31.892 0.342 8.16 5.72 13.87
1/29/2021 10:30:00 AM -0.06 31.892 0.342 8.16 5.7 13.86
1/29/2021 10:45:00 AM -0.06 31.892 0.342 8.16 6 13.86
1/29/2021 11:00:00 AM -0.06 31.892 0.342 8.16 7.32 13.85
1/29/2021 11:15:00 AM -0.06 31.892 0.342 8.15 5.49 13.84
1/29/2021 11:30:00 AM -0.06 31.892 0.342 8.15 5.97 13.83
1/29/2021 11:45:00 AM -0.06 31.892 0.343 8.15 6.29 13.82
1/29/2021 12:00:00 PM -0.05 31.91 0.343 8.14 7.26 13.81
1/29/2021 12:15:00 PM -0.05 31.91 0.343 8.13 6.8 13.8
1/29/2021 12:30:00 PM -0.04 31.928 0.343 8.12 6.68 13.8
1/29/2021 12:45:00 PM -0.04 31.928 0.343 8.12 6.74 13.79
1/29/2021 1:00:00 PM -0.04 31.928 0.343 8.12 6.12 13.78
1/29/2021 1:15:00 PM -0.04 31.928 0.342 8.12 5.62 13.78
1/29/2021 1:30:00 PM -0.04 31.928 0.341 8.12 5.21 13.78
1/29/2021 1:45:00 PM -0.04 31.928 0.34 8.12 5.21 13.77
1/29/2021 2:00:00 PM -0.04 31.928 0.339 8.12 5.35 13.77
1/29/2021 2:15:00 PM -0.03 31.946 0.339 8.12 5.03 13.76
1/29/2021 2:30:00 PM -0.04 31.928 0.338 8.12 5.24 13.77
1/29/2021 2:45:00 PM -0.05 31.91 0.338 8.12 4.94 13.76
1/29/2021 3:00:00 PM -0.05 31.91 0.338 8.12 4.88 13.75
1/29/2021 3:15:00 PM -0.05 31.91 0.337 8.12 4.81 13.75
1/29/2021 3:30:00 PM -0.07 31.874 0.337 8.12 4.89 13.75
1/29/2021 3:45:00 PM -0.07 31.874 0.337 8.12 4.64 13.74
1/29/2021 4:00:00 PM -0.07 31.874 0.337 8.11 4.61 13.73
1/29/2021 4:15:00 PM -0.07 31.874 0.336 8.11 4.89 13.73
1/29/2021 4:30:00 PM -0.07 31.874 0.336 8.11 4.61 13.72
1/29/2021 4:45:00 PM -0.07 31.874 0.336 8.11 4.72 13.7
1/29/2021 5:00:00 PM -0.07 31.874 0.336 8.11 5.01 13.71
1/29/2021 5:15:00 PM -0.07 31.874 0.336 8.11 4.91 13.7
1/29/2021 5:30:00 PM -0.07 31.874 0.336 8.12 4.93 13.68
1/29/2021 5:45:00 PM -0.07 31.874 0.336 8.12 4.62 13.68
1/29/2021 6:00:00 PM -0.07 31.874 0.335 8.11 4.67 13.68
1/29/2021 6:15:00 PM -0.06 31.892 0.336 8.11 4.42 13.67
1/29/2021 6:30:00 PM -0.06 31.892 0.336 8.11 4.79 13.67
1/29/2021 6:45:00 PM -0.06 31.892 0.336 8.11 4.8 13.67
1/29/2021 7:00:00 PM -0.06 31.892 0.336 8.11 4.69 13.68
1/29/2021 7:15:00 PM -0.06 31.892 0.336 8.11 4.39 13.68
1/29/2021 7:30:00 PM -0.06 31.892 0.337 8.11 4.38 13.68
1/29/2021 7:45:00 PM -0.06 31.892 0.338 8.11 4.47 13.69
1/29/2021 8:00:00 PM -0.06 31.892 0.339 8.1 4.7 13.7
1/29/2021 8:15:00 PM -0.06 31.892 0.34 8.1 4.23 13.7
1/29/2021 8:30:00 PM -0.06 31.892 0.34 8.1 4.42 13.7
1/29/2021 8:45:00 PM -0.06 31.892 0.341 8.1 4.6 13.7
1/29/2021 9:00:00 PM -0.06 31.892 0.342 8.1 4.52 13.69
1/29/2021 9:15:00 PM -0.06 31.892 0.342 8.1 4.54 13.71
1/29/2021 9:30:00 PM -0.06 31.892 0.343 8.1 5.06 13.7
1/29/2021 9:45:00 PM -0.06 31.892 0.343 8.1 4.97 13.69
1/29/2021 10:00:00 PM -0.06 31.892 0.343 8.11 5.1 13.7
1/29/2021 10:15:00 PM -0.06 31.892 0.343 8.1 5.27 13.7
1/29/2021 10:30:00 PM -0.06 31.892 0.342 8.1 5.01 13.7
1/29/2021 10:45:00 PM -0.06 31.892 0.342 8.1 5.14 13.69
1/29/2021 11:00:00 PM -0.06 31.892 0.341 8.1 4.64 13.7
1/29/2021 11:15:00 PM -0.06 31.892 0.341 8.1 4.61 13.69
1/29/2021 11:30:00 PM -0.06 31.892 0.341 8.1 4.71 13.68
1/29/2021 11:45:00 PM -0.06 31.892 0.341 8.1 5.6 13.68
1/30/2021 12:00:00 AM -0.06 31.892 0.341 8.1 4.64 13.69
1/30/2021 12:15:00 AM -0.06 31.892 0.341 8.09 4.78 13.68
1/30/2021 12:30:00 AM -0.06 31.892 0.34 8.1 4.6 13.69
1/30/2021 12:45:00 AM -0.06 31.892 0.34 8.09 4.54 13.68
1/30/2021 1:00:00 AM -0.06 31.892 0.34 8.1 4.34 13.67
1/30/2021 1:15:00 AM -0.06 31.892 0.34 8.09 4.52 13.68
1/30/2021 1:30:00 AM -0.06 31.892 0.34 8.09 4.94 13.67
1/30/2021 1:45:00 AM -0.06 31.892 0.34 8.1 5.25 13.68
1/30/2021 2:00:00 AM -0.06 31.892 0.34 8.09 4.78 13.67
1/30/2021 2:15:00 AM -0.06 31.892 0.34 8.09 5.12 13.67
1/30/2021 2:30:00 AM -0.06 31.892 0.34 8.1 4.89 13.68
1/30/2021 2:45:00 AM -0.06 31.892 0.34 8.1 4.29 13.67
1/30/2021 3:00:00 AM -0.06 31.892 0.34 8.1 4.48 13.67
1/30/2021 3:15:00 AM -0.06 31.892 0.34 8.09 4.5 13.68
1/30/2021 3:30:00 AM -0.06 31.892 0.34 8.09 4.56 13.67
1/30/2021 3:45:00 AM -0.06 31.892 0.34 8.09 4.72 13.67
1/30/2021 4:00:00 AM -0.06 31.892 0.34 8.1 4.5 13.67
1/30/2021 4:15:00 AM -0.06 31.892 0.34 8.09 4.67 13.67
1/30/2021 4:30:00 AM -0.06 31.892 0.34 8.09 4.69 13.67
1/30/2021 4:45:00 AM -0.06 31.892 0.34 8.09 4.65 13.67
1/30/2021 5:00:00 AM -0.06 31.892 0.34 8.09 4.41 13.67
1/30/2021 5:15:00 AM -0.06 31.892 0.34 8.08 4.51 13.68
1/30/2021 5:30:00 AM -0.06 31.892 0.34 8.08 4.46 13.67
1/30/2021 5:45:00 AM -0.06 31.892 0.34 8.08 4.77 13.66
1/30/2021 6:00:00 AM -0.06 31.892 0.34 8.09 4.45 13.68
1/30/2021 6:15:00 AM -0.06 31.892 0.34 8.09 4.6 13.67
1/30/2021 6:30:00 AM -0.06 31.892 0.34 8.08 4.48 13.67
1/30/2021 6:45:00 AM -0.06 31.892 0.34 8.09 4.33 13.68
1/30/2021 7:00:00 AM -0.06 31.892 0.34 8.08 4.45 13.66
1/30/2021 7:15:00 AM -0.06 31.892 0.34 8.08 4.41 13.67
1/30/2021 7:30:00 AM -0.06 31.892 0.34 8.09 4.74 13.67
1/30/2021 7:45:00 AM -0.06 31.892 0.34 8.09 4.88 13.68
1/30/2021 8:00:00 AM -0.06 31.892 0.34 8.09 4.7 13.67
1/30/2021 8:15:00 AM -0.06 31.892 0.341 8.08 4.46 13.68
1/30/2021 8:30:00 AM -0.06 31.892 0.341 8.09 4.57 13.69
1/30/2021 8:45:00 AM -0.06 31.892 0.341 8.08 4.5 13.71
1/30/2021 9:00:00 AM -0.06 31.892 0.341 8.09 4.42 13.71
1/30/2021 9:15:00 AM -0.06 31.892 0.341 8.09 4.7 13.72
1/30/2021 9:30:00 AM -0.06 31.892 0.341 8.1 4.76 13.74
1/30/2021 9:45:00 AM -0.06 31.892 0.341 8.1 5.43 13.75
1/30/2021 10:00:00 AM -0.06 31.892 0.341 8.1 5.17 13.76
1/30/2021 10:15:00 AM -0.06 31.892 0.341 8.09 4.86 13.76
1/30/2021 10:30:00 AM -0.06 31.892 0.34 8.1 4.86 13.77
1/30/2021 10:45:00 AM -0.06 31.892 0.34 8.1 4.88 13.77
1/30/2021 11:00:00 AM -0.05 31.91 0.34 8.1 4.81 13.77
1/30/2021 11:15:00 AM -0.05 31.91 0.34 8.1 4.88 13.77
1/30/2021 11:30:00 AM -0.05 31.91 0.339 8.1 5.11 13.78
1/30/2021 11:45:00 AM -0.05 31.91 0.339 8.11 5.63 13.77
1/30/2021 12:00:00 PM -0.05 31.91 0.339 8.1 5.5 13.76
1/30/2021 12:15:00 PM -0.05 31.91 0.339 8.1 5.09 13.77
1/30/2021 12:30:00 PM -0.05 31.91 0.338 8.1 4.85 13.77
1/30/2021 12:45:00 PM -0.05 31.91 0.338 8.1 4.86 13.77
1/30/2021 1:00:00 PM -0.05 31.91 0.338 8.11 4.97 13.77
1/30/2021 1:15:00 PM -0.04 31.928 0.338 8.07 5 13.77
1/30/2021 1:30:00 PM -0.04 31.928 0.337 8.1 4.82 13.77
1/30/2021 1:45:00 PM -0.05 31.91 0.337 8.1 4.52 13.78
1/30/2021 2:00:00 PM -0.05 31.91 0.337 8.11 4.62 13.78
1/30/2021 2:15:00 PM -0.04 31.928 0.337 8.11 4.55 13.78
1/30/2021 2:30:00 PM -0.04 31.928 0.336 8.11 4.6 13.78
1/30/2021 2:45:00 PM -0.04 31.928 0.336 8.11 4.7 13.78
1/30/2021 3:00:00 PM -0.04 31.928 0.336 8.11 4.58 13.78
1/30/2021 3:15:00 PM -0.05 31.91 0.336 8.11 4.57 13.77
1/30/2021 3:30:00 PM -0.05 31.91 0.335 8.11 4.5 13.76
1/30/2021 3:45:00 PM -0.05 31.91 0.335 8.11 4.76 13.76
1/30/2021 4:00:00 PM -0.05 31.91 0.335 8.12 4.58 13.76
1/30/2021 4:15:00 PM -0.05 31.91 0.334 8.12 4.61 13.75
1/30/2021 4:30:00 PM -0.06 31.892 0.334 8.12 4.51 13.75
1/30/2021 4:45:00 PM -0.06 31.892 0.334 8.12 4.55 13.75
1/30/2021 5:00:00 PM -0.06 31.892 0.335 8.12 4.45 13.75
1/30/2021 5:15:00 PM -0.07 31.874 0.335 8.11 4.27 13.75
1/30/2021 5:30:00 PM -0.07 31.874 0.335 8.11 4.39 13.73
1/30/2021 5:45:00 PM -0.07 31.874 0.335 8.11 4.41 13.73
1/30/2021 6:00:00 PM -0.07 31.874 0.335 8.11 4.39 13.72
1/30/2021 6:15:00 PM -0.07 31.874 0.335 8.11 4.4 13.71
1/30/2021 6:30:00 PM -0.07 31.874 0.335 8.11 4.63 13.71
1/30/2021 6:45:00 PM -0.07 31.874 0.336 8.11 4.35 13.72
1/30/2021 7:00:00 PM -0.07 31.874 0.336 8.11 4.24 13.71
1/30/2021 7:15:00 PM -0.07 31.874 0.336 8.1 4.34 13.71
1/30/2021 7:30:00 PM -0.07 31.874 0.336 8.1 4.38 13.72
1/30/2021 7:45:00 PM -0.07 31.874 0.336 8.11 4.51 13.72
1/30/2021 8:00:00 PM -0.07 31.874 0.337 8.11 4.41 13.72
1/30/2021 8:15:00 PM -0.07 31.874 0.337 8.11 4.34 13.72
1/30/2021 8:30:00 PM -0.06 31.892 0.337 8.11 4.25 13.72
1/30/2021 8:45:00 PM -0.06 31.892 0.337 8.11 4.37 13.73
1/30/2021 9:00:00 PM -0.06 31.892 0.337 8.1 4.29 13.73
1/30/2021 9:15:00 PM -0.06 31.892 0.337 8.11 4.3 13.73
1/30/2021 9:30:00 PM -0.06 31.892 0.337 8.11 4.17 13.74
1/30/2021 9:45:00 PM -0.06 31.892 0.338 8.11 4.18 13.73
1/30/2021 10:00:00 PM -0.06 31.892 0.338 8.1 4.13 13.73
1/30/2021 10:15:00 PM -0.06 31.892 0.338 8.1 4.27 13.74
1/30/2021 10:30:00 PM -0.06 31.892 0.338 8.1 4.33 13.74
1/30/2021 10:45:00 PM -0.06 31.892 0.338 8.1 4.52 13.73
1/30/2021 11:00:00 PM -0.06 31.892 0.338 8.1 4.27 13.74
1/30/2021 11:15:00 PM -0.06 31.892 0.338 8.1 4.33 13.73
1/30/2021 11:30:00 PM -0.06 31.892 0.338 8.1 4.69 13.73
1/30/2021 11:45:00 PM -0.06 31.892 0.338 8.09 4.63 13.73
1/31/2021 12:00:00 AM -0.06 31.892 0.338 8.1 4.44 13.73
1/31/2021 12:15:00 AM -0.06 31.892 0.338 8.1 4.34 13.73
1/31/2021 12:30:00 AM -0.06 31.892 0.338 8.1 4.37 13.72
1/31/2021 12:45:00 AM -0.06 31.892 0.338 8.1 4.69 13.73
1/31/2021 1:00:00 AM -0.06 31.892 0.338 8.1 4.44 13.73
1/31/2021 1:15:00 AM -0.06 31.892 0.338 8.1 4.3 13.73
1/31/2021 1:30:00 AM -0.06 31.892 0.338 8.09 4.38 13.72
1/31/2021 1:45:00 AM -0.06 31.892 0.338 8.09 4.35 13.73
1/31/2021 2:00:00 AM -0.06 31.892 0.338 8.09 4.39 13.72
1/31/2021 2:15:00 AM -0.06 31.892 0.338 8.1 4.39 13.72
1/31/2021 2:30:00 AM -0.06 31.892 0.338 8.09 4.41 13.73
1/31/2021 2:45:00 AM -0.06 31.892 0.338 8.1 4.51 13.73
1/31/2021 3:00:00 AM -0.06 31.892 0.338 8.1 4.38 13.73
1/31/2021 3:15:00 AM -0.06 31.892 0.338 8.1 4.56 13.72
1/31/2021 3:30:00 AM -0.06 31.892 0.338 8.1 4.3 13.72
1/31/2021 3:45:00 AM -0.06 31.892 0.338 8.09 4.31 13.72
1/31/2021 4:00:00 AM -0.06 31.892 0.338 8.1 4.17 13.73
1/31/2021 4:15:00 AM -0.06 31.892 0.339 8.1 4.33 13.72
1/31/2021 4:30:00 AM -0.06 31.892 0.338 8.1 4.3 13.73
1/31/2021 4:45:00 AM -0.06 31.892 0.338 8.1 4.31 13.72
1/31/2021 5:00:00 AM -0.06 31.892 0.339 8.1 4.26 13.73
1/31/2021 5:15:00 AM -0.06 31.892 0.339 8.09 4.48 13.72
1/31/2021 5:30:00 AM -0.06 31.892 0.339 8.09 4.38 13.72
1/31/2021 5:45:00 AM -0.06 31.892 0.339 8.1 4.33 13.72
1/31/2021 6:00:00 AM -0.06 31.892 0.339 8.1 4.3 13.73
1/31/2021 6:15:00 AM -0.06 31.892 0.339 8.1 4.53 13.73
1/31/2021 6:30:00 AM -0.06 31.892 0.339 8.09 4.35 13.72
1/31/2021 6:45:00 AM -0.06 31.892 0.34 8.09 4.29 13.72
1/31/2021 7:00:00 AM -0.06 31.892 0.34 8.09 4.43 13.73
1/31/2021 7:15:00 AM -0.06 31.892 0.34 8.09 4.95 13.73
1/31/2021 7:30:00 AM -0.06 31.892 0.34 8.09 4.26 13.74
1/31/2021 7:45:00 AM -0.06 31.892 0.341 8.09 4.38 13.74
1/31/2021 8:00:00 AM -0.06 31.892 0.341 8.09 4.52 13.75
1/31/2021 8:15:00 AM -0.06 31.892 0.341 8.09 4.55 13.76
1/31/2021 8:30:00 AM -0.06 31.892 0.341 8.1 4.23 13.78
1/31/2021 8:45:00 AM -0.06 31.892 0.341 8.1 4.29 13.79
1/31/2021 9:00:00 AM -0.06 31.892 0.341 8.1 4.15 13.81
1/31/2021 9:15:00 AM -0.06 31.892 0.341 8.1 4.26 13.82
1/31/2021 9:30:00 AM -0.06 31.892 0.341 8.11 4.35 13.83
1/31/2021 9:45:00 AM -0.05 31.91 0.341 8.11 4.14 13.85
1/31/2021 10:00:00 AM -0.05 31.91 0.341 8.1 4.35 13.86
1/31/2021 10:15:00 AM -0.05 31.91 0.341 8.11 4.31 13.87
1/31/2021 10:30:00 AM -0.05 31.91 0.342 8.11 4.32 13.86
1/31/2021 10:45:00 AM -0.05 31.91 0.342 8.11 4.3 13.87
1/31/2021 11:00:00 AM -0.05 31.91 0.342 8.11 4.43 13.88
1/31/2021 11:15:00 AM -0.05 31.91 0.342 8.12 4.44 13.87
1/31/2021 11:30:00 AM -0.05 31.91 0.341 8.12 4.89 13.88
1/31/2021 11:45:00 AM -0.04 31.928 0.341 8.11 4.66 13.88
1/31/2021 12:00:00 PM -0.02 31.964 0.341 8.12 4.73 13.88
1/31/2021 12:15:00 PM 0 32 0.341 8.12 4.73 13.88
1/31/2021 12:30:00 PM 0 32 0.34 8.13 4.66 13.89
1/31/2021 12:45:00 PM 0 32 0.341 8.13 4.7 13.88
1/31/2021 1:00:00 PM 0.01 32.018 0.34 8.13 5.01 13.89
1/31/2021 1:15:00 PM 0.02 32.036 0.34 8.13 4.97 13.89
1/31/2021 1:30:00 PM 0.03 32.054 0.34 8.14 5.54 13.89
1/31/2021 1:45:00 PM 0.04 32.072 0.34 8.14 5.04 13.87
1/31/2021 2:00:00 PM 0.05 32.09 0.34 8.14 5.08 13.87
1/31/2021 2:15:00 PM 0.05 32.09 0.339 8.14 5.33 13.88
1/31/2021 2:30:00 PM 0.04 32.072 0.339 8.14 4.91 13.87
1/31/2021 2:45:00 PM 0.03 32.054 0.339 8.15 5.36 13.87
1/31/2021 3:00:00 PM 0.02 32.036 0.339 8.15 5.21 13.86
1/31/2021 3:15:00 PM 0.02 32.036 0.339 8.15 4.92 13.87
1/31/2021 3:30:00 PM 0.02 32.036 0.339 8.14 5.35 13.85
1/31/2021 3:45:00 PM 0.01 32.018 0.339 8.15 4.79 13.84
1/31/2021 4:00:00 PM 0 32 0.339 8.15 4.77 13.83
1/31/2021 4:15:00 PM 0 32 0.339 8.15 5.24 13.82
1/31/2021 4:30:00 PM -0.01 31.982 0.339 8.15 4.92 13.81
1/31/2021 4:45:00 PM -0.02 31.964 0.339 8.15 4.81 13.81
1/31/2021 5:00:00 PM -0.03 31.946 0.339 8.15 4.93 13.79
1/31/2021 5:15:00 PM -0.04 31.928 0.339 8.14 4.72 13.78
1/31/2021 5:30:00 PM -0.05 31.91 0.34 8.15 4.55 13.75
1/31/2021 5:45:00 PM -0.06 31.892 0.34 8.15 4.9 13.73
1/31/2021 6:00:00 PM -0.06 31.892 0.34 8.14 4.66 13.73
1/31/2021 6:15:00 PM -0.06 31.892 0.34 8.14 4.89 13.72
1/31/2021 6:30:00 PM -0.06 31.892 0.341 8.14 5.07 13.72
1/31/2021 6:45:00 PM -0.06 31.892 0.341 8.14 4.64 13.71
1/31/2021 7:00:00 PM -0.06 31.892 0.341 8.14 4.73 13.7
1/31/2021 7:15:00 PM -0.06 31.892 0.341 8.14 4.92 13.71
1/31/2021 7:30:00 PM -0.06 31.892 0.342 8.14 4.66 13.71
1/31/2021 7:45:00 PM -0.06 31.892 0.342 8.14 4.62 13.71
1/31/2021 8:00:00 PM -0.06 31.892 0.342 8.14 5.24 13.71
1/31/2021 8:15:00 PM -0.06 31.892 0.342 8.13 4.61 13.71
1/31/2021 8:30:00 PM -0.06 31.892 0.342 8.13 5.07 13.71
1/31/2021 8:45:00 PM -0.06 31.892 0.343 8.13 4.68 13.71
1/31/2021 9:00:00 PM -0.06 31.892 0.343 8.13 4.96 13.71
1/31/2021 9:15:00 PM -0.06 31.892 0.343 8.13 4.58 13.71
1/31/2021 9:30:00 PM -0.06 31.892 0.343 8.13 4.62 13.71
1/31/2021 9:45:00 PM -0.06 31.892 0.343 8.13 4.66 13.71
1/31/2021 10:00:00 PM -0.06 31.892 0.343 8.13 4.51 13.71
1/31/2021 10:15:00 PM -0.06 31.892 0.344 8.13 4.71 13.71
1/31/2021 10:30:00 PM -0.06 31.892 0.344 8.13 5.08 13.71
1/31/2021 10:45:00 PM -0.06 31.892 0.344 8.13 4.68 13.7
1/31/2021 11:00:00 PM -0.06 31.892 0.344 8.13 4.52 13.71
1/31/2021 11:15:00 PM -0.06 31.892 0.344 8.13 4.56 13.7
1/31/2021 11:30:00 PM -0.06 31.892 0.344 8.13 4.77 13.7
1/31/2021 11:45:00 PM -0.06 31.892 0.344 8.12 4.55 13.7
2/1/2021 12:00:00 AM -0.06 31.892 0.345 8.13 4.95 13.7
2/1/2021 12:15:00 AM -0.06 31.892 0.344 8.13 4.97 13.69
2/1/2021 12:30:00 AM -0.06 31.892 0.345 8.12 4.49 13.7
2/1/2021 12:45:00 AM -0.06 31.892 0.345 8.12 4.52 13.69
2/1/2021 1:00:00 AM -0.06 31.892 0.345 8.12 4.68 13.69
2/1/2021 1:15:00 AM -0.06 31.892 0.345 8.12 4.62 13.69
2/1/2021 1:30:00 AM -0.06 31.892 0.345 8.12 4.67 13.69
2/1/2021 1:45:00 AM -0.06 31.892 0.345 8.12 4.77 13.69
2/1/2021 2:00:00 AM -0.06 31.892 0.345 8.12 4.91 13.69
2/1/2021 2:15:00 AM -0.06 31.892 0.345 8.12 4.94 13.69
2/1/2021 2:30:00 AM -0.06 31.892 0.345 8.12 4.88 13.69
2/1/2021 2:45:00 AM -0.06 31.892 0.345 8.12 4.73 13.69
2/1/2021 3:00:00 AM -0.06 31.892 0.345 8.12 4.58 13.68
2/1/2021 3:15:00 AM -0.06 31.892 0.344 8.12 5.18 13.69
2/1/2021 3:30:00 AM -0.06 31.892 0.344 8.11 4.94 13.67
2/1/2021 3:45:00 AM -0.06 31.892 0.344 8.12 4.48 13.68
2/1/2021 4:00:00 AM -0.06 31.892 0.344 8.12 4.81 13.67
2/1/2021 4:15:00 AM -0.06 31.892 0.344 8.12 4.76 13.66
2/1/2021 4:30:00 AM -0.06 31.892 0.344 8.11 4.59 13.67
2/1/2021 4:45:00 AM -0.06 31.892 0.344 8.12 4.65 13.67
2/1/2021 5:00:00 AM -0.06 31.892 0.344 8.12 4.7 13.67
2/1/2021 5:15:00 AM -0.06 31.892 0.344 8.12 4.62 13.65
2/1/2021 5:30:00 AM -0.06 31.892 0.344 8.12 4.56 13.65
2/1/2021 5:45:00 AM -0.06 31.892 0.344 8.12 4.7 13.65
2/1/2021 6:00:00 AM -0.06 31.892 0.344 8.12 4.55 13.65
2/1/2021 6:15:00 AM -0.06 31.892 0.344 8.11 4.59 13.65
2/1/2021 6:30:00 AM -0.06 31.892 0.344 8.12 4.85 13.65
2/1/2021 6:45:00 AM -0.06 31.892 0.344 8.11 4.47 13.63
2/1/2021 7:00:00 AM -0.06 31.892 0.344 8.12 4.55 13.64
2/1/2021 7:15:00 AM -0.06 31.892 0.344 8.11 4.87 13.64
2/1/2021 7:30:00 AM -0.06 31.892 0.344 8.12 4.56 13.63
2/1/2021 7:45:00 AM -0.06 31.892 0.344 8.11 4.77 13.64
2/1/2021 8:00:00 AM -0.06 31.892 0.344 8.12 4.66 13.64
2/1/2021 8:15:00 AM -0.06 31.892 0.344 8.12 4.68 13.64
2/1/2021 8:30:00 AM -0.06 31.892 0.344 8.12 4.43 13.66
2/1/2021 8:45:00 AM -0.06 31.892 0.344 8.12 4.87 13.67
2/1/2021 9:00:00 AM -0.05 31.91 0.344 8.13 4.97 13.68
2/1/2021 9:15:00 AM -0.05 31.91 0.344 8.12 4.81 13.69
2/1/2021 9:30:00 AM -0.04 31.928 0.344 8.13 4.68 13.7
2/1/2021 9:45:00 AM -0.03 31.946 0.344 8.13 4.5 13.71
2/1/2021 10:00:00 AM -0.01 31.982 0.343 8.13 4.81 13.72
2/1/2021 10:15:00 AM 0 32 0.343 8.13 4.58 13.73
2/1/2021 10:30:00 AM 0.01 32.018 0.343 8.13 4.62 13.73
2/1/2021 10:45:00 AM 0.01 32.018 0.344 8.14 4.63 13.74
2/1/2021 11:00:00 AM 0.01 32.018 0.344 8.14 4.56 13.75
2/1/2021 11:15:00 AM 0.02 32.036 0.344 8.14 4.47 13.74
2/1/2021 11:30:00 AM 0.03 32.054 0.344 8.14 4.79 13.76
2/1/2021 11:45:00 AM 0.03 32.054 0.344 8.14 4.51 13.76
2/1/2021 12:00:00 PM 0.04 32.072 0.344 8.15 4.73 13.77
2/1/2021 12:15:00 PM 0.04 32.072 0.343 8.15 7.98 13.77
2/1/2021 12:30:00 PM 0.04 32.072 0.344 8.15 4.81 13.76
2/1/2021 12:45:00 PM 0.05 32.09 0.343 8.15 4.54 13.77
2/1/2021 1:00:00 PM 0.05 32.09 0.343 8.16 4.67 13.77
2/1/2021 1:15:00 PM 0.04 32.072 0.343 8.16 4.6 13.77
2/1/2021 1:30:00 PM 0.04 32.072 0.342 8.16 4.69 13.77
2/1/2021 1:45:00 PM 0.04 32.072 0.342 8.16 4.7 13.77
2/1/2021 2:00:00 PM 0.04 32.072 0.342 8.16 4.68 13.77
2/1/2021 2:15:00 PM 0.03 32.054 0.342 8.16 4.67 13.76
2/1/2021 2:30:00 PM 0.02 32.036 0.342 8.16 4.73 13.75
2/1/2021 2:45:00 PM 0.02 32.036 0.342 8.17 4.82 13.76
2/1/2021 3:00:00 PM 0.01 32.018 0.342 8.17 4.86 13.75
2/1/2021 3:15:00 PM 0 32 0.341 8.17 4.89 13.74
2/1/2021 3:30:00 PM 0 32 0.342 8.17 4.92 13.75
2/1/2021 3:45:00 PM -0.01 31.982 0.342 8.17 4.61 13.74
2/1/2021 4:00:00 PM -0.01 31.982 0.343 8.17 4.6 13.72
2/1/2021 4:15:00 PM -0.02 31.964 0.343 8.17 4.76 13.71
2/1/2021 4:30:00 PM -0.02 31.964 0.344 8.17 4.79 13.71
2/1/2021 4:45:00 PM -0.03 31.946 0.344 8.16 4.63 13.7
2/1/2021 5:00:00 PM -0.03 31.946 0.345 8.16 4.7 13.68
2/1/2021 5:15:00 PM -0.03 31.946 0.345 8.16 4.57 13.68
2/1/2021 5:30:00 PM -0.03 31.946 0.346 8.16 4.62 13.67
2/1/2021 5:45:00 PM -0.03 31.946 0.346 8.16 4.54 13.65
2/1/2021 6:00:00 PM -0.03 31.946 0.346 8.16 4.82 13.65
2/1/2021 6:15:00 PM -0.03 31.946 0.347 8.15 4.72 13.64
2/1/2021 6:30:00 PM -0.03 31.946 0.347 8.15 4.77 13.64
2/1/2021 6:45:00 PM -0.03 31.946 0.346 8.15 5.04 13.63
2/1/2021 7:00:00 PM -0.03 31.946 0.346 8.15 4.61 13.64
2/1/2021 7:15:00 PM -0.03 31.946 0.345 8.15 4.68 13.63
2/1/2021 7:30:00 PM -0.03 31.946 0.345 8.15 4.55 13.63
2/1/2021 7:45:00 PM -0.03 31.946 0.344 8.15 4.78 13.63
2/1/2021 8:00:00 PM -0.03 31.946 0.344 8.15 4.4 13.62
2/1/2021 8:15:00 PM -0.03 31.946 0.344 8.15 4.51 13.63
2/1/2021 8:30:00 PM -0.03 31.946 0.345 8.15 4.93 13.62
2/1/2021 8:45:00 PM -0.03 31.946 0.345 8.15 4.61 13.62
2/1/2021 9:00:00 PM -0.03 31.946 0.346 8.15 4.63 13.62
2/1/2021 9:15:00 PM -0.03 31.946 0.346 8.15 4.65 13.62
2/1/2021 9:30:00 PM -0.03 31.946 0.346 8.15 4.62 13.63
2/1/2021 9:45:00 PM -0.03 31.946 0.345 8.15 4.53 13.62
2/1/2021 10:00:00 PM -0.03 31.946 0.345 8.15 4.63 13.62
2/1/2021 10:15:00 PM -0.03 31.946 0.345 8.14 4.65 13.62
2/1/2021 10:30:00 PM -0.04 31.928 0.344 8.15 4.56 13.63
2/1/2021 10:45:00 PM -0.05 31.91 0.344 8.15 4.69 13.61
2/1/2021 11:00:00 PM -0.05 31.91 0.344 8.15 4.7 13.63
2/1/2021 11:15:00 PM -0.06 31.892 0.344 8.15 4.87 13.62
2/1/2021 11:30:00 PM -0.06 31.892 0.344 8.15 4.86 13.62
2/1/2021 11:45:00 PM -0.06 31.892 0.343 8.15 4.62 13.62
2/2/2021 12:00:00 AM -0.06 31.892 0.343 8.15 4.93 13.62
2/2/2021 12:15:00 AM -0.06 31.892 0.343 8.15 4.62 13.62
2/2/2021 12:30:00 AM -0.06 31.892 0.343 8.15 4.87 13.61
2/2/2021 12:45:00 AM -0.06 31.892 0.343 8.15 5.02 13.62
2/2/2021 1:00:00 AM -0.06 31.892 0.343 8.14 4.62 13.62
2/2/2021 1:15:00 AM -0.06 31.892 0.343 8.15 5.18 13.61
2/2/2021 1:30:00 AM -0.06 31.892 0.343 8.15 5.15 13.61
2/2/2021 1:45:00 AM -0.06 31.892 0.343 8.15 4.83 13.61
2/2/2021 2:00:00 AM -0.06 31.892 0.343 8.14 4.68 13.6
2/2/2021 2:15:00 AM -0.06 31.892 0.343 8.14 4.72 13.61
2/2/2021 2:30:00 AM -0.06 31.892 0.343 8.14 4.92 13.6
2/2/2021 2:45:00 AM -0.06 31.892 0.342 8.14 4.84 13.6
2/2/2021 3:00:00 AM -0.06 31.892 0.342 8.14 4.76 13.59
2/2/2021 3:15:00 AM -0.06 31.892 0.342 8.13 4.82 13.6
2/2/2021 3:30:00 AM -0.06 31.892 0.342 8.14 4.55 13.59
2/2/2021 3:45:00 AM -0.06 31.892 0.342 8.14 4.96 13.59
2/2/2021 4:00:00 AM -0.06 31.892 0.342 8.14 4.71 13.58
2/2/2021 4:15:00 AM -0.06 31.892 0.342 8.14 4.79 13.59
2/2/2021 4:30:00 AM -0.06 31.892 0.343 8.14 4.83 13.58
2/2/2021 4:45:00 AM -0.06 31.892 0.342 8.14 4.74 13.58
2/2/2021 5:00:00 AM -0.06 31.892 0.342 8.14 5.06 13.57
2/2/2021 5:15:00 AM -0.06 31.892 0.342 8.14 5 13.57
2/2/2021 5:30:00 AM -0.06 31.892 0.342 8.14 4.72 13.57
2/2/2021 5:45:00 AM -0.06 31.892 0.342 8.14 4.69 13.56
2/2/2021 6:00:00 AM -0.06 31.892 0.342 8.14 4.79 13.56
2/2/2021 6:15:00 AM -0.06 31.892 0.342 8.14 4.75 13.56
2/2/2021 6:30:00 AM -0.06 31.892 0.342 8.14 4.87 13.55
2/2/2021 6:45:00 AM -0.06 31.892 0.342 8.14 4.78 13.55
2/2/2021 7:00:00 AM -0.06 31.892 0.342 8.14 4.84 13.54
2/2/2021 7:15:00 AM -0.06 31.892 0.342 8.14 4.82 13.53
2/2/2021 7:30:00 AM -0.06 31.892 0.342 8.14 4.72 13.54
2/2/2021 7:45:00 AM -0.06 31.892 0.342 8.14 4.82 13.53
2/2/2021 8:00:00 AM -0.06 31.892 0.342 8.14 4.82 13.53
2/2/2021 8:15:00 AM -0.06 31.892 0.342 8.14 4.88 13.53
2/2/2021 8:30:00 AM -0.06 31.892 0.342 8.14 5.26 13.54
2/2/2021 8:45:00 AM -0.06 31.892 0.343 8.14 4.83 13.55
2/2/2021 9:00:00 AM -0.06 31.892 0.342 8.14 4.94 13.55
2/2/2021 9:15:00 AM -0.06 31.892 0.342 8.14 5.02 13.57
2/2/2021 9:30:00 AM -0.05 31.91 0.342 8.14 4.78 13.56
2/2/2021 9:45:00 AM -0.05 31.91 0.342 8.14 4.58 13.57
2/2/2021 10:00:00 AM -0.04 31.928 0.342 8.15 4.62 13.59
2/2/2021 10:15:00 AM -0.04 31.928 0.342 8.15 4.5 13.58
2/2/2021 10:30:00 AM -0.04 31.928 0.342 8.15 4.51 13.59
2/2/2021 10:45:00 AM -0.03 31.946 0.342 8.15 4.64 13.58
2/2/2021 11:00:00 AM -0.03 31.946 0.342 8.15 4.64 13.59
2/2/2021 11:15:00 AM -0.02 31.964 0.342 8.15 4.63 13.6
2/2/2021 11:30:00 AM -0.04 31.928 0.341 8.15 4.63 13.6
2/2/2021 11:45:00 AM -0.04 31.928 0.341 8.15 4.37 13.59
2/2/2021 12:00:00 PM -0.04 31.928 0.341 8.15 4.61 13.61
2/2/2021 12:15:00 PM -0.05 31.91 0.341 8.15 4.48 13.61
2/2/2021 12:30:00 PM -0.03 31.946 0.341 8.16 4.6 13.62
2/2/2021 12:45:00 PM -0.01 31.982 0.341 8.16 4.4 13.61
2/2/2021 1:00:00 PM 0 32 0.341 8.16 4.53 13.61
2/2/2021 1:15:00 PM 0 32 0.341 8.17 4.37 13.61
2/2/2021 1:30:00 PM -0.01 31.982 0.341 8.17 4.5 13.61
2/2/2021 1:45:00 PM 0.01 32.018 0.341 8.17 4.37 13.62
2/2/2021 2:00:00 PM 0.02 32.036 0.341 8.17 4.43 13.6
2/2/2021 2:15:00 PM 0.01 32.018 0.341 8.16 4.5 13.61
2/2/2021 2:30:00 PM 0.02 32.036 0.341 8.17 4.62 13.61
2/2/2021 2:45:00 PM 0.02 32.036 0.342 8.17 4.73 13.61
2/2/2021 3:00:00 PM 0.02 32.036 0.342 8.17 4.77 13.61
2/2/2021 3:15:00 PM 0.01 32.018 0.342 8.17 4.86 13.6
2/2/2021 3:30:00 PM 0 32 0.341 8.17 4.69 13.6
2/2/2021 3:45:00 PM -0.01 31.982 0.341 8.17 4.61 13.59
2/2/2021 4:00:00 PM -0.01 31.982 0.341 8.17 4.76 13.59
2/2/2021 4:15:00 PM -0.02 31.964 0.34 8.17 4.64 13.57
2/2/2021 4:30:00 PM -0.02 31.964 0.34 8.17 4.85 13.56
2/2/2021 4:45:00 PM -0.02 31.964 0.34 8.17 4.9 13.56
2/2/2021 5:00:00 PM -0.02 31.964 0.34 8.17 4.73 13.55
2/2/2021 5:15:00 PM -0.03 31.946 0.34 8.17 4.65 13.53
2/2/2021 5:30:00 PM -0.03 31.946 0.34 8.16 4.69 13.53
2/2/2021 5:45:00 PM -0.03 31.946 0.34 8.17 4.55 13.51
2/2/2021 6:00:00 PM -0.04 31.928 0.34 8.16 4.78 13.5
2/2/2021 6:15:00 PM -0.03 31.946 0.34 8.16 5.75 13.51
2/2/2021 6:30:00 PM -0.04 31.928 0.341 8.16 5.01 13.49
2/2/2021 6:45:00 PM -0.04 31.928 0.341 8.16 4.88 13.5
2/2/2021 7:00:00 PM -0.04 31.928 0.341 8.16 4.85 13.49
2/2/2021 7:15:00 PM -0.04 31.928 0.34 8.16 4.74 13.48
2/2/2021 7:30:00 PM -0.04 31.928 0.34 8.16 5.28 13.49
2/2/2021 7:45:00 PM -0.05 31.91 0.34 8.16 4.89 13.48
2/2/2021 8:00:00 PM -0.05 31.91 0.34 8.16 5.11 13.49
2/2/2021 8:15:00 PM -0.06 31.892 0.34 8.16 4.86 13.48
2/2/2021 8:30:00 PM -0.06 31.892 0.34 8.16 4.8 13.48
2/2/2021 8:45:00 PM -0.06 31.892 0.34 8.16 4.86 13.48
2/2/2021 9:00:00 PM -0.06 31.892 0.34 8.16 4.9 13.48
2/2/2021 9:15:00 PM -0.06 31.892 0.341 8.15 4.89 13.49
2/2/2021 9:30:00 PM -0.06 31.892 0.342 8.15 5.19 13.49
2/2/2021 9:45:00 PM -0.06 31.892 0.343 8.15 4.86 13.49
2/2/2021 10:00:00 PM -0.06 31.892 0.343 8.15 4.93 13.49
2/2/2021 10:15:00 PM -0.06 31.892 0.343 8.15 5.13 13.49
2/2/2021 10:30:00 PM -0.06 31.892 0.343 8.15 4.97 13.49
2/2/2021 10:45:00 PM -0.06 31.892 0.342 8.15 4.82 13.49
2/2/2021 11:00:00 PM -0.06 31.892 0.342 8.15 5.12 13.49
2/2/2021 11:15:00 PM -0.06 31.892 0.342 8.15 4.97 13.48
2/2/2021 11:30:00 PM -0.06 31.892 0.342 8.14 4.96 13.48
2/2/2021 11:45:00 PM -0.06 31.892 0.342 8.15 4.61 13.48
2/3/2021 12:00:00 AM -0.06 31.892 0.341 8.15 5 13.48
2/3/2021 12:15:00 AM -0.06 31.892 0.341 8.15 4.91 13.48
2/3/2021 12:30:00 AM -0.06 31.892 0.341 8.15 4.88 13.48
2/3/2021 12:45:00 AM -0.06 31.892 0.341 8.15 5.06 13.49
2/3/2021 1:00:00 AM -0.06 31.892 0.34 8.15 4.74 13.48
2/3/2021 1:15:00 AM -0.06 31.892 0.34 8.15 5.24 13.47
2/3/2021 1:30:00 AM -0.06 31.892 0.34 8.15 4.77 13.47
2/3/2021 1:45:00 AM -0.06 31.892 0.34 8.15 4.89 13.47
2/3/2021 2:00:00 AM -0.06 31.892 0.34 8.14 4.9 13.47
2/3/2021 2:15:00 AM -0.06 31.892 0.34 8.14 4.64 13.47
2/3/2021 2:30:00 AM -0.06 31.892 0.34 8.14 4.67 13.47
2/3/2021 2:45:00 AM -0.06 31.892 0.34 8.14 4.66 13.47
2/3/2021 3:00:00 AM -0.06 31.892 0.34 8.14 4.71 13.47
2/3/2021 3:15:00 AM -0.06 31.892 0.34 8.14 4.83 13.47
2/3/2021 3:30:00 AM -0.06 31.892 0.34 8.14 4.72 13.46
2/3/2021 3:45:00 AM -0.06 31.892 0.339 8.14 4.69 13.46
2/3/2021 4:00:00 AM -0.06 31.892 0.339 8.14 4.93 13.45
2/3/2021 4:15:00 AM -0.06 31.892 0.339 8.14 4.86 13.46
2/3/2021 4:30:00 AM -0.06 31.892 0.339 8.14 4.83 13.45
2/3/2021 4:45:00 AM -0.06 31.892 0.339 8.14 4.75 13.45
2/3/2021 5:00:00 AM -0.06 31.892 0.339 8.14 4.79 13.45
2/3/2021 5:15:00 AM -0.06 31.892 0.34 8.14 4.66 13.44
2/3/2021 5:30:00 AM -0.06 31.892 0.339 8.14 4.68 13.45
2/3/2021 5:45:00 AM -0.06 31.892 0.339 8.14 4.62 13.45
2/3/2021 6:00:00 AM -0.06 31.892 0.339 8.14 4.65 13.44
2/3/2021 6:15:00 AM -0.06 31.892 0.339 8.14 4.67 13.44
2/3/2021 6:30:00 AM -0.06 31.892 0.34 8.14 4.62 13.45
2/3/2021 6:45:00 AM -0.06 31.892 0.339 8.14 4.77 13.44
2/3/2021 7:00:00 AM -0.06 31.892 0.339 8.14 4.89 13.44
2/3/2021 7:15:00 AM -0.06 31.892 0.339 8.13 4.72 13.43
2/3/2021 7:30:00 AM -0.06 31.892 0.34 8.14 4.7 13.44
2/3/2021 7:45:00 AM -0.06 31.892 0.34 8.14 4.72 13.43
2/3/2021 8:00:00 AM -0.06 31.892 0.34 8.14 5.06 13.43
2/3/2021 8:15:00 AM -0.06 31.892 0.339 8.14 4.9 13.45
2/3/2021 8:30:00 AM -0.06 31.892 0.339 8.14 4.94 13.46
2/3/2021 8:45:00 AM -0.06 31.892 0.339 8.14 4.82 13.46
2/3/2021 9:00:00 AM -0.06 31.892 0.339 8.13 4.8 13.47
2/3/2021 9:15:00 AM -0.06 31.892 0.339 8.14 4.68 13.48
2/3/2021 9:30:00 AM -0.06 31.892 0.339 8.15 4.82 13.49
2/3/2021 9:45:00 AM -0.05 31.91 0.339 8.15 4.96 13.49
2/3/2021 10:00:00 AM -0.05 31.91 0.339 8.15 4.77 13.51
2/3/2021 10:15:00 AM -0.05 31.91 0.339 8.15 4.64 13.51
2/3/2021 10:30:00 AM -0.04 31.928 0.339 8.16 4.59 13.52
2/3/2021 10:45:00 AM -0.03 31.946 0.339 8.16 4.61 13.54
2/3/2021 11:00:00 AM -0.02 31.964 0.338 8.15 4.67 13.54
2/3/2021 11:15:00 AM -0.02 31.964 0.338 8.16 4.6 13.55
2/3/2021 11:30:00 AM -0.01 31.982 0.338 8.17 4.63 13.56
2/3/2021 11:45:00 AM -0.01 31.982 0.338 8.17 4.97 13.57
2/3/2021 12:00:00 PM 0 32 0.338 8.17 5 13.56
2/3/2021 12:15:00 PM 0 32 0.338 8.17 4.68 13.58
2/3/2021 12:30:00 PM 0 32 0.338 8.18 4.68 13.58
2/3/2021 12:45:00 PM 0 32 0.338 8.16 4.72 13.58
2/3/2021 1:00:00 PM 0.01 32.018 0.338 8.17 4.62 13.59
2/3/2021 1:15:00 PM 0.01 32.018 0.338 8.18 4.66 13.59
2/3/2021 1:30:00 PM 0.01 32.018 0.338 8.18 4.7 13.6
2/3/2021 1:45:00 PM 0.01 32.018 0.338 8.18 4.77 13.59
2/3/2021 2:00:00 PM 0.01 32.018 0.339 8.18 4.73 13.59
2/3/2021 2:15:00 PM 0.01 32.018 0.338 8.18 4.76 13.59
2/3/2021 2:30:00 PM 0 32 0.338 8.18 4.95 13.61
2/3/2021 2:45:00 PM -0.02 31.964 0.338 8.18 4.78 13.61
2/3/2021 3:00:00 PM -0.03 31.946 0.337 8.18 4.87 13.6
2/3/2021 3:15:00 PM -0.03 31.946 0.336 8.18 4.75 13.61
2/3/2021 3:30:00 PM -0.02 31.964 0.336 8.18 5.17 13.61
2/3/2021 3:45:00 PM -0.02 31.964 0.336 8.18 5.04 13.6
2/3/2021 4:00:00 PM -0.03 31.946 0.336 8.18 4.77 13.59
2/3/2021 4:15:00 PM -0.03 31.946 0.336 8.18 4.94 13.59
2/3/2021 4:30:00 PM -0.04 31.928 0.336 8.18 4.83 13.59
2/3/2021 4:45:00 PM -0.04 31.928 0.336 8.18 4.79 13.58
2/3/2021 5:00:00 PM -0.04 31.928 0.336 8.18 4.92 13.58
2/3/2021 5:15:00 PM -0.04 31.928 0.336 8.17 4.67 13.56
2/3/2021 5:30:00 PM -0.04 31.928 0.336 8.17 4.66 13.56
2/3/2021 5:45:00 PM -0.04 31.928 0.336 8.17 4.83 13.55
2/3/2021 6:00:00 PM -0.04 31.928 0.336 8.16 5 13.56
2/3/2021 6:15:00 PM -0.04 31.928 0.336 8.17 5.29 13.56
2/3/2021 6:30:00 PM -0.04 31.928 0.337 8.17 5.06 13.56
2/3/2021 6:45:00 PM -0.04 31.928 0.336 8.17 5.07 13.55
2/3/2021 7:00:00 PM -0.04 31.928 0.337 8.17 5.37 13.55
2/3/2021 7:15:00 PM -0.04 31.928 0.337 8.16 4.93 13.56
2/3/2021 7:30:00 PM -0.04 31.928 0.337 8.16 5.07 13.55
2/3/2021 7:45:00 PM -0.04 31.928 0.338 8.16 4.83 13.56
2/3/2021 8:00:00 PM -0.04 31.928 0.338 8.15 4.77 13.56
2/3/2021 8:15:00 PM -0.04 31.928 0.338 8.16 4.82 13.55
2/3/2021 8:30:00 PM -0.04 31.928 0.338 8.16 5.5 13.55
2/3/2021 8:45:00 PM -0.04 31.928 0.338 8.16 4.89 13.55
2/3/2021 9:00:00 PM -0.04 31.928 0.338 8.15 5.12 13.56
2/3/2021 9:15:00 PM -0.04 31.928 0.338 8.15 4.94 13.55
2/3/2021 9:30:00 PM -0.04 31.928 0.339 8.16 5.11 13.56
2/3/2021 9:45:00 PM -0.03 31.946 0.339 8.16 5.1 13.56
2/3/2021 10:00:00 PM -0.03 31.946 0.339 8.16 5.15 13.56
2/3/2021 10:15:00 PM -0.04 31.928 0.338 8.16 5.1 13.55
2/3/2021 10:30:00 PM -0.03 31.946 0.338 8.15 5.09 13.55
2/3/2021 10:45:00 PM -0.03 31.946 0.338 8.15 5.04 13.55
2/3/2021 11:00:00 PM -0.03 31.946 0.338 8.16 5.19 13.56
2/3/2021 11:15:00 PM -0.03 31.946 0.338 8.16 4.74 13.56
2/3/2021 11:30:00 PM -0.03 31.946 0.337 8.16 4.96 13.55
2/3/2021 11:45:00 PM -0.03 31.946 0.337 8.15 4.99 13.55
2/4/2021 12:00:00 AM -0.03 31.946 0.337 8.15 4.86 13.55
2/4/2021 12:15:00 AM -0.04 31.928 0.337 8.16 5.07 13.56
2/4/2021 12:30:00 AM -0.04 31.928 0.337 8.16 5.13 13.56
2/4/2021 12:45:00 AM -0.04 31.928 0.337 8.15 4.93 13.56
2/4/2021 1:00:00 AM -0.04 31.928 0.337 8.15 4.95 13.56
2/4/2021 1:15:00 AM -0.04 31.928 0.337 8.16 4.9 13.57
2/4/2021 1:30:00 AM -0.04 31.928 0.336 8.16 5.15 13.57
2/4/2021 1:45:00 AM -0.04 31.928 0.336 8.16 4.92 13.56
2/4/2021 2:00:00 AM -0.04 31.928 0.336 8.16 5.04 13.58
2/4/2021 2:15:00 AM -0.04 31.928 0.336 8.16 8.99 13.57
2/4/2021 2:30:00 AM -0.04 31.928 0.336 8.16 4.93 13.58
2/4/2021 2:45:00 AM -0.04 31.928 0.336 8.16 4.92 13.58
2/4/2021 3:00:00 AM -0.04 31.928 0.336 8.16 4.86 13.58
2/4/2021 3:15:00 AM -0.04 31.928 0.336 8.16 4.96 13.58
2/4/2021 3:30:00 AM -0.04 31.928 0.336 8.16 4.83 13.59
2/4/2021 3:45:00 AM -0.04 31.928 0.336 8.16 5.04 13.59
2/4/2021 4:00:00 AM -0.04 31.928 0.336 8.16 5.27 13.58
2/4/2021 4:15:00 AM -0.04 31.928 0.336 8.16 5.01 13.59
2/4/2021 4:30:00 AM -0.04 31.928 0.336 8.16 4.98 13.59
2/4/2021 4:45:00 AM -0.05 31.91 0.336 8.16 4.98 13.59
2/4/2021 5:00:00 AM -0.05 31.91 0.336 8.16 5.04 13.6
2/4/2021 5:15:00 AM -0.05 31.91 0.336 8.16 4.9 13.6
2/4/2021 5:30:00 AM -0.05 31.91 0.336 8.16 4.97 13.61
2/4/2021 5:45:00 AM -0.06 31.892 0.336 8.16 4.87 13.61
2/4/2021 6:00:00 AM -0.06 31.892 0.336 8.16 5 13.61
2/4/2021 6:15:00 AM -0.06 31.892 0.337 8.16 4.82 13.61
2/4/2021 6:30:00 AM -0.07 31.874 0.337 8.16 5.18 13.63
2/4/2021 6:45:00 AM -0.07 31.874 0.337 8.16 4.86 13.62
2/4/2021 7:00:00 AM -0.07 31.874 0.337 8.16 4.9 13.63
2/4/2021 7:15:00 AM -0.07 31.874 0.337 8.15 5.06 13.64
2/4/2021 7:30:00 AM -0.07 31.874 0.337 8.15 4.97 13.64
2/4/2021 7:45:00 AM -0.07 31.874 0.337 8.16 5.08 13.64
2/4/2021 8:00:00 AM -0.07 31.874 0.337 8.16 4.88 13.66
2/4/2021 8:15:00 AM -0.06 31.892 0.337 8.16 4.95 13.67
2/4/2021 8:30:00 AM -0.06 31.892 0.337 8.16 4.84 13.7
2/4/2021 8:45:00 AM -0.06 31.892 0.337 8.16 4.8 13.7
2/4/2021 9:00:00 AM -0.05 31.91 0.338 8.16 4.73 13.72
2/4/2021 9:15:00 AM -0.05 31.91 0.337 8.16 4.69 13.72
2/4/2021 9:30:00 AM -0.04 31.928 0.337 8.16 4.62 13.75
2/4/2021 9:45:00 AM -0.01 31.982 0.338 8.17 4.76 13.76
2/4/2021 10:00:00 AM 0.01 32.018 0.337 8.17 4.71 13.78
2/4/2021 10:15:00 AM 0.01 32.018 0.337 8.18 4.98 13.79
2/4/2021 10:30:00 AM 0.02 32.036 0.337 8.17 4.75 13.77
2/4/2021 10:45:00 AM 0.03 32.054 0.337 8.17 4.93 13.76
2/4/2021 11:00:00 AM 0.05 32.09 0.337 8.17 4.94 13.77
2/4/2021 11:15:00 AM 0.06 32.108 0.337 8.18 4.95 13.78
2/4/2021 11:30:00 AM 0.08 32.144 0.336 8.18 4.88 13.77
2/4/2021 11:45:00 AM 0.1 32.18 0.336 8.18 4.86 13.76
2/4/2021 12:00:00 PM 0.12 32.216 0.336 8.18 5.05 13.76
2/4/2021 12:15:00 PM 0.13 32.234 0.336 8.18 5.1 13.76
2/4/2021 12:30:00 PM 0.14 32.252 0.335 8.18 4.94 13.76
2/4/2021 12:45:00 PM 0.15 32.27 0.335 8.18 5.12 13.77
2/4/2021 1:00:00 PM 0.15 32.27 0.335 8.18 5.3 13.75
2/4/2021 1:15:00 PM 0.15 32.27 0.335 8.19 5.33 13.76
2/4/2021 1:30:00 PM 0.15 32.27 0.335 8.19 5.41 13.75
2/4/2021 1:45:00 PM 0.14 32.252 0.335 8.19 5.64 13.74
2/4/2021 2:00:00 PM 0.14 32.252 0.334 8.19 5.38 13.72
2/4/2021 2:15:00 PM 0.13 32.234 0.334 8.19 5.71 13.71
2/4/2021 2:30:00 PM 0.12 32.216 0.334 8.19 5.55 13.71
2/4/2021 2:45:00 PM 0.11 32.198 0.334 8.19 6.22 13.69
2/4/2021 3:00:00 PM 0.1 32.18 0.333 8.19 5.77 13.7
2/4/2021 3:15:00 PM 0.09 32.162 0.333 8.19 5.86 13.69
2/4/2021 3:30:00 PM 0.07 32.126 0.332 8.2 5.75 13.69
2/4/2021 3:45:00 PM 0.05 32.09 0.332 8.2 5.87 13.69
2/4/2021 4:00:00 PM 0.03 32.054 0.331 8.2 5.89 13.67
2/4/2021 4:15:00 PM 0.02 32.036 0.331 8.2 5.81 13.67
2/4/2021 4:30:00 PM 0.01 32.018 0.331 8.19 5.84 13.66
2/4/2021 4:45:00 PM 0 32 0.331 8.19 6.01 13.66
2/4/2021 5:00:00 PM -0.01 31.982 0.331 8.19 6 13.64
2/4/2021 5:15:00 PM -0.02 31.964 0.331 8.19 6.04 13.64
2/4/2021 5:30:00 PM -0.03 31.946 0.331 8.19 5.91 13.64
2/4/2021 5:45:00 PM -0.04 31.928 0.331 8.19 5.9 13.62
2/4/2021 6:00:00 PM -0.04 31.928 0.331 8.19 5.93 13.63
2/4/2021 6:15:00 PM -0.05 31.91 0.331 8.19 5.59 13.62
2/4/2021 6:30:00 PM -0.05 31.91 0.332 8.19 5.77 13.63
2/4/2021 6:45:00 PM -0.06 31.892 0.332 8.18 5.65 13.64
2/4/2021 7:00:00 PM -0.06 31.892 0.332 8.18 5.33 13.64
2/4/2021 7:15:00 PM -0.06 31.892 0.332 8.18 5.46 13.65
2/4/2021 7:30:00 PM -0.07 31.874 0.332 8.18 5.45 13.66
2/4/2021 7:45:00 PM -0.07 31.874 0.332 8.17 5.99 13.68
2/4/2021 8:00:00 PM -0.07 31.874 0.333 8.18 5.35 13.68
2/4/2021 8:15:00 PM -0.07 31.874 0.333 8.17 5.41 13.69
2/4/2021 8:30:00 PM -0.07 31.874 0.333 8.18 5.29 13.7
2/4/2021 8:45:00 PM -0.07 31.874 0.334 8.17 5.34 13.72
2/4/2021 9:00:00 PM -0.07 31.874 0.334 8.17 5.94 13.73
2/4/2021 9:15:00 PM -0.07 31.874 0.334 8.17 5.85 13.74
2/4/2021 9:30:00 PM -0.07 31.874 0.335 8.18 5.84 13.75
2/4/2021 9:45:00 PM -0.07 31.874 0.335 8.17 5.38 13.75
2/4/2021 10:00:00 PM -0.07 31.874 0.335 8.17 5.82 13.77
2/4/2021 10:15:00 PM -0.07 31.874 0.335 8.17 5.57 13.77
2/4/2021 10:30:00 PM -0.07 31.874 0.336 8.17 5.39 13.76
2/4/2021 10:45:00 PM -0.06 31.892 0.336 8.17 5.63 13.77
2/4/2021 11:00:00 PM -0.06 31.892 0.336 8.17 5.56 13.78
2/4/2021 11:15:00 PM -0.06 31.892 0.336 8.17 5.15 13.77
2/4/2021 11:30:00 PM -0.06 31.892 0.337 8.16 5.38 13.77
2/4/2021 11:45:00 PM -0.06 31.892 0.337 8.16 5.62 13.77
2/5/2021 12:00:00 AM -0.06 31.892 0.337 8.16 5.41 13.76
2/5/2021 12:15:00 AM -0.06 31.892 0.337 8.16 5.26 13.76
2/5/2021 12:30:00 AM -0.06 31.892 0.337 8.16 5.2 13.76
2/5/2021 12:45:00 AM -0.06 31.892 0.337 8.16 5.23 13.75
2/5/2021 1:00:00 AM -0.06 31.892 0.337 8.16 5.73 13.75
2/5/2021 1:15:00 AM -0.06 31.892 0.337 8.16 5.2 13.75
2/5/2021 1:30:00 AM -0.06 31.892 0.337 8.16 5.13 13.75
2/5/2021 1:45:00 AM -0.06 31.892 0.338 8.16 5.34 13.74
2/5/2021 2:00:00 AM -0.06 31.892 0.338 8.16 5.13 13.74
2/5/2021 2:15:00 AM -0.06 31.892 0.338 8.16 5.08 13.73
2/5/2021 2:30:00 AM -0.06 31.892 0.338 8.16 5.02 13.72
2/5/2021 2:45:00 AM -0.06 31.892 0.338 8.16 4.94 13.71
2/5/2021 3:00:00 AM -0.06 31.892 0.338 8.16 5.5 13.71
2/5/2021 3:15:00 AM -0.06 31.892 0.338 8.15 5.21 13.68
2/5/2021 3:30:00 AM -0.06 31.892 0.338 8.16 5.38 13.68
2/5/2021 3:45:00 AM -0.06 31.892 0.338 8.16 4.99 13.66
2/5/2021 4:00:00 AM -0.06 31.892 0.338 8.16 5.41 13.66
2/5/2021 4:15:00 AM -0.06 31.892 0.338 8.16 5.29 13.64
2/5/2021 4:30:00 AM -0.06 31.892 0.338 8.16 5.24 13.63
2/5/2021 4:45:00 AM -0.06 31.892 0.338 8.16 5.16 13.62
2/5/2021 5:00:00 AM -0.06 31.892 0.338 8.15 5.05 13.61
2/5/2021 5:15:00 AM -0.06 31.892 0.338 8.16 5.33 13.59
2/5/2021 5:30:00 AM -0.06 31.892 0.338 8.15 5.12 13.59
2/5/2021 5:45:00 AM -0.06 31.892 0.338 8.15 5.22 13.57
2/5/2021 6:00:00 AM -0.06 31.892 0.338 8.16 5.3 13.56
2/5/2021 6:15:00 AM -0.06 31.892 0.338 8.15 5.38 13.55
2/5/2021 6:30:00 AM -0.06 31.892 0.338 8.15 5.39 13.53
2/5/2021 6:45:00 AM -0.06 31.892 0.338 8.15 5.46 13.52
2/5/2021 7:00:00 AM -0.06 31.892 0.338 8.15 5.43 13.51
2/5/2021 7:15:00 AM -0.06 31.892 0.338 8.15 5.72 13.5
2/5/2021 7:30:00 AM -0.06 31.892 0.338 8.15 5.43 13.49
2/5/2021 7:45:00 AM -0.06 31.892 0.338 8.15 5.62 13.49
2/5/2021 8:00:00 AM -0.06 31.892 0.338 8.15 5.36 13.48
2/5/2021 8:15:00 AM -0.06 31.892 0.338 8.15 5.98 13.47
2/5/2021 8:30:00 AM -0.06 31.892 0.338 8.15 5.32 13.48
2/5/2021 8:45:00 AM -0.06 31.892 0.337 8.15 5.48 13.48
2/5/2021 9:00:00 AM -0.06 31.892 0.337 8.15 5.63 13.48
2/5/2021 9:15:00 AM -0.05 31.91 0.337 8.15 5.61 13.48
2/5/2021 9:30:00 AM -0.05 31.91 0.337 8.15 5.66 13.48
2/5/2021 9:45:00 AM -0.04 31.928 0.336 8.15 5.72 13.5
2/5/2021 10:00:00 AM -0.03 31.946 0.336 8.16